Time,TemperatureF,DewpointF,PressureIn,WindDirection,WindDirectionDegrees,WindSpeedMPH,WindSpeedGustMPH,Humidity,HourlyPrecipIn,Conditions,Clouds,dailyrainin,SolarRadiationWatts/m^2,SoftwareType,DateUTC
2013-09-19 00:00:00,82.8,60.8,29.21,ESE,105,5.7,8.3,48,-99.99,,,0.00,0,rob ver 1B,2013-09-19 07:00:00,
2013-09-19 00:01:00,82.8,61.0,29.21,ESE,117,5.7,8.5,47,-99.99,,,0.00,0,rob ver 1B,2013-09-19 07:01:00,
2013-09-19 00:02:00,82.8,61.0,29.21,ESE,123,4.5,6.1,47,-99.99,,,0.00,0,rob ver 1B,2013-09-19 07:02:00,
2013-09-19 00:03:00,82.0,42.3,29.15,SSW,212,8.6,10.9,24,-99.99,,,0.00,0,rob ver 1A,2013-09-19 07:03:00,
2013-09-19 00:04:00,82.7,60.9,29.21,ESE,120,4.3,5.7,48,-99.99,,,0.00,0,rob ver 1B,2013-09-19 07:04:00,
2013-09-19 00:05:00,82.5,61.1,29.21,ESE,120,4.5,6.2,48,-99.99,,,0.00,0,rob ver 1B,2013-09-19 07:05:00,
2013-09-19 00:06:00,82.5,61.2,29.21,ESE,118,3.9,4.8,48,-99.99,,,0.00,0,rob ver 1B,2013-09-19 07:06:00,
2013-09-19 00:07:00,82.3,61.1,29.21,ESE,106,4.4,5.6,49,-99.99,,,0.00,0,rob ver 1B,2013-09-19 07:07:00,
2013-09-19 00:08:00,82.0,42.6,29.15,SW,222,5.8,7.2,24,-99.99,,,0.00,0,rob ver 1A,2013-09-19 07:08:00,
2013-09-19 00:09:00,81.9,42.6,29.15,SW,219,6.2,7.7,24,-99.99,,,0.00,0,rob ver 1A,2013-09-19 07:09:00,
2013-09-19 00:10:00,82.2,61.5,29.21,ESE,116,3.7,4.7,49,-99.99,,,0.00,0,rob ver 1B,2013-09-19 07:10:00,
2013-09-19 00:11:00,82.1,61.6,29.21,East,100,3.5,4.7,49,-99.99,,,0.00,0,rob ver 1B,2013-09-19 07:11:00,
2013-09-19 00:12:00,82.1,61.7,29.21,ESE,104,3.5,4.0,50,-99.99,,,0.00,0,rob ver 1B,2013-09-19 07:12:00,
2013-09-19 00:13:00,82.0,61.8,29.21,ESE,108,3.6,4.3,50,-99.99,,,0.00,0,rob ver 1B,2013-09-19 07:13:00,
2013-09-19 00:14:00,81.9,42.7,29.15,SW,216,5.4,7.1,25,-99.99,,,0.00,0,rob ver 1A,2013-09-19 07:14:00,
2013-09-19 00:15:00,81.9,62.0,29.21,East,97,3.8,4.7,51,-99.99,,,0.00,0,rob ver 1B,2013-09-19 07:15:00,
2013-09-19 00:16:00,81.9,62.0,29.21,East,98,3.6,4.8,50,-99.99,,,0.00,0,rob ver 1B,2013-09-19 07:16:00,
2013-09-19 00:17:00,81.9,62.1,29.21,ESE,115,3.4,5.0,51,-99.99,,,0.00,0,rob ver 1B,2013-09-19 07:17:00,
2013-09-19 00:18:00,81.8,62.0,29.21,East,91,2.2,2.7,51,-99.99,,,0.00,0,rob ver 1B,2013-09-19 07:18:00,
2013-09-19 00:19:00,81.6,42.9,29.15,SW,215,4.8,6.9,25,-99.99,,,0.00,0,rob ver 1A,2013-09-19 07:19:00,
2013-09-19 00:20:00,81.8,62.2,29.21,East,100,2.2,3.2,51,-99.99,,,0.00,0,rob ver 1B,2013-09-19 07:20:00,
2013-09-19 00:21:00,81.8,62.1,29.21,ENE,78,1.7,2.6,51,-99.99,,,0.00,0,rob ver 1B,2013-09-19 07:21:00,
2013-09-19 00:22:00,81.7,62.2,29.21,East,90,2.0,2.5,51,-99.99,,,0.00,0,rob ver 1B,2013-09-19 07:22:00,
2013-09-19 00:23:00,81.7,62.3,29.21,ENE,76,1.9,2.6,51,-99.99,,,0.00,0,rob ver 1B,2013-09-19 07:23:00,
2013-09-19 00:24:00,81.7,62.3,29.21,ENE,64,2.0,2.5,51,-99.99,,,0.00,0,rob ver 1B,2013-09-19 07:24:00,
2013-09-19 00:25:00,81.4,43.1,29.15,SSW,208,5.4,7.0,25,-99.99,,,0.00,0,rob ver 1A,2013-09-19 07:25:00,
2013-09-19 00:26:00,81.6,62.2,29.21,ENE,62,2.1,3.4,52,-99.99,,,0.00,0,rob ver 1B,2013-09-19 07:26:00,
2013-09-19 00:27:00,81.6,62.3,29.21,ENE,67,3.0,3.8,52,-99.99,,,0.00,0,rob ver 1B,2013-09-19 07:27:00,
2013-09-19 00:28:00,81.6,62.4,29.21,ENE,77,2.4,3.7,52,-99.99,,,0.00,0,rob ver 1B,2013-09-19 07:28:00,
2013-09-19 00:30:00,81.2,43.3,29.15,SSW,197,6.1,8.0,26,-99.99,,,0.00,0,rob ver 1A,2013-09-19 07:30:00,
2013-09-19 00:31:00,81.7,62.5,29.21,ENE,65,2.8,3.7,52,-99.99,,,0.00,0,rob ver 1B,2013-09-19 07:31:00,
2013-09-19 00:32:00,81.7,62.8,29.21,ENE,67,2.8,4.3,52,-99.99,,,0.00,0,rob ver 1B,2013-09-19 07:32:00,
2013-09-19 00:33:00,81.8,62.7,29.21,ENE,68,3.4,4.7,52,-99.99,,,0.00,0,rob ver 1B,2013-09-19 07:33:00,
2013-09-19 00:34:00,81.7,62.6,29.21,ENE,57,2.8,3.8,52,-99.99,,,0.00,0,rob ver 1B,2013-09-19 07:34:00,
2013-09-19 00:35:00,81.2,43.7,29.15,SSW,203,5.1,7.6,26,-99.99,,,0.00,0,rob ver 1A,2013-09-19 07:35:00,
2013-09-19 00:36:00,81.7,62.6,29.21,NE,53,3.2,4.1,52,-99.99,,,0.00,0,rob ver 1B,2013-09-19 07:36:00,
2013-09-19 00:37:00,81.6,62.7,29.21,East,89,2.3,3.4,52,-99.99,,,0.00,0,rob ver 1B,2013-09-19 07:37:00,
2013-09-19 00:38:00,81.7,62.9,29.21,ENE,73,1.3,2.7,53,-99.99,,,0.00,0,rob ver 1B,2013-09-19 07:38:00,
2013-09-19 00:39:00,81.7,63.0,29.21,ENE,64,2.4,3.0,53,-99.99,,,0.00,0,rob ver 1B,2013-09-19 07:39:00,
2013-09-19 00:40:00,81.0,43.9,29.15,SSW,205,5.0,6.5,27,-99.99,,,0.00,0,rob ver 1A,2013-09-19 07:40:00,
2013-09-19 00:41:00,81.8,63.1,29.21,East,91,3.5,4.6,53,-99.99,,,0.00,0,rob ver 1B,2013-09-19 07:41:00,
2013-09-19 00:42:00,81.8,63.2,29.21,SE,137,2.2,3.3,53,-99.99,,,0.00,0,rob ver 1B,2013-09-19 07:42:00,
2013-09-19 00:43:00,81.8,63.2,29.21,ESE,122,1.8,3.6,53,-99.99,,,0.00,0,rob ver 1B,2013-09-19 07:43:00,
2013-09-19 00:44:00,81.8,63.3,29.21,ENE,59,3.1,4.9,53,-99.99,,,0.00,0,rob ver 1B,2013-09-19 07:44:00,
2013-09-19 00:45:00,80.7,44.2,29.15,South,190,3.9,5.6,27,-99.99,,,0.00,0,rob ver 1A,2013-09-19 07:45:00,
2013-09-19 00:46:00,82.0,63.5,29.21,East,93,1.7,3.2,53,-99.99,,,0.00,0,rob ver 1B,2013-09-19 07:46:00,
2013-09-19 00:47:00,82.0,63.7,29.21,East,83,2.3,4.0,53,-99.99,,,0.00,0,rob ver 1B,2013-09-19 07:47:00,
2013-09-19 00:48:00,82.0,63.7,29.21,SW,214,1.9,5.1,53,-99.99,,,0.00,0,rob ver 1B,2013-09-19 07:48:00,
2013-09-19 00:49:00,82.0,63.6,29.21,SSE,149,2.2,4.3,53,-99.99,,,0.00,0,rob ver 1B,2013-09-19 07:49:00,
2013-09-19 00:50:00,80.5,44.5,29.15,ESE,105,1.4,2.3,28,-99.99,,,0.00,0,rob ver 1A,2013-09-19 07:50:00,
2013-09-19 00:51:00,82.1,63.9,29.21,SW,234,2.1,3.8,54,-99.99,,,0.00,0,rob ver 1B,2013-09-19 07:51:00,
2013-09-19 00:52:00,82.1,63.9,29.21,SSW,209,2.6,4.9,53,-99.99,,,0.00,0,rob ver 1B,2013-09-19 07:52:00,
2013-09-19 00:53:00,82.1,63.8,29.21,South,183,3.8,6.4,54,-99.99,,,0.00,0,rob ver 1B,2013-09-19 07:53:00,
2013-09-19 00:54:00,82.2,64.1,29.21,South,179,3.2,4.9,54,-99.99,,,0.00,0,rob ver 1B,2013-09-19 07:54:00,
2013-09-19 00:55:00,80.1,44.6,29.15,ENE,64,1.6,1.9,28,-99.99,,,0.00,0,rob ver 1A,2013-09-19 07:55:00,
2013-09-19 00:56:00,82.2,63.8,29.21,South,182,4.8,6.8,53,-99.99,,,0.00,0,rob ver 1B,2013-09-19 07:56:00,
2013-09-19 00:57:00,82.1,63.9,29.21,South,186,6.1,7.6,54,-99.99,,,0.00,0,rob ver 1B,2013-09-19 07:57:00,
2013-09-19 00:58:00,82.2,64.1,29.21,South,189,4.9,7.2,54,-99.99,,,0.00,0,rob ver 1B,2013-09-19 07:58:00,
2013-09-19 00:59:00,82.3,63.9,29.21,South,189,5.3,7.0,53,-99.99,,,0.00,0,rob ver 1B,2013-09-19 07:59:00,
2013-09-19 01:00:00,79.9,44.7,29.15,NE,47,2.6,3.6,28,-99.99,,,0.00,0,rob ver 1A,2013-09-19 08:00:00,
2013-09-19 01:01:00,82.2,64.0,29.21,SSW,193,4.7,6.3,54,-99.99,,,0.00,0,rob ver 1B,2013-09-19 08:01:00,
2013-09-19 01:02:00,82.2,63.9,29.21,South,177,4.9,6.2,53,-99.99,,,0.00,0,rob ver 1B,2013-09-19 08:02:00,
2013-09-19 01:03:00,82.1,63.8,29.21,South,172,3.8,4.7,54,-99.99,,,0.00,0,rob ver 1B,2013-09-19 08:03:00,
2013-09-19 01:04:00,82.0,63.8,29.21,SSW,196,4.0,5.0,54,-99.99,,,0.00,0,rob ver 1B,2013-09-19 08:04:00,
2013-09-19 01:05:00,81.9,63.9,29.21,SSW,199,4.2,5.5,54,-99.99,,,0.00,0,rob ver 1B,2013-09-19 08:05:00,
2013-09-19 01:06:00,79.8,44.8,29.15,NE,42,5.1,5.8,29,-99.99,,,0.00,0,rob ver 1A,2013-09-19 08:06:00,
2013-09-19 01:07:00,81.9,63.8,29.21,SSW,208,2.7,3.4,54,-99.99,,,0.00,0,rob ver 1B,2013-09-19 08:07:00,
2013-09-19 01:08:00,81.8,63.8,29.21,SSW,210,2.7,4.5,54,-99.99,,,0.00,0,rob ver 1B,2013-09-19 08:08:00,
2013-09-19 01:09:00,81.8,63.8,29.21,SSW,195,1.9,2.5,54,-99.99,,,0.00,0,rob ver 1B,2013-09-19 08:09:00,
2013-09-19 01:10:00,81.7,63.8,29.21,SSW,193,1.7,3.0,54,-99.99,,,0.00,0,rob ver 1B,2013-09-19 08:10:00,
2013-09-19 01:11:00,79.9,45.0,29.18,NE,49,3.2,3.9,29,-99.99,,,0.00,0,rob ver 1A,2013-09-19 08:11:00,
2013-09-19 01:12:00,81.6,63.7,29.21,South,191,2.2,3.3,54,-99.99,,,0.00,0,rob ver 1B,2013-09-19 08:12:00,
2013-09-19 01:13:00,81.6,63.7,29.21,SW,220,2.1,2.7,54,-99.99,,,0.00,0,rob ver 1B,2013-09-19 08:13:00,
2013-09-19 01:14:00,81.6,63.7,29.21,SW,214,1.5,2.5,54,-99.99,,,0.00,0,rob ver 1B,2013-09-19 08:14:00,
2013-09-19 01:15:00,81.6,63.7,29.21,SW,214,0.6,1.0,54,-99.99,,,0.00,0,rob ver 1B,2013-09-19 08:15:00,
2013-09-19 01:16:00,80.4,45.2,29.18,South,171,2.1,4.1,28,-99.99,,,0.00,0,rob ver 1A,2013-09-19 08:16:00,
2013-09-19 01:17:00,81.5,63.7,29.21,North,351,0.6,1.1,54,-99.99,,,0.00,0,rob ver 1B,2013-09-19 08:17:00,
2013-09-19 01:18:00,81.4,63.7,29.21,NNE,23,1.0,1.4,54,-99.99,,,0.00,0,rob ver 1B,2013-09-19 08:18:00,
2013-09-19 01:19:00,81.4,63.7,29.21,NE,35,1.2,1.5,55,-99.99,,,0.00,0,rob ver 1B,2013-09-19 08:19:00,
2013-09-19 01:20:00,81.4,63.8,29.21,NNE,18,1.5,1.9,55,-99.99,,,0.00,0,rob ver 1B,2013-09-19 08:20:00,
2013-09-19 01:21:00,80.8,45.2,29.18,South,170,3.7,4.7,28,-99.99,,,0.00,0,rob ver 1A,2013-09-19 08:21:00,
2013-09-19 01:22:00,81.4,63.7,29.21,NNE,30,1.6,2.3,55,-99.99,,,0.00,0,rob ver 1B,2013-09-19 08:22:00,
2013-09-19 01:23:00,81.5,63.8,29.21,North,4,1.8,2.8,54,-99.99,,,0.00,0,rob ver 1B,2013-09-19 08:23:00,
2013-09-19 01:24:00,81.5,63.7,29.21,North,356,2.3,3.9,54,-99.99,,,0.00,0,rob ver 1B,2013-09-19 08:24:00,
2013-09-19 01:25:00,81.6,63.6,29.21,North,5,2.2,2.7,54,-99.99,,,0.00,0,rob ver 1B,2013-09-19 08:25:00,
2013-09-19 01:26:00,81.0,45.4,29.15,South,174,4.1,4.9,28,-99.99,,,0.00,0,rob ver 1A,2013-09-19 08:26:00,
2013-09-19 01:27:00,81.5,63.4,29.21,North,349,1.0,1.3,54,-99.99,,,0.00,0,rob ver 1B,2013-09-19 08:27:00,
2013-09-19 01:28:00,81.5,63.6,29.21,NNW,342,0.7,1.4,54,-99.99,,,0.00,0,rob ver 1B,2013-09-19 08:28:00,
2013-09-19 01:29:00,81.4,63.7,29.21,WNW,296,0.5,0.6,54,-99.99,,,0.00,0,rob ver 1B,2013-09-19 08:29:00,
2013-09-19 01:30:00,81.4,63.7,29.21,SW,236,0.7,0.9,55,-99.99,,,0.00,0,rob ver 1B,2013-09-19 08:30:00,
2013-09-19 01:31:00,80.6,45.4,29.18,SSW,209,2.4,3.2,28,-99.99,,,0.00,0,rob ver 1A,2013-09-19 08:31:00,
2013-09-19 01:32:00,81.4,63.8,29.21,South,174,0.7,1.3,55,-99.99,,,0.00,0,rob ver 1B,2013-09-19 08:32:00,
2013-09-19 01:33:00,81.3,63.8,29.21,South,179,0.3,0.5,55,-99.99,,,0.00,0,rob ver 1B,2013-09-19 08:33:00,
2013-09-19 01:34:00,81.3,63.8,29.21,South,177,0.6,1.5,55,-99.99,,,0.00,0,rob ver 1B,2013-09-19 08:34:00,
2013-09-19 01:35:00,81.2,63.6,29.21,West,261,0.5,1.2,54,-99.99,,,0.00,0,rob ver 1B,2013-09-19 08:35:00,
2013-09-19 01:36:00,80.4,45.5,29.18,SW,226,3.1,3.6,29,-99.99,,,0.00,0,rob ver 1A,2013-09-19 08:36:00,
2013-09-19 01:37:00,81.2,63.7,29.21,NNE,13,1.5,2.1,55,-99.99,,,0.00,0,rob ver 1B,2013-09-19 08:37:00,
2013-09-19 01:38:00,81.1,63.5,29.21,North,9,2.2,2.8,54,-99.99,,,0.00,0,rob ver 1B,2013-09-19 08:38:00,
2013-09-19 01:39:00,81.0,63.6,29.21,NNE,21,2.6,3.1,55,-99.99,,,0.00,0,rob ver 1B,2013-09-19 08:39:00,
2013-09-19 01:40:00,80.8,63.2,29.21,NNE,32,2.9,3.3,55,-99.99,,,0.00,0,rob ver 1B,2013-09-19 08:40:00,
2013-09-19 01:41:00,80.2,45.8,29.15,SW,225,2.1,2.8,29,-99.99,,,0.00,0,rob ver 1A,2013-09-19 08:41:00,
2013-09-19 01:42:00,80.6,63.7,29.21,NE,38,1.9,2.3,56,-99.99,,,0.00,0,rob ver 1B,2013-09-19 08:42:00,
2013-09-19 01:43:00,80.7,63.6,29.21,NE,51,1.7,2.1,56,-99.99,,,0.00,0,rob ver 1B,2013-09-19 08:43:00,
2013-09-19 01:44:00,80.7,63.6,29.21,East,82,1.3,1.9,56,-99.99,,,0.00,0,rob ver 1B,2013-09-19 08:44:00,
2013-09-19 01:45:00,80.7,63.6,29.21,East,84,1.3,1.8,55,-99.99,,,0.00,0,rob ver 1B,2013-09-19 08:45:00,
2013-09-19 01:46:00,79.9,46.0,29.15,WSW,239,1.6,2.0,30,-99.99,,,0.00,0,rob ver 1A,2013-09-19 08:46:00,
2013-09-19 01:47:00,80.7,63.4,29.21,ESE,121,1.8,2.5,55,-99.99,,,0.00,0,rob ver 1B,2013-09-19 08:47:00,
2013-09-19 01:48:00,80.7,63.3,29.21,ESE,115,1.6,2.3,55,-99.99,,,0.00,0,rob ver 1B,2013-09-19 08:48:00,
2013-09-19 01:49:00,80.6,63.2,29.21,SE,134,1.7,2.1,55,-99.99,,,0.00,0,rob ver 1B,2013-09-19 08:49:00,
2013-09-19 01:50:00,80.5,63.1,29.21,SE,141,1.7,2.1,55,-99.99,,,0.00,0,rob ver 1B,2013-09-19 08:50:00,
2013-09-19 01:51:00,80.0,46.1,29.18,WNW,288,1.2,1.5,30,-99.99,,,0.00,0,rob ver 1A,2013-09-19 08:51:00,
2013-09-19 01:52:00,80.4,63.1,29.21,SE,124,0.8,0.9,55,-99.99,,,0.00,0,rob ver 1B,2013-09-19 08:52:00,
2013-09-19 01:53:00,80.3,63.2,29.21,ESE,109,0.4,0.7,55,-99.99,,,0.00,0,rob ver 1B,2013-09-19 08:53:00,
2013-09-19 01:54:00,80.3,63.1,29.21,East,98,0.2,0.4,55,-99.99,,,0.00,0,rob ver 1B,2013-09-19 08:54:00,
2013-09-19 01:55:00,80.2,63.2,29.21,SE,145,0.2,0.4,56,-99.99,,,0.00,0,rob ver 1B,2013-09-19 08:55:00,
2013-09-19 01:56:00,79.8,46.6,29.15,SSE,155,0.7,1.5,31,-99.99,,,0.00,0,rob ver 1A,2013-09-19 08:56:00,
2013-09-19 01:57:00,80.1,63.3,29.21,South,182,0.5,0.8,56,-99.99,,,0.00,0,rob ver 1B,2013-09-19 08:57:00,
2013-09-19 01:58:00,80.0,63.4,29.21,South,179,0.8,1.1,56,-99.99,,,0.00,0,rob ver 1B,2013-09-19 08:58:00,
2013-09-19 01:59:00,80.0,63.4,29.21,SSW,192,0.6,0.7,56,-99.99,,,0.00,0,rob ver 1B,2013-09-19 08:59:00,
2013-09-19 02:00:00,79.9,63.3,29.21,SW,229,0.2,0.3,56,-99.99,,,0.00,0,rob ver 1B,2013-09-19 09:00:00,
2013-09-19 02:01:00,79.9,63.4,29.21,WNW,303,0.3,0.5,57,-99.99,,,0.00,0,rob ver 1B,2013-09-19 09:01:00,
2013-09-19 02:02:00,79.4,46.7,29.15,SSW,196,1.6,1.9,31,-99.99,,,0.00,0,rob ver 1A,2013-09-19 09:02:00,
2013-09-19 02:03:00,79.9,63.4,29.21,North,355,1.5,1.9,57,-99.99,,,0.00,0,rob ver 1B,2013-09-19 09:03:00,
2013-09-19 02:04:00,80.0,63.4,29.21,North,0,2.1,2.4,57,-99.99,,,0.00,0,rob ver 1B,2013-09-19 09:04:00,
2013-09-19 02:05:00,80.0,63.2,29.21,North,356,3.0,3.8,55,-99.99,,,0.00,0,rob ver 1B,2013-09-19 09:05:00,
2013-09-19 02:06:00,79.6,62.9,29.21,North,355,3.6,3.8,57,-99.99,,,0.00,0,rob ver 1B,2013-09-19 09:06:00,
2013-09-19 02:07:00,79.0,46.7,29.18,NNW,327,3.5,3.9,32,-99.99,,,0.00,0,rob ver 1A,2013-09-19 09:07:00,
2013-09-19 02:08:00,79.2,63.2,29.21,North,352,2.7,3.1,57,-99.99,,,0.00,0,rob ver 1B,2013-09-19 09:08:00,
2013-09-19 02:09:00,79.1,63.2,29.21,NNW,348,2.3,2.6,58,-99.99,,,0.00,0,rob ver 1B,2013-09-19 09:09:00,
2013-09-19 02:10:00,79.1,63.4,29.21,NNW,346,1.5,2.1,58,-99.99,,,0.00,0,rob ver 1B,2013-09-19 09:10:00,
2013-09-19 02:11:00,79.3,63.4,29.21,NNW,346,1.0,1.2,58,-99.99,,,0.00,0,rob ver 1B,2013-09-19 09:11:00,
2013-09-19 02:12:00,77.5,46.5,29.15,North,351,3.2,3.7,33,-99.99,,,0.00,0,rob ver 1A,2013-09-19 09:12:00,
2013-09-19 02:13:00,79.4,63.3,29.21,NNW,336,1.1,1.4,58,-99.99,,,0.00,0,rob ver 1B,2013-09-19 09:13:00,
2013-09-19 02:14:00,79.5,63.4,29.21,NNW,333,1.2,1.3,58,-99.99,,,0.00,0,rob ver 1B,2013-09-19 09:14:00,
2013-09-19 02:15:00,79.6,63.5,29.21,NNW,338,1.3,1.6,57,-99.99,,,0.00,0,rob ver 1B,2013-09-19 09:15:00,
2013-09-19 02:16:00,79.8,63.5,29.21,NNW,344,1.7,2.2,57,-99.99,,,0.00,0,rob ver 1B,2013-09-19 09:16:00,
2013-09-19 02:17:00,77.5,46.3,29.15,NNE,12,1.6,1.9,33,-99.99,,,0.00,0,rob ver 1A,2013-09-19 09:17:00,
2013-09-19 02:18:00,79.9,63.4,29.21,North,354,2.3,3.2,56,-99.99,,,0.00,0,rob ver 1B,2013-09-19 09:18:00,
2013-09-19 02:19:00,79.7,62.7,29.21,North,10,3.0,3.3,55,-99.99,,,0.00,0,rob ver 1B,2013-09-19 09:19:00,
2013-09-19 02:20:00,79.4,62.4,29.21,NNE,14,2.9,3.1,56,-99.99,,,0.00,0,rob ver 1B,2013-09-19 09:20:00,
2013-09-19 02:21:00,79.1,62.3,29.21,North,10,3.0,3.3,56,-99.99,,,0.00,0,rob ver 1B,2013-09-19 09:21:00,
2013-09-19 02:22:00,78.1,46.3,29.15,NW,322,1.9,2.1,32,-99.99,,,0.00,0,rob ver 1A,2013-09-19 09:22:00,
2013-09-19 02:23:00,78.7,62.1,29.21,NNE,16,2.6,2.9,56,-99.99,,,0.00,0,rob ver 1B,2013-09-19 09:23:00,
2013-09-19 02:24:00,78.6,61.9,29.21,NNE,16,2.6,3.0,56,-99.99,,,0.00,0,rob ver 1B,2013-09-19 09:24:00,
2013-09-19 02:25:00,78.5,61.8,29.21,NNE,14,2.4,2.8,56,-99.99,,,0.00,0,rob ver 1B,2013-09-19 09:25:00,
2013-09-19 02:26:00,78.4,61.8,29.21,NNE,14,2.2,2.5,56,-99.99,,,0.00,0,rob ver 1B,2013-09-19 09:26:00,
2013-09-19 02:27:00,77.6,46.3,29.15,NNW,338,3.5,4.0,33,-99.99,,,0.00,0,rob ver 1A,2013-09-19 09:27:00,
2013-09-19 02:28:00,78.2,61.6,29.21,NNE,21,2.0,2.3,56,-99.99,,,0.00,0,rob ver 1B,2013-09-19 09:28:00,
2013-09-19 02:29:00,78.2,61.8,29.21,NNE,29,2.2,2.8,57,-99.99,,,0.00,0,rob ver 1B,2013-09-19 09:29:00,
2013-09-19 02:30:00,78.1,61.8,29.21,NNE,21,2.6,3.1,57,-99.99,,,0.00,0,rob ver 1B,2013-09-19 09:30:00,
2013-09-19 02:31:00,78.0,61.6,29.18,NNE,15,3.0,3.7,57,-99.99,,,0.00,0,rob ver 1B,2013-09-19 09:31:00,
2013-09-19 02:32:00,76.7,46.5,29.15,North,6,3.1,3.2,34,-99.99,,,0.00,0,rob ver 1A,2013-09-19 09:32:00,
2013-09-19 02:33:00,77.8,61.6,29.21,North,11,2.8,3.2,57,-99.99,,,0.00,0,rob ver 1B,2013-09-19 09:33:00,
2013-09-19 02:34:00,77.7,61.7,29.21,North,5,3.2,3.8,57,-99.99,,,0.00,0,rob ver 1B,2013-09-19 09:34:00,
2013-09-19 02:35:00,77.7,61.8,29.18,North,7,3.7,3.8,58,-99.99,,,0.00,0,rob ver 1B,2013-09-19 09:35:00,
2013-09-19 02:36:00,77.8,61.9,29.21,North,7,3.4,3.5,57,-99.99,,,0.00,0,rob ver 1B,2013-09-19 09:36:00,
2013-09-19 02:37:00,76.7,46.5,29.15,NNW,331,2.8,3.1,34,-99.99,,,0.00,0,rob ver 1A,2013-09-19 09:37:00,
2013-09-19 02:38:00,77.8,61.7,29.18,North,7,3.3,3.4,57,-99.99,,,0.00,0,rob ver 1B,2013-09-19 09:38:00,
2013-09-19 02:39:00,77.8,61.5,29.18,North,6,3.3,3.4,57,-99.99,,,0.00,0,rob ver 1B,2013-09-19 09:39:00,
2013-09-19 02:40:00,77.7,61.6,29.18,North,5,3.6,3.9,57,-99.99,,,0.00,0,rob ver 1B,2013-09-19 09:40:00,
2013-09-19 02:41:00,77.8,61.8,29.21,North,7,3.7,3.9,57,-99.99,,,0.00,0,rob ver 1B,2013-09-19 09:41:00,
2013-09-19 02:42:00,77.1,46.1,29.15,NNW,338,2.2,2.6,33,-99.99,,,0.00,0,rob ver 1A,2013-09-19 09:42:00,
2013-09-19 02:43:00,77.8,61.6,29.18,North,0,3.6,3.8,57,-99.99,,,0.00,0,rob ver 1B,2013-09-19 09:43:00,
2013-09-19 02:44:00,77.7,61.7,29.18,North,2,3.9,4.3,57,-99.99,,,0.00,0,rob ver 1B,2013-09-19 09:44:00,
2013-09-19 02:45:00,77.7,61.7,29.21,North,4,3.6,3.8,57,-99.99,,,0.00,0,rob ver 1B,2013-09-19 09:45:00,
2013-09-19 02:46:00,77.7,61.7,29.18,North,9,3.6,3.8,57,-99.99,,,0.00,0,rob ver 1B,2013-09-19 09:46:00,
2013-09-19 02:47:00,77.8,46.2,29.15,North,7,2.8,3.1,32,-99.99,,,0.00,0,rob ver 1A,2013-09-19 09:47:00,
2013-09-19 02:48:00,77.7,61.6,29.18,North,1,2.9,3.2,57,-99.99,,,0.00,0,rob ver 1B,2013-09-19 09:48:00,
2013-09-19 02:49:00,77.6,61.7,29.18,North,1,2.9,3.1,57,-99.99,,,0.00,0,rob ver 1B,2013-09-19 09:49:00,
2013-09-19 02:50:00,77.6,61.8,29.18,North,358,3.0,3.3,58,-99.99,,,0.00,0,rob ver 1B,2013-09-19 09:50:00,
2013-09-19 02:51:00,77.7,61.7,29.18,North,356,3.1,3.5,58,-99.99,,,0.00,0,rob ver 1B,2013-09-19 09:51:00,
2013-09-19 02:52:00,77.6,61.8,29.18,North,357,3.8,4.1,58,-99.99,,,0.00,0,rob ver 1B,2013-09-19 09:52:00,
2013-09-19 02:53:00,77.9,46.0,29.15,North,6,2.5,2.7,32,-99.99,,,0.00,0,rob ver 1A,2013-09-19 09:53:00,
2013-09-19 02:54:00,77.6,61.6,29.18,North,358,3.7,4.0,58,-99.99,,,0.00,0,rob ver 1B,2013-09-19 09:54:00,
2013-09-19 02:55:00,77.5,61.6,29.18,North,358,3.7,3.9,58,-99.99,,,0.00,0,rob ver 1B,2013-09-19 09:55:00,
2013-09-19 02:56:00,77.5,61.7,29.18,North,356,3.7,3.9,58,-99.99,,,0.00,0,rob ver 1B,2013-09-19 09:56:00,
2013-09-19 02:57:00,77.4,61.7,29.18,North,358,3.5,4.0,58,-99.99,,,0.00,0,rob ver 1B,2013-09-19 09:57:00,
2013-09-19 02:58:00,77.7,46.3,29.15,North,11,2.9,3.4,32,-99.99,,,0.00,0,rob ver 1A,2013-09-19 09:58:00,
2013-09-19 02:59:00,77.4,61.8,29.18,North,1,3.2,3.3,58,-99.99,,,0.00,0,rob ver 1B,2013-09-19 09:59:00,
2013-09-19 03:00:00,77.3,61.8,29.18,North,2,3.1,3.3,58,-99.99,,,0.00,0,rob ver 1B,2013-09-19 10:00:00,
2013-09-19 03:01:00,77.3,61.7,29.18,North,6,3.1,3.3,58,-99.99,,,0.00,0,rob ver 1B,2013-09-19 10:01:00,
2013-09-19 03:02:00,77.4,61.6,29.18,North,6,3.1,3.3,58,-99.99,,,0.00,0,rob ver 1B,2013-09-19 10:02:00,
2013-09-19 03:03:00,77.2,46.6,29.15,North,3,2.3,2.4,34,-99.99,,,0.00,0,rob ver 1A,2013-09-19 10:03:00,
2013-09-19 03:04:00,77.4,61.7,29.18,North,2,3.1,3.2,58,-99.99,,,0.00,0,rob ver 1B,2013-09-19 10:04:00,
2013-09-19 03:05:00,77.4,61.7,29.18,North,0,3.0,3.1,58,-99.99,,,0.00,0,rob ver 1B,2013-09-19 10:05:00,
2013-09-19 03:06:00,77.5,61.8,29.18,North,359,2.9,3.0,58,-99.99,,,0.00,0,rob ver 1B,2013-09-19 10:06:00,
2013-09-19 03:07:00,77.6,61.8,29.18,North,355,2.8,3.0,58,-99.99,,,0.00,0,rob ver 1B,2013-09-19 10:07:00,
2013-09-19 03:08:00,77.0,46.8,29.15,NNW,347,2.4,2.6,34,-99.99,,,0.00,0,rob ver 1A,2013-09-19 10:08:00,
2013-09-19 03:09:00,77.7,61.9,29.18,North,351,3.2,3.4,58,-99.99,,,0.00,0,rob ver 1B,2013-09-19 10:09:00,
2013-09-19 03:10:00,77.7,61.9,29.18,North,349,3.3,3.4,58,-99.99,,,0.00,0,rob ver 1B,2013-09-19 10:10:00,
2013-09-19 03:11:00,77.7,61.9,29.18,North,349,3.1,3.3,58,-99.99,,,0.00,0,rob ver 1B,2013-09-19 10:11:00,
2013-09-19 03:12:00,77.6,61.9,29.18,NNW,347,3.2,3.3,58,-99.99,,,0.00,0,rob ver 1B,2013-09-19 10:12:00,
2013-09-19 03:13:00,77.6,47.1,29.15,NE,44,2.6,3.4,34,-99.99,,,0.00,0,rob ver 1A,2013-09-19 10:13:00,
2013-09-19 03:14:00,77.5,62.0,29.18,North,350,3.1,3.2,58,-99.99,,,0.00,0,rob ver 1B,2013-09-19 10:14:00,
2013-09-19 03:15:00,77.4,62.0,29.18,North,351,3.0,3.2,59,-99.99,,,0.00,0,rob ver 1B,2013-09-19 10:15:00,
2013-09-19 03:16:00,77.4,62.0,29.18,NNW,346,2.7,3.1,59,-99.99,,,0.00,0,rob ver 1B,2013-09-19 10:16:00,
2013-09-19 03:17:00,77.3,62.0,29.18,NNW,344,2.5,2.9,59,-99.99,,,0.00,0,rob ver 1B,2013-09-19 10:17:00,
2013-09-19 03:18:00,76.9,47.0,29.15,NNE,33,1.2,1.7,34,-99.99,,,0.00,0,rob ver 1A,2013-09-19 10:18:00,
2013-09-19 03:19:00,77.1,62.1,29.18,North,350,2.5,2.8,59,-99.99,,,0.00,0,rob ver 1B,2013-09-19 10:19:00,
2013-09-19 03:20:00,77.0,62.1,29.18,North,359,2.4,2.7,60,-99.99,,,0.00,0,rob ver 1B,2013-09-19 10:20:00,
2013-09-19 03:21:00,77.0,62.1,29.18,North,4,2.4,2.6,59,-99.99,,,0.00,0,rob ver 1B,2013-09-19 10:21:00,
2013-09-19 03:22:00,77.0,61.9,29.18,North,8,1.7,1.9,59,-99.99,,,0.00,0,rob ver 1B,2013-09-19 10:22:00,
2013-09-19 03:23:00,77.0,61.7,29.18,North,10,1.8,2.1,59,-99.99,,,0.00,0,rob ver 1B,2013-09-19 10:23:00,
2013-09-19 03:24:00,77.5,46.7,29.15,NNE,14,2.3,2.6,33,-99.99,,,0.00,0,rob ver 1A,2013-09-19 10:24:00,
2013-09-19 03:25:00,77.1,62.0,29.18,North,6,2.6,2.9,59,-99.99,,,0.00,0,rob ver 1B,2013-09-19 10:25:00,
2013-09-19 03:26:00,77.1,61.8,29.18,North,8,2.9,3.2,59,-99.99,,,0.00,0,rob ver 1B,2013-09-19 10:26:00,
2013-09-19 03:27:00,77.2,61.7,29.18,NNE,12,3.4,3.7,58,-99.99,,,0.00,0,rob ver 1B,2013-09-19 10:27:00,
2013-09-19 03:28:00,77.2,61.6,29.18,North,9,3.6,4.1,58,-99.99,,,0.00,0,rob ver 1B,2013-09-19 10:28:00,
2013-09-19 03:29:00,77.7,46.8,29.15,NNE,33,1.8,2.2,33,-99.99,,,0.00,0,rob ver 1A,2013-09-19 10:29:00,
2013-09-19 03:30:00,77.1,61.4,29.18,North,8,2.6,3.5,57,-99.99,,,0.00,0,rob ver 1B,2013-09-19 10:30:00,
2013-09-19 03:31:00,77.1,61.4,29.18,North,2,2.6,2.9,58,-99.99,,,0.00,0,rob ver 1B,2013-09-19 10:31:00,
2013-09-19 03:32:00,77.0,61.6,29.18,North,2,2.9,3.2,58,-99.99,,,0.00,0,rob ver 1B,2013-09-19 10:32:00,
2013-09-19 03:33:00,77.1,61.6,29.18,North,3,2.8,3.1,58,-99.99,,,0.00,0,rob ver 1B,2013-09-19 10:33:00,
2013-09-19 03:34:00,77.7,46.7,29.15,NE,35,2.1,2.2,33,-99.99,,,0.00,0,rob ver 1A,2013-09-19 10:34:00,
2013-09-19 03:35:00,77.1,61.6,29.18,North,359,2.7,3.2,59,-99.99,,,0.00,0,rob ver 1B,2013-09-19 10:35:00,
2013-09-19 03:36:00,77.0,61.6,29.18,North,0,3.2,3.4,59,-99.99,,,0.00,0,rob ver 1B,2013-09-19 10:36:00,
2013-09-19 03:37:00,76.9,61.6,29.18,North,1,3.4,3.6,58,-99.99,,,0.00,0,rob ver 1B,2013-09-19 10:37:00,
2013-09-19 03:38:00,76.9,61.6,29.18,North,6,3.5,3.8,59,-99.99,,,0.00,0,rob ver 1B,2013-09-19 10:38:00,
2013-09-19 03:39:00,77.6,46.8,29.15,NNE,24,1.7,1.9,33,-99.99,,,0.00,0,rob ver 1A,2013-09-19 10:39:00,
2013-09-19 03:40:00,76.8,61.4,29.18,North,3,3.2,3.4,59,-99.99,,,0.00,0,rob ver 1B,2013-09-19 10:40:00,
2013-09-19 03:41:00,76.7,61.4,29.18,North,2,3.1,3.4,59,-99.99,,,0.00,0,rob ver 1B,2013-09-19 10:41:00,
2013-09-19 03:42:00,76.7,61.4,29.18,North,3,3.4,3.8,59,-99.99,,,0.00,0,rob ver 1B,2013-09-19 10:42:00,
2013-09-19 03:43:00,76.7,61.3,29.18,North,1,3.7,3.9,58,-99.99,,,0.00,0,rob ver 1B,2013-09-19 10:43:00,
2013-09-19 03:44:00,76.9,46.9,29.15,NE,39,3.6,4.0,34,-99.99,,,0.00,0,rob ver 1A,2013-09-19 10:44:00,
2013-09-19 03:45:00,76.6,61.2,29.18,North,359,4.1,4.5,59,-99.99,,,0.00,0,rob ver 1B,2013-09-19 10:45:00,
2013-09-19 03:46:00,76.5,61.2,29.18,North,2,4.2,4.4,58,-99.99,,,0.00,0,rob ver 1B,2013-09-19 10:46:00,
2013-09-19 03:47:00,76.5,61.1,29.18,North,3,3.9,4.3,58,-99.99,,,0.00,0,rob ver 1B,2013-09-19 10:47:00,
2013-09-19 03:48:00,76.4,60.9,29.18,North,6,3.7,4.0,58,-99.99,,,0.00,0,rob ver 1B,2013-09-19 10:48:00,
2013-09-19 03:49:00,76.2,46.7,29.15,NE,42,3.6,4.0,35,-99.99,,,0.00,0,rob ver 1A,2013-09-19 10:49:00,
2013-09-19 03:50:00,76.3,61.0,29.18,NNE,13,3.5,3.8,59,-99.99,,,0.00,0,rob ver 1B,2013-09-19 10:50:00,
2013-09-19 03:51:00,76.3,60.9,29.18,NNE,15,3.2,3.4,58,-99.99,,,0.00,0,rob ver 1B,2013-09-19 10:51:00,
2013-09-19 03:52:00,76.2,60.9,29.18,NNE,20,3.2,3.4,59,-99.99,,,0.00,0,rob ver 1B,2013-09-19 10:52:00,
2013-09-19 03:53:00,76.2,61.1,29.18,NNE,30,3.2,3.6,59,-99.99,,,0.00,0,rob ver 1B,2013-09-19 10:53:00,
2013-09-19 03:54:00,75.7,47.0,29.15,NNE,19,3.0,3.2,36,-99.99,,,0.00,0,rob ver 1A,2013-09-19 10:54:00,
2013-09-19 03:55:00,76.2,61.2,29.18,NE,37,3.3,3.8,59,-99.99,,,0.00,0,rob ver 1B,2013-09-19 10:55:00,
2013-09-19 03:56:00,76.1,61.0,29.18,NNE,33,3.5,4.0,59,-99.99,,,0.00,0,rob ver 1B,2013-09-19 10:56:00,
2013-09-19 03:57:00,76.0,60.8,29.18,NNE,25,3.7,4.2,59,-99.99,,,0.00,0,rob ver 1B,2013-09-19 10:57:00,
2013-09-19 03:58:00,75.9,60.8,29.18,NNE,15,3.9,4.1,59,-99.99,,,0.00,0,rob ver 1B,2013-09-19 10:58:00,
2013-09-19 03:59:00,75.6,48.2,29.15,North,0,2.7,3.0,38,-99.99,,,0.00,0,rob ver 1A,2013-09-19 10:59:00,
2013-09-19 04:00:00,76.0,60.7,29.18,NNE,20,3.6,3.8,59,-99.99,,,0.00,0,rob ver 1B,2013-09-19 11:00:00,
2013-09-19 04:01:00,76.0,60.7,29.18,NNE,19,3.3,3.6,59,-99.99,,,0.00,0,rob ver 1B,2013-09-19 11:01:00,
2013-09-19 04:02:00,76.0,60.7,29.18,NNE,15,3.0,3.4,59,-99.99,,,0.00,0,rob ver 1B,2013-09-19 11:02:00,
2013-09-19 04:03:00,76.1,60.9,29.18,NNE,13,2.9,3.2,59,-99.99,,,0.00,0,rob ver 1B,2013-09-19 11:03:00,
2013-09-19 04:04:00,76.1,60.9,29.18,NNE,16,3.0,3.3,59,-99.99,,,0.00,0,rob ver 1B,2013-09-19 11:04:00,
2013-09-19 04:05:00,75.4,47.8,29.15,NE,38,3.2,3.5,37,-99.99,,,0.00,0,rob ver 1A,2013-09-19 11:05:00,
2013-09-19 04:06:00,76.1,61.0,29.18,NNE,17,3.3,3.6,59,-99.99,,,0.00,0,rob ver 1B,2013-09-19 11:06:00,
2013-09-19 04:07:00,76.2,61.1,29.18,NNE,27,2.9,3.3,59,-99.99,,,0.00,0,rob ver 1B,2013-09-19 11:07:00,
2013-09-19 04:08:00,76.2,61.1,29.18,NNE,32,3.1,3.5,59,-99.99,,,0.00,0,rob ver 1B,2013-09-19 11:08:00,
2013-09-19 04:09:00,76.2,61.1,29.18,NE,35,2.9,3.5,59,-99.99,,,0.00,0,rob ver 1B,2013-09-19 11:09:00,
2013-09-19 04:10:00,75.1,47.9,29.15,NNE,33,3.8,4.1,38,-99.99,,,0.00,0,rob ver 1A,2013-09-19 11:10:00,
2013-09-19 04:11:00,76.2,61.1,29.18,NE,38,2.4,2.8,59,-99.99,,,0.00,0,rob ver 1B,2013-09-19 11:11:00,
2013-09-19 04:12:00,76.2,61.1,29.18,NE,43,1.5,2.1,59,-99.99,,,0.00,0,rob ver 1B,2013-09-19 11:12:00,
2013-09-19 04:13:00,76.1,61.1,29.18,NW,312,0.5,1.6,59,-99.99,,,0.00,0,rob ver 1B,2013-09-19 11:13:00,
2013-09-19 04:14:00,76.0,60.8,29.18,SSW,208,1.7,2.0,59,-99.99,,,0.00,0,rob ver 1B,2013-09-19 11:14:00,
2013-09-19 04:15:00,75.3,47.9,29.18,NE,45,3.3,3.8,37,-99.99,,,0.00,0,rob ver 1A,2013-09-19 11:15:00,
2013-09-19 04:16:00,75.8,60.9,29.18,ENE,73,1.1,1.9,59,-99.99,,,0.00,0,rob ver 1B,2013-09-19 11:16:00,
2013-09-19 04:17:00,75.9,61.0,29.18,NE,36,1.0,1.7,60,-99.99,,,0.00,0,rob ver 1B,2013-09-19 11:17:00,
2013-09-19 04:18:00,75.8,61.0,29.18,West,272,1.0,1.8,59,-99.99,,,0.00,0,rob ver 1B,2013-09-19 11:18:00,
2013-09-19 04:19:00,75.8,60.9,29.18,WSW,237,1.4,1.8,60,-99.99,,,0.00,0,rob ver 1B,2013-09-19 11:19:00,
2013-09-19 04:20:00,75.1,47.5,29.18,NE,40,3.8,4.1,37,-99.99,,,0.00,0,rob ver 1A,2013-09-19 11:20:00,
2013-09-19 04:21:00,75.7,61.1,29.18,SW,225,1.0,1.5,60,-99.99,,,0.00,0,rob ver 1B,2013-09-19 11:21:00,
2013-09-19 04:22:00,75.7,61.1,29.18,SSW,209,1.1,1.4,60,-99.99,,,0.00,0,rob ver 1B,2013-09-19 11:22:00,
2013-09-19 04:23:00,75.5,61.2,29.18,SW,217,1.1,1.3,61,-99.99,,,0.00,0,rob ver 1B,2013-09-19 11:23:00,
2013-09-19 04:24:00,75.4,61.3,29.18,WNW,301,1.0,1.4,61,-99.99,,,0.00,0,rob ver 1B,2013-09-19 11:24:00,
2013-09-19 04:25:00,74.7,47.2,29.18,NE,44,3.7,4.3,37,-99.99,,,0.00,0,rob ver 1A,2013-09-19 11:25:00,
2013-09-19 04:26:00,75.2,61.1,29.18,NNE,13,0.8,1.5,61,-99.99,,,0.00,0,rob ver 1B,2013-09-19 11:26:00,
2013-09-19 04:27:00,75.1,61.1,29.18,North,8,0.4,0.6,61,-99.99,,,0.00,0,rob ver 1B,2013-09-19 11:27:00,
2013-09-19 04:28:00,75.1,61.1,29.18,North,5,0.3,0.8,61,-99.99,,,0.00,0,rob ver 1B,2013-09-19 11:28:00,
2013-09-19 04:29:00,75.1,60.9,29.18,North,10,0.5,1.1,61,-99.99,,,0.00,0,rob ver 1B,2013-09-19 11:29:00,
2013-09-19 04:30:00,74.9,47.1,29.18,NE,42,3.0,3.4,37,-99.99,,,0.00,0,rob ver 1A,2013-09-19 11:30:00,
2013-09-19 04:31:00,75.0,60.7,29.18,NW,320,0.4,0.6,61,-99.99,,,0.00,0,rob ver 1B,2013-09-19 11:31:00,
2013-09-19 04:32:00,75.0,60.7,29.18,NW,314,0.4,0.7,61,-99.99,,,0.00,0,rob ver 1B,2013-09-19 11:32:00,
2013-09-19 04:33:00,75.0,60.9,29.18,NNW,332,0.3,0.5,61,-99.99,,,0.00,0,rob ver 1B,2013-09-19 11:33:00,
2013-09-19 04:34:00,75.0,61.0,29.18,North,3,0.3,0.4,61,-99.99,,,0.00,0,rob ver 1B,2013-09-19 11:34:00,
2013-09-19 04:35:00,75.1,47.3,29.18,NNE,23,2.6,3.2,37,-99.99,,,0.00,0,rob ver 1A,2013-09-19 11:35:00,
2013-09-19 04:36:00,74.9,61.1,29.18,NW,314,0.5,0.6,62,-99.99,,,0.00,0,rob ver 1B,2013-09-19 11:36:00,
2013-09-19 04:37:00,74.8,61.1,29.18,NW,314,0.6,0.7,62,-99.99,,,0.00,0,rob ver 1B,2013-09-19 11:37:00,
2013-09-19 04:38:00,74.8,61.3,29.18,NNW,339,0.7,1.0,62,-99.99,,,0.00,0,rob ver 1B,2013-09-19 11:38:00,
2013-09-19 04:39:00,74.8,61.2,29.18,NNW,338,1.1,1.5,62,-99.99,,,0.00,0,rob ver 1B,2013-09-19 11:39:00,
2013-09-19 04:40:00,75.0,47.9,29.18,NNE,15,2.1,2.2,38,-99.99,,,0.00,0,rob ver 1A,2013-09-19 11:40:00,
2013-09-19 04:41:00,74.9,61.3,29.18,NNW,332,1.7,1.9,62,-99.99,,,0.00,0,rob ver 1B,2013-09-19 11:41:00,
2013-09-19 04:42:00,75.0,61.5,29.18,NNW,331,1.8,2.0,62,-99.99,,,0.00,0,rob ver 1B,2013-09-19 11:42:00,
2013-09-19 04:43:00,75.0,61.5,29.18,NNW,332,2.1,2.3,62,-99.99,,,0.00,0,rob ver 1B,2013-09-19 11:43:00,
2013-09-19 04:44:00,75.1,61.3,29.18,NNW,344,2.4,2.8,62,-99.99,,,0.00,0,rob ver 1B,2013-09-19 11:44:00,
2013-09-19 04:45:00,75.2,48.0,29.18,NE,34,2.1,2.5,37,-99.99,,,0.00,0,rob ver 1A,2013-09-19 11:45:00,
2013-09-19 04:46:00,75.1,61.0,29.18,North,353,2.7,2.9,61,-99.99,,,0.00,0,rob ver 1B,2013-09-19 11:46:00,
2013-09-19 04:47:00,75.1,60.9,29.18,North,355,2.9,3.3,61,-99.99,,,0.00,0,rob ver 1B,2013-09-19 11:47:00,
2013-09-19 04:48:00,75.0,60.8,29.18,North,357,3.0,3.3,61,-99.99,,,0.00,0,rob ver 1B,2013-09-19 11:48:00,
2013-09-19 04:49:00,74.9,60.8,29.18,North,357,2.6,3.0,61,-99.99,,,0.00,0,rob ver 1B,2013-09-19 11:49:00,
2013-09-19 04:50:00,74.9,60.7,29.18,North,359,2.7,3.0,61,-99.99,,,0.00,0,rob ver 1B,2013-09-19 11:50:00,
2013-09-19 04:51:00,75.3,47.7,29.18,ENE,63,2.7,2.9,37,-99.99,,,0.00,0,rob ver 1A,2013-09-19 11:51:00,
2013-09-19 04:52:00,74.8,60.7,29.18,North,3,2.7,2.9,61,-99.99,,,0.00,0,rob ver 1B,2013-09-19 11:52:00,
2013-09-19 04:53:00,74.8,60.6,29.18,North,5,2.8,3.0,61,-99.99,,,0.00,0,rob ver 1B,2013-09-19 11:53:00,
2013-09-19 04:54:00,74.8,60.5,29.18,North,7,2.8,3.0,60,-99.99,,,0.00,0,rob ver 1B,2013-09-19 11:54:00,
2013-09-19 04:55:00,74.9,60.5,29.18,North,10,2.8,2.9,60,-99.99,,,0.00,0,rob ver 1B,2013-09-19 11:55:00,
2013-09-19 04:56:00,76.1,47.1,29.18,East,81,2.4,2.9,36,-99.99,,,0.00,0,rob ver 1A,2013-09-19 11:56:00,
2013-09-19 04:57:00,75.0,60.3,29.18,NNE,16,2.3,2.5,60,-99.99,,,0.00,0,rob ver 1B,2013-09-19 11:57:00,
2013-09-19 04:58:00,75.0,60.3,29.18,NNE,19,2.3,2.5,60,-99.99,,,0.00,0,rob ver 1B,2013-09-19 11:58:00,
2013-09-19 04:59:00,75.0,60.3,29.18,NNE,20,2.3,2.6,60,-99.99,,,0.00,0,rob ver 1B,2013-09-19 11:59:00,
2013-09-19 05:00:00,74.9,60.3,29.18,NNE,23,2.0,2.5,60,-99.99,,,0.00,0,rob ver 1B,2013-09-19 12:00:00,
2013-09-19 05:01:00,75.2,47.9,29.18,East,89,2.4,3.2,38,-99.99,,,0.00,0,rob ver 1A,2013-09-19 12:01:00,
2013-09-19 05:02:00,75.0,60.6,29.18,NE,34,1.9,2.1,61,-99.99,,,0.00,0,rob ver 1B,2013-09-19 12:02:00,
2013-09-19 05:03:00,75.0,60.7,29.18,NE,51,1.0,1.8,61,-99.99,,,0.00,0,rob ver 1B,2013-09-19 12:03:00,
2013-09-19 05:04:00,75.0,60.8,29.21,ENE,70,0.4,0.8,61,-99.99,,,0.00,0,rob ver 1B,2013-09-19 12:04:00,
2013-09-19 05:05:00,75.0,60.7,29.21,SSE,150,0.4,0.6,61,-99.99,,,0.00,0,rob ver 1B,2013-09-19 12:05:00,
2013-09-19 05:06:00,73.4,48.3,29.18,ENE,73,2.6,2.9,41,-99.99,,,0.00,0,rob ver 1A,2013-09-19 12:06:00,
2013-09-19 05:07:00,74.9,60.6,29.18,SSW,211,0.4,0.7,61,-99.99,,,0.00,0,rob ver 1B,2013-09-19 12:07:00,
2013-09-19 05:08:00,74.8,60.6,29.21,South,173,0.3,0.4,61,-99.99,,,0.00,0,rob ver 1B,2013-09-19 12:08:00,
2013-09-19 05:09:00,74.8,60.6,29.21,SW,216,0.3,0.5,61,-99.99,,,0.00,0,rob ver 1B,2013-09-19 12:09:00,
2013-09-19 05:10:00,74.7,60.6,29.18,WSW,258,0.2,0.3,61,-99.99,,,0.00,0,rob ver 1B,2013-09-19 12:10:00,
2013-09-19 05:11:00,73.1,48.7,29.18,East,91,2.3,2.7,42,-99.99,,,0.00,0,rob ver 1A,2013-09-19 12:11:00,
2013-09-19 05:12:00,74.6,60.5,29.21,WSW,246,0.7,1.0,61,-99.99,,,0.00,0,rob ver 1B,2013-09-19 12:12:00,
2013-09-19 05:13:00,74.6,60.5,29.21,WSW,238,0.3,0.4,61,-99.99,,,0.00,0,rob ver 1B,2013-09-19 12:13:00,
2013-09-19 05:14:00,74.5,60.5,29.21,SW,228,0.8,0.9,61,-99.99,,,0.00,0,rob ver 1B,2013-09-19 12:14:00,
2013-09-19 05:15:00,74.5,60.5,29.21,SW,235,0.8,0.9,61,-99.99,,,0.00,0,rob ver 1B,2013-09-19 12:15:00,
2013-09-19 05:16:00,72.4,48.7,29.18,ENE,70,2.8,3.5,43,-99.99,,,0.00,0,rob ver 1A,2013-09-19 12:16:00,
2013-09-19 05:17:00,74.4,60.6,29.21,WNW,290,1.0,1.1,62,-99.99,,,0.00,0,rob ver 1B,2013-09-19 12:17:00,
2013-09-19 05:18:00,74.4,60.6,29.21,NW,317,1.1,1.1,62,-99.99,,,0.00,0,rob ver 1B,2013-09-19 12:18:00,
2013-09-19 05:19:00,74.4,60.6,29.21,NW,323,0.9,1.1,62,-99.99,,,0.00,0,rob ver 1B,2013-09-19 12:19:00,
2013-09-19 05:20:00,74.4,60.5,29.21,NNW,330,0.6,0.7,61,-99.99,,,0.00,0,rob ver 1B,2013-09-19 12:20:00,
2013-09-19 05:21:00,72.4,48.5,29.18,NE,47,3.5,4.2,42,-99.99,,,0.00,0,rob ver 1A,2013-09-19 12:21:00,
2013-09-19 05:22:00,74.3,60.5,29.21,NNE,27,0.3,0.4,62,-99.99,,,0.00,0,rob ver 1B,2013-09-19 12:22:00,
2013-09-19 05:23:00,74.2,60.5,29.21,ENE,78,0.4,0.6,62,-99.99,,,0.00,0,rob ver 1B,2013-09-19 12:23:00,
2013-09-19 05:24:00,74.2,60.6,29.21,ESE,120,0.7,0.8,62,-99.99,,,0.00,0,rob ver 1B,2013-09-19 12:24:00,
2013-09-19 05:25:00,74.2,60.7,29.21,SE,137,0.7,0.8,62,-99.99,,,0.00,0,rob ver 1B,2013-09-19 12:25:00,
2013-09-19 05:26:00,72.4,48.5,29.18,ENE,66,3.7,4.4,42,-99.99,,,0.00,0,rob ver 1A,2013-09-19 12:26:00,
2013-09-19 05:27:00,74.2,60.6,29.21,East,92,0.8,1.0,62,-99.99,,,0.00,0,rob ver 1B,2013-09-19 12:27:00,
2013-09-19 05:28:00,74.2,60.6,29.21,East,83,0.9,1.1,62,-99.99,,,0.00,0,rob ver 1B,2013-09-19 12:28:00,
2013-09-19 05:29:00,74.3,60.6,29.21,East,84,1.0,1.1,62,-99.99,,,0.00,0,rob ver 1B,2013-09-19 12:29:00,
2013-09-19 05:30:00,74.3,60.3,29.21,ENE,61,1.0,1.2,61,-99.99,,,0.00,0,rob ver 1B,2013-09-19 12:30:00,
2013-09-19 05:31:00,72.1,48.5,29.18,NE,52,3.3,4.3,43,-99.99,,,0.00,0,rob ver 1A,2013-09-19 12:31:00,
2013-09-19 05:32:00,74.2,59.9,29.21,NE,51,1.6,2.0,60,-99.99,,,0.00,0,rob ver 1B,2013-09-19 12:32:00,
2013-09-19 05:33:00,74.2,59.5,29.21,NE,40,2.0,2.2,59,-99.99,,,0.00,0,rob ver 1B,2013-09-19 12:33:00,
2013-09-19 05:34:00,74.2,59.3,29.21,NE,35,2.3,2.9,58,-99.99,,,0.00,0,rob ver 1B,2013-09-19 12:34:00,
2013-09-19 05:35:00,74.2,58.9,29.21,NE,40,2.3,2.7,58,-99.99,,,0.00,0,rob ver 1B,2013-09-19 12:35:00,
2013-09-19 05:36:00,74.1,58.9,29.21,NE,44,2.4,3.1,58,-99.99,,,0.00,0,rob ver 1B,2013-09-19 12:36:00,
2013-09-19 05:37:00,71.9,48.8,29.18,NE,49,3.7,4.7,44,-99.99,,,0.00,0,rob ver 1A,2013-09-19 12:37:00,
2013-09-19 05:38:00,74.0,58.2,29.21,NE,41,3.5,4.0,57,-99.99,,,0.00,0,rob ver 1B,2013-09-19 12:38:00,
2013-09-19 05:39:00,73.9,58.0,29.21,NE,41,4.0,4.8,57,-99.99,,,0.00,0,rob ver 1B,2013-09-19 12:39:00,
2013-09-19 05:40:00,73.8,57.7,29.21,NE,43,4.5,5.1,56,-99.99,,,0.00,0,rob ver 1B,2013-09-19 12:40:00,
2013-09-19 05:41:00,73.8,57.5,29.21,NE,45,4.2,4.9,56,-99.99,,,0.00,0,rob ver 1B,2013-09-19 12:41:00,
2013-09-19 05:42:00,72.1,48.7,29.18,NE,45,4.7,5.4,43,-99.99,,,0.00,0,rob ver 1A,2013-09-19 12:42:00,
2013-09-19 05:43:00,73.8,57.2,29.21,NE,50,3.5,4.8,55,-99.99,,,0.00,0,rob ver 1B,2013-09-19 12:43:00,
2013-09-19 05:44:00,73.8,56.8,29.21,NE,50,4.6,5.4,54,-99.99,,,0.00,0,rob ver 1B,2013-09-19 12:44:00,
2013-09-19 05:45:00,73.8,56.4,29.21,NE,50,4.6,5.8,53,-99.99,,,0.00,0,rob ver 1B,2013-09-19 12:45:00,
2013-09-19 05:46:00,73.9,56.0,29.21,NE,48,4.6,5.7,53,-99.99,,,0.00,0,rob ver 1B,2013-09-19 12:46:00,
2013-09-19 05:47:00,72.9,48.3,29.18,NE,42,4.1,4.5,41,-99.99,,,0.00,0,rob ver 1A,2013-09-19 12:47:00,
2013-09-19 05:48:00,73.9,55.2,29.21,NE,49,5.1,6.1,51,-99.99,,,0.00,0,rob ver 1B,2013-09-19 12:48:00,
2013-09-19 05:49:00,73.8,54.7,29.21,NE,48,5.0,5.9,51,-99.99,,,0.00,0,rob ver 1B,2013-09-19 12:49:00,
2013-09-19 05:50:00,73.8,54.3,29.21,NE,45,5.3,6.0,50,-99.99,,,0.00,0,rob ver 1B,2013-09-19 12:50:00,
2013-09-19 05:51:00,73.8,54.0,29.21,NE,45,5.1,5.9,49,-99.99,,,0.00,0,rob ver 1B,2013-09-19 12:51:00,
2013-09-19 05:52:00,73.4,48.4,29.18,NE,48,3.4,4.1,41,-99.99,,,0.00,0,rob ver 1A,2013-09-19 12:52:00,
2013-09-19 05:53:00,73.8,53.1,29.21,NE,45,4.8,5.6,47,-99.99,,,0.00,0,rob ver 1B,2013-09-19 12:53:00,
2013-09-19 05:54:00,73.8,52.7,29.21,NE,46,4.8,5.9,47,-99.99,,,0.00,0,rob ver 1B,2013-09-19 12:54:00,
2013-09-19 05:55:00,73.9,52.5,29.21,NE,44,5.0,5.8,47,-99.99,,,0.00,0,rob ver 1B,2013-09-19 12:55:00,
2013-09-19 05:56:00,73.9,52.4,29.21,NE,43,5.1,6.1,46,-99.99,,,0.00,0,rob ver 1B,2013-09-19 12:56:00,
2013-09-19 05:57:00,73.3,48.1,29.18,NE,54,3.5,4.3,40,-99.99,,,0.00,0,rob ver 1A,2013-09-19 12:57:00,
2013-09-19 05:58:00,74.0,52.2,29.21,NE,40,4.5,5.3,46,-99.99,,,0.00,0,rob ver 1B,2013-09-19 12:58:00,
2013-09-19 05:59:00,73.9,51.8,29.21,NNE,32,5.8,6.5,45,-99.99,,,0.00,0,rob ver 1B,2013-09-19 12:59:00,
2013-09-19 06:00:00,74.0,51.5,29.21,NNE,31,5.0,6.1,45,-99.99,,,0.00,0,rob ver 1B,2013-09-19 13:00:00,
2013-09-19 06:01:00,74.1,51.8,29.21,NNE,32,4.1,4.7,46,-99.99,,,0.00,0,rob ver 1B,2013-09-19 13:01:00,
2013-09-19 06:02:00,72.9,48.4,29.18,East,97,1.3,2.3,42,-99.99,,,0.00,0,rob ver 1A,2013-09-19 13:02:00,
2013-09-19 06:03:00,74.2,51.3,29.21,NNE,24,4.2,5.0,44,-99.99,,,0.00,0,rob ver 1B,2013-09-19 13:03:00,
2013-09-19 06:04:00,74.2,51.2,29.21,NE,35,3.4,4.3,44,-99.99,,,0.00,0,rob ver 1B,2013-09-19 13:04:00,
2013-09-19 06:05:00,74.3,50.8,29.21,NE,39,3.6,4.4,43,-99.99,,,0.00,0,rob ver 1B,2013-09-19 13:05:00,
2013-09-19 06:06:00,74.3,50.6,29.21,NE,42,3.6,4.1,43,-99.99,,,0.00,0,rob ver 1B,2013-09-19 13:06:00,
2013-09-19 06:07:00,74.3,50.5,29.21,NE,43,3.4,4.3,42,-99.99,,,0.00,0,rob ver 1B,2013-09-19 13:07:00,
2013-09-19 06:08:00,72.5,48.6,29.18,ENE,62,2.4,3.6,42,-99.99,,,0.00,.495,rob ver 1A,2013-09-19 13:08:00,
2013-09-19 06:09:00,74.5,50.2,29.21,NE,37,3.5,3.9,42,-99.99,,,0.00,.165,rob ver 1B,2013-09-19 13:09:00,
2013-09-19 06:10:00,74.5,50.2,29.21,NNE,33,3.2,3.9,42,-99.99,,,0.00,.33,rob ver 1B,2013-09-19 13:10:00,
2013-09-19 06:11:00,74.5,50.3,29.21,NE,36,2.9,3.4,42,-99.99,,,0.00,.66,rob ver 1B,2013-09-19 13:11:00,
2013-09-19 06:12:00,74.4,50.1,29.21,NE,46,2.7,3.6,42,-99.99,,,0.00,.66,rob ver 1B,2013-09-19 13:12:00,
2013-09-19 06:13:00,72.5,48.3,29.18,ENE,74,2.2,3.4,41,-99.99,,,0.00,.66,rob ver 1A,2013-09-19 13:13:00,
2013-09-19 06:14:00,74.0,50.8,29.21,ESE,108,6.0,6.9,43,-99.99,,,0.00,.825,rob ver 1B,2013-09-19 13:14:00,
2013-09-19 06:15:00,73.8,50.2,29.21,ENE,75,4.8,6.1,43,-99.99,,,0.00,1.154,rob ver 1B,2013-09-19 13:15:00,
2013-09-19 06:16:00,73.7,50.3,29.21,ENE,62,3.3,4.9,43,-99.99,,,0.00,1.319,rob ver 1B,2013-09-19 13:16:00,
2013-09-19 06:17:00,73.6,50.2,29.21,NE,35,3.2,3.7,43,-99.99,,,0.00,1.319,rob ver 1B,2013-09-19 13:17:00,
2013-09-19 06:18:00,72.7,45.1,29.18,East,82,2.8,3.4,37,-99.99,,,0.00,2.638,rob ver 1A,2013-09-19 13:18:00,
2013-09-19 06:19:00,73.4,50.0,29.21,NE,55,3.7,4.7,43,-99.99,,,0.00,1.979,rob ver 1B,2013-09-19 13:19:00,
2013-09-19 06:20:00,73.4,50.1,29.21,ENE,69,3.8,5.3,43,-99.99,,,0.00,2.144,rob ver 1B,2013-09-19 13:20:00,
2013-09-19 06:21:00,73.3,50.1,29.21,ENE,70,4.1,4.8,43,-99.99,,,0.00,2.638,rob ver 1B,2013-09-19 13:21:00,
2013-09-19 06:22:00,73.3,49.9,29.21,ENE,57,3.3,4.5,43,-99.99,,,0.00,2.968,rob ver 1B,2013-09-19 13:22:00,
2013-09-19 06:23:00,72.8,44.7,29.18,ENE,67,2.6,3.8,36,-99.99,,,0.00,3.628,rob ver 1A,2013-09-19 13:23:00,
2013-09-19 06:24:00,73.3,49.7,29.21,NE,50,3.9,4.9,43,-99.99,,,0.00,3.298,rob ver 1B,2013-09-19 13:24:00,
2013-09-19 06:25:00,73.3,49.6,29.21,NE,42,4.6,5.3,42,-99.99,,,0.00,3.793,rob ver 1B,2013-09-19 13:25:00,
2013-09-19 06:26:00,73.3,49.5,29.21,NNE,33,4.1,5.1,42,-99.99,,,0.00,4.617,rob ver 1B,2013-09-19 13:26:00,
2013-09-19 06:27:00,73.4,49.5,29.21,NNE,30,4.3,5.1,43,-99.99,,,0.00,4.947,rob ver 1B,2013-09-19 13:27:00,
2013-09-19 06:28:00,72.9,43.0,29.21,NE,53,3.7,4.6,33,-99.99,,,0.00,8.41,rob ver 1A,2013-09-19 13:28:00,
2013-09-19 06:29:00,73.4,49.6,29.21,NNE,31,5.0,5.5,42,-99.99,,,0.00,6.431,rob ver 1B,2013-09-19 13:29:00,
2013-09-19 06:30:00,73.5,49.7,29.21,NE,34,5.2,5.8,42,-99.99,,,0.00,7.92,rob ver 1B,2013-09-19 13:30:00,
2013-09-19 06:31:00,73.7,49.8,29.21,NE,36,5.4,6.1,43,-99.99,,,0.00,9.56,rob ver 1B,2013-09-19 13:31:00,
2013-09-19 06:32:00,73.8,50.3,29.21,NE,39,5.3,6.2,43,-99.99,,,0.00,11.87,rob ver 1B,2013-09-19 13:32:00,
2013-09-19 06:33:00,73.0,42.7,29.21,NE,56,3.9,4.9,33,-99.99,,,0.00,14.84,rob ver 1A,2013-09-19 13:33:00,
2013-09-19 06:34:00,74.1,50.6,29.21,NNE,28,5.2,5.8,43,-99.99,,,0.00,15.5,rob ver 1B,2013-09-19 13:34:00,
2013-09-19 06:35:00,74.2,50.6,29.21,NNE,26,5.3,6.1,43,-99.99,,,0.00,17.48,rob ver 1B,2013-09-19 13:35:00,
2013-09-19 06:36:00,74.4,50.2,29.21,NNE,25,5.5,6.3,41,-99.99,,,0.00,19.62,rob ver 1B,2013-09-19 13:36:00,
2013-09-19 06:37:00,74.6,50.3,29.21,NNE,23,5.9,6.4,42,-99.99,,,0.00,21.93,rob ver 1B,2013-09-19 13:37:00,
2013-09-19 06:38:00,73.2,43.4,29.21,NE,50,3.8,4.7,34,-99.99,,,0.00,28.03,rob ver 1A,2013-09-19 13:38:00,
2013-09-19 06:39:00,75.0,50.8,29.21,NNE,18,5.4,6.1,42,-99.99,,,0.00,26.55,rob ver 1B,2013-09-19 13:39:00,
2013-09-19 06:40:00,75.2,51.1,29.21,NNE,17,5.0,6.1,42,-99.99,,,0.00,28.36,rob ver 1B,2013-09-19 13:40:00,
2013-09-19 06:41:00,75.3,51.3,29.21,NNE,17,4.6,5.4,43,-99.99,,,0.00,31.33,rob ver 1B,2013-09-19 13:41:00,
2013-09-19 06:42:00,75.5,51.3,29.21,NNE,17,4.2,5.0,42,-99.99,,,0.00,33.97,rob ver 1B,2013-09-19 13:42:00,
2013-09-19 06:43:00,73.2,43.7,29.21,NE,45,4.7,5.8,34,-99.99,,,0.00,39.91,rob ver 1A,2013-09-19 13:43:00,
2013-09-19 06:44:00,75.6,51.0,29.21,NNE,21,4.4,5.0,42,-99.99,,,0.00,38.92,rob ver 1B,2013-09-19 13:44:00,
2013-09-19 06:45:00,75.6,50.9,29.21,NNE,27,3.9,4.4,41,-99.99,,,0.00,41.55,rob ver 1B,2013-09-19 13:45:00,
2013-09-19 06:46:00,75.6,50.9,29.21,NNE,32,3.6,4.0,41,-99.99,,,0.00,44.52,rob ver 1B,2013-09-19 13:46:00,
2013-09-19 06:47:00,75.6,50.8,29.21,NNE,32,3.1,3.5,41,-99.99,,,0.00,47.16,rob ver 1B,2013-09-19 13:47:00,
2013-09-19 06:48:00,75.7,50.8,29.21,NNE,31,2.9,3.4,41,-99.99,,,0.00,49.8,rob ver 1B,2013-09-19 13:48:00,
2013-09-19 06:49:00,73.6,44.0,29.21,NE,46,4.2,5.5,34,-99.99,,,0.00,53.1,rob ver 1A,2013-09-19 13:49:00,
2013-09-19 06:50:00,75.8,51.0,29.21,NE,37,2.5,2.8,42,-99.99,,,0.00,55.08,rob ver 1B,2013-09-19 13:50:00,
2013-09-19 06:51:00,75.8,51.3,29.21,NE,42,2.8,3.1,42,-99.99,,,0.00,57.71,rob ver 1B,2013-09-19 13:51:00,
2013-09-19 06:52:00,76.0,51.5,29.21,NE,44,2.7,3.0,42,-99.99,,,0.00,60.35,rob ver 1B,2013-09-19 13:52:00,
2013-09-19 06:53:00,76.2,51.7,29.21,NE,48,2.5,3.0,42,-99.99,,,0.00,62.99,rob ver 1B,2013-09-19 13:53:00,
2013-09-19 06:54:00,74.4,43.3,29.21,NE,39,4.8,6.0,32,-99.99,,,0.00,70.9,rob ver 1A,2013-09-19 13:54:00,
2013-09-19 06:55:00,76.5,51.5,29.21,ENE,61,2.3,3.0,41,-99.99,,,0.00,68.6,rob ver 1B,2013-09-19 13:55:00,
2013-09-19 06:56:00,76.6,51.6,29.21,East,100,2.2,2.8,41,-99.99,,,0.00,71.2,rob ver 1B,2013-09-19 13:56:00,
2013-09-19 06:57:00,76.6,52.0,29.21,SSE,164,3.3,3.7,42,-99.99,,,0.00,74.2,rob ver 1B,2013-09-19 13:57:00,
2013-09-19 06:58:00,76.2,52.4,29.21,SSE,155,3.0,3.5,44,-99.99,,,0.00,76.8,rob ver 1B,2013-09-19 13:58:00,
2013-09-19 06:59:00,75.3,42.0,29.21,NE,47,4.4,5.6,30,-99.99,,,0.00,84.9,rob ver 1A,2013-09-19 13:59:00,
2013-09-19 07:00:00,75.7,52.5,29.21,SE,127,2.6,3.3,44,-99.99,,,0.00,82.8,rob ver 1B,2013-09-19 14:00:00,
2013-09-19 07:01:00,75.7,52.3,29.21,ESE,112,2.6,3.8,44,-99.99,,,0.00,86.1,rob ver 1B,2013-09-19 14:01:00,
2013-09-19 07:02:00,75.8,52.2,29.21,ESE,106,2.5,3.3,43,-99.99,,,0.00,88.4,rob ver 1B,2013-09-19 14:02:00,
2013-09-19 07:03:00,75.8,52.2,29.21,SE,128,2.3,2.7,43,-99.99,,,0.00,91.4,rob ver 1B,2013-09-19 14:03:00,
2013-09-19 07:04:00,75.7,42.9,29.21,NE,36,6.2,7.5,31,-99.99,,,0.00,99.9,rob ver 1A,2013-09-19 14:04:00,
2013-09-19 07:05:00,76.0,53.1,29.21,SE,130,2.4,2.9,44,-99.99,,,0.00,97.3,rob ver 1B,2013-09-19 14:05:00,
2013-09-19 07:06:00,76.0,53.0,29.21,East,96,1.9,2.5,44,-99.99,,,0.00,100.1,rob ver 1B,2013-09-19 14:06:00,
2013-09-19 07:07:00,76.0,53.1,29.23,ESE,114,2.3,2.8,44,-99.99,,,0.00,103.2,rob ver 1B,2013-09-19 14:07:00,
2013-09-19 07:08:00,75.9,52.9,29.23,SE,132,2.7,3.0,44,-99.99,,,0.00,106.4,rob ver 1B,2013-09-19 14:08:00,
2013-09-19 07:09:00,75.9,43.1,29.21,NE,45,5.3,6.7,30,-99.99,,,0.00,115.1,rob ver 1A,2013-09-19 14:09:00,
2013-09-19 07:10:00,75.9,53.2,29.23,ESE,121,1.9,2.3,45,-99.99,,,0.00,112.5,rob ver 1B,2013-09-19 14:10:00,
2013-09-19 07:11:00,75.9,53.3,29.23,ESE,117,2.0,2.4,45,-99.99,,,0.00,115.8,rob ver 1B,2013-09-19 14:11:00,
2013-09-19 07:12:00,75.9,53.2,29.23,ESE,121,2.0,2.4,45,-99.99,,,0.00,118.4,rob ver 1B,2013-09-19 14:12:00,
2013-09-19 07:13:00,76.0,53.4,29.23,SE,131,2.2,2.7,45,-99.99,,,0.00,121.7,rob ver 1B,2013-09-19 14:13:00,
2013-09-19 07:14:00,76.4,41.3,29.21,NE,46,6.0,7.7,28,-99.99,,,0.00,130.8,rob ver 1A,2013-09-19 14:14:00,
2013-09-19 07:15:00,76.0,53.5,29.23,SE,135,2.4,2.6,45,-99.99,,,0.00,127.8,rob ver 1B,2013-09-19 14:15:00,
2013-09-19 07:16:00,76.0,53.5,29.23,ESE,122,2.2,2.5,45,-99.99,,,0.00,130.9,rob ver 1B,2013-09-19 14:16:00,
2013-09-19 07:17:00,76.0,53.5,29.23,ESE,104,2.2,2.5,45,-99.99,,,0.00,134.2,rob ver 1B,2013-09-19 14:17:00,
2013-09-19 07:18:00,76.1,53.5,29.23,East,98,2.0,2.3,45,-99.99,,,0.00,137.2,rob ver 1B,2013-09-19 14:18:00,
2013-09-19 07:19:00,76.9,40.6,29.21,NE,49,5.2,6.3,27,-99.99,,,0.00,147.4,rob ver 1A,2013-09-19 14:19:00,
2013-09-19 07:20:00,76.3,53.4,29.23,East,90,1.9,2.4,44,-99.99,,,0.00,143.8,rob ver 1B,2013-09-19 14:20:00,
2013-09-19 07:21:00,76.4,53.5,29.23,East,94,2.1,2.4,44,-99.99,,,0.00,147.1,rob ver 1B,2013-09-19 14:21:00,
2013-09-19 07:22:00,76.6,53.5,29.23,East,99,2.1,2.5,44,-99.99,,,0.00,150.4,rob ver 1B,2013-09-19 14:22:00,
2013-09-19 07:23:00,77.2,41.0,29.21,NE,50,5.4,7.3,27,-99.99,,,0.00,160.6,rob ver 1A,2013-09-19 14:23:00,
2013-09-19 07:24:00,76.7,53.5,29.23,East,89,2.2,2.6,44,-99.99,,,0.00,157,rob ver 1B,2013-09-19 14:24:00,
2013-09-19 07:25:00,76.8,53.6,29.23,East,99,1.9,2.3,44,-99.99,,,0.00,160.3,rob ver 1B,2013-09-19 14:25:00,
2013-09-19 07:26:00,77.0,53.5,29.23,ESE,112,2.0,2.3,44,-99.99,,,0.00,164.1,rob ver 1B,2013-09-19 14:26:00,
2013-09-19 07:27:00,77.1,53.7,29.23,ESE,120,1.9,2.3,43,-99.99,,,0.00,167,rob ver 1B,2013-09-19 14:27:00,
2013-09-19 07:28:00,77.5,40.4,29.21,ENE,57,5.5,7.0,26,-99.99,,,0.00,176.8,rob ver 1A,2013-09-19 14:28:00,
2013-09-19 07:29:00,77.3,53.7,29.23,SE,128,2.3,2.6,43,-99.99,,,0.00,173.8,rob ver 1B,2013-09-19 14:29:00,
2013-09-19 07:30:00,77.3,53.9,29.23,SE,131,2.3,2.8,44,-99.99,,,0.00,177.1,rob ver 1B,2013-09-19 14:30:00,
2013-09-19 07:31:00,77.4,54.2,29.23,SSE,151,2.5,2.8,44,-99.99,,,0.00,180.2,rob ver 1B,2013-09-19 14:31:00,
2013-09-19 07:32:00,77.5,54.5,29.23,SSE,155,2.6,3.0,45,-99.99,,,0.00,183.4,rob ver 1B,2013-09-19 14:32:00,
2013-09-19 07:33:00,77.9,40.4,29.21,ENE,62,5.3,7.4,25,-99.99,,,0.00,193.9,rob ver 1A,2013-09-19 14:33:00,
2013-09-19 07:34:00,77.3,54.5,29.23,SE,145,2.9,3.4,45,-99.99,,,0.00,190.1,rob ver 1B,2013-09-19 14:34:00,
2013-09-19 07:35:00,77.2,54.6,29.23,SE,144,3.0,3.8,45,-99.99,,,0.00,193.3,rob ver 1B,2013-09-19 14:35:00,
2013-09-19 07:36:00,77.2,54.7,29.23,SE,141,3.3,3.7,45,-99.99,,,0.00,197.2,rob ver 1B,2013-09-19 14:36:00,
2013-09-19 07:37:00,77.1,54.8,29.23,SE,144,3.3,3.8,46,-99.99,,,0.00,200.2,rob ver 1B,2013-09-19 14:37:00,
2013-09-19 07:38:00,78.3,40.1,29.21,NE,56,6.1,7.7,25,-99.99,,,0.00,211.7,rob ver 1A,2013-09-19 14:38:00,
2013-09-19 07:39:00,77.2,54.8,29.23,SE,146,3.6,4.2,46,-99.99,,,0.00,206.4,rob ver 1B,2013-09-19 14:39:00,
2013-09-19 07:40:00,77.2,55.2,29.23,SE,144,3.1,3.6,46,-99.99,,,0.00,210.4,rob ver 1B,2013-09-19 14:40:00,
2013-09-19 07:41:00,77.2,55.1,29.23,SE,140,3.2,4.1,46,-99.99,,,0.00,213.7,rob ver 1B,2013-09-19 14:41:00,
2013-09-19 07:42:00,77.3,55.0,29.23,SE,130,2.9,3.6,46,-99.99,,,0.00,217.1,rob ver 1B,2013-09-19 14:42:00,
2013-09-19 07:43:00,77.4,55.2,29.23,SE,125,2.8,3.8,45,-99.99,,,0.00,220.4,rob ver 1B,2013-09-19 14:43:00,
2013-09-19 07:44:00,78.7,41.0,29.21,NE,55,5.2,6.6,26,-99.99,,,0.00,228.9,rob ver 1A,2013-09-19 14:44:00,
2013-09-19 07:45:00,77.5,54.9,29.23,ESE,115,2.6,3.3,45,-99.99,,,0.00,227.9,rob ver 1B,2013-09-19 14:45:00,
2013-09-19 07:46:00,77.6,55.0,29.23,ESE,103,2.5,3.2,45,-99.99,,,0.00,231.3,rob ver 1B,2013-09-19 14:46:00,
2013-09-19 07:47:00,77.8,54.9,29.23,East,91,2.5,3.2,45,-99.99,,,0.00,234.5,rob ver 1B,2013-09-19 14:47:00,
2013-09-19 07:48:00,77.9,54.7,29.23,East,80,2.6,3.4,44,-99.99,,,0.00,238.1,rob ver 1B,2013-09-19 14:48:00,
2013-09-19 07:49:00,79.0,40.6,29.21,ENE,57,5.2,7.2,25,-99.99,,,0.00,246.7,rob ver 1A,2013-09-19 14:49:00,
2013-09-19 07:50:00,78.1,54.4,29.23,ENE,68,3.8,4.9,43,-99.99,,,0.00,244.7,rob ver 1B,2013-09-19 14:50:00,
2013-09-19 07:51:00,78.1,54.4,29.23,ENE,62,3.8,4.9,43,-99.99,,,0.00,248,rob ver 1B,2013-09-19 14:51:00,
2013-09-19 07:52:00,78.2,54.3,29.23,ENE,65,3.9,5.1,43,-99.99,,,0.00,251.8,rob ver 1B,2013-09-19 14:52:00,
2013-09-19 07:53:00,78.4,54.2,29.23,ENE,69,3.7,4.7,43,-99.99,,,0.00,255.2,rob ver 1B,2013-09-19 14:53:00,
2013-09-19 07:54:00,79.4,40.4,29.21,ENE,61,4.8,7.1,24,-99.99,,,0.00,268.4,rob ver 1A,2013-09-19 14:54:00,
2013-09-19 07:55:00,78.9,54.2,29.23,ENE,67,3.8,4.7,42,-99.99,,,0.00,261.8,rob ver 1B,2013-09-19 14:55:00,
2013-09-19 07:56:00,79.0,54.4,29.23,ENE,66,3.1,4.0,42,-99.99,,,0.00,265.6,rob ver 1B,2013-09-19 14:56:00,
2013-09-19 07:57:00,79.2,54.3,29.23,ENE,68,3.2,3.7,42,-99.99,,,0.00,269.1,rob ver 1B,2013-09-19 14:57:00,
2013-09-19 07:58:00,79.4,54.5,29.23,ENE,68,2.7,3.5,41,-99.99,,,0.00,272,rob ver 1B,2013-09-19 14:58:00,
2013-09-19 07:59:00,79.8,39.4,29.21,ENE,67,5.2,7.6,23,-99.99,,,0.00,286.1,rob ver 1A,2013-09-19 14:59:00,
2013-09-19 08:00:00,79.7,54.5,29.23,ENE,68,3.1,3.8,41,-99.99,,,0.00,279,rob ver 1B,2013-09-19 15:00:00,
2013-09-19 08:01:00,79.9,54.5,29.23,ENE,68,3.4,4.1,41,-99.99,,,0.00,282.3,rob ver 1B,2013-09-19 15:01:00,
2013-09-19 08:02:00,80.0,54.6,29.23,ENE,64,3.4,4.2,41,-99.99,,,0.00,286.2,rob ver 1B,2013-09-19 15:02:00,
2013-09-19 08:03:00,80.0,54.8,29.23,ENE,65,3.2,4.0,41,-99.99,,,0.00,289.5,rob ver 1B,2013-09-19 15:03:00,
2013-09-19 08:04:00,80.0,38.9,29.21,ENE,66,5.2,6.4,22,-99.99,,,0.00,304,rob ver 1A,2013-09-19 15:04:00,
2013-09-19 08:05:00,80.3,55.1,29.23,ENE,62,3.3,4.2,41,-99.99,,,0.00,296.1,rob ver 1B,2013-09-19 15:05:00,
2013-09-19 08:06:00,80.4,55.1,29.23,ENE,58,3.6,4.7,41,-99.99,,,0.00,299.7,rob ver 1B,2013-09-19 15:06:00,
2013-09-19 08:07:00,80.5,55.2,29.23,ENE,57,3.5,4.3,42,-99.99,,,0.00,303,rob ver 1B,2013-09-19 15:07:00,
2013-09-19 08:08:00,80.7,55.5,29.23,ENE,68,3.6,4.4,41,-99.99,,,0.00,306.6,rob ver 1B,2013-09-19 15:08:00,
2013-09-19 08:09:00,80.5,38.0,29.23,ENE,65,6.0,7.8,21,-99.99,,,0.00,321.8,rob ver 1A,2013-09-19 15:09:00,
2013-09-19 08:10:00,81.0,55.6,29.23,ENE,67,3.7,4.8,41,-99.99,,,0.00,313.2,rob ver 1B,2013-09-19 15:10:00,
2013-09-19 08:11:00,81.2,55.7,29.23,ENE,68,3.6,4.7,41,-99.99,,,0.00,317.2,rob ver 1B,2013-09-19 15:11:00,
2013-09-19 08:12:00,81.4,56.0,29.23,ENE,69,3.2,4.1,41,-99.99,,,0.00,320.3,rob ver 1B,2013-09-19 15:12:00,
2013-09-19 08:13:00,81.6,55.7,29.23,ENE,58,3.7,4.5,41,-99.99,,,0.00,323.8,rob ver 1B,2013-09-19 15:13:00,
2013-09-19 08:14:00,80.6,37.8,29.21,ENE,77,6.7,7.9,21,-99.99,,,0.00,339.8,rob ver 1A,2013-09-19 15:14:00,
2013-09-19 08:15:00,81.8,56.2,29.23,ENE,66,3.0,3.8,41,-99.99,,,0.00,330.4,rob ver 1B,2013-09-19 15:15:00,
2013-09-19 08:16:00,82.0,56.3,29.23,ENE,71,3.7,4.5,41,-99.99,,,0.00,334.2,rob ver 1B,2013-09-19 15:16:00,
2013-09-19 08:17:00,82.0,56.2,29.23,ENE,68,3.8,5.2,41,-99.99,,,0.00,337.5,rob ver 1B,2013-09-19 15:17:00,
2013-09-19 08:18:00,82.2,56.1,29.23,ENE,63,3.5,4.4,40,-99.99,,,0.00,340.9,rob ver 1B,2013-09-19 15:18:00,
2013-09-19 08:19:00,80.8,37.7,29.21,ENE,76,6.0,7.2,21,-99.99,,,0.00,356.8,rob ver 1A,2013-09-19 15:19:00,
2013-09-19 08:20:00,82.4,56.4,29.23,ESE,108,3.7,4.8,41,-99.99,,,0.00,348.2,rob ver 1B,2013-09-19 15:20:00,
2013-09-19 08:21:00,82.4,56.5,29.23,East,83,4.1,6.0,40,-99.99,,,0.00,351.2,rob ver 1B,2013-09-19 15:21:00,
2013-09-19 08:22:00,82.4,56.4,29.23,East,86,3.8,5.4,41,-99.99,,,0.00,354.6,rob ver 1B,2013-09-19 15:22:00,
2013-09-19 08:23:00,82.4,56.4,29.23,East,85,3.7,5.3,40,-99.99,,,0.00,358.4,rob ver 1B,2013-09-19 15:23:00,
2013-09-19 08:24:00,81.5,37.4,29.21,East,84,6.8,8.3,20,-99.99,,,0.00,371.4,rob ver 1A,2013-09-19 15:24:00,
2013-09-19 08:25:00,82.4,56.6,29.26,East,89,4.8,5.7,41,-99.99,,,0.00,365.2,rob ver 1B,2013-09-19 15:25:00,
2013-09-19 08:26:00,82.4,56.7,29.26,ESE,115,4.9,6.0,41,-99.99,,,0.00,368.3,rob ver 1B,2013-09-19 15:26:00,
2013-09-19 08:27:00,82.4,56.8,29.26,ESE,119,5.0,5.7,41,-99.99,,,0.00,372.3,rob ver 1B,2013-09-19 15:27:00,
2013-09-19 08:28:00,82.5,57.0,29.26,ESE,116,4.3,5.2,41,-99.99,,,0.00,375.6,rob ver 1B,2013-09-19 15:28:00,
2013-09-19 08:29:00,82.0,37.9,29.21,East,88,6.3,7.5,20,-99.99,,,0.00,388.4,rob ver 1A,2013-09-19 15:29:00,
2013-09-19 08:30:00,82.7,56.6,29.26,East,92,4.3,6.0,41,-99.99,,,0.00,382.5,rob ver 1B,2013-09-19 15:30:00,
2013-09-19 08:31:00,82.9,56.7,29.26,ESE,107,4.0,5.1,40,-99.99,,,0.00,386.1,rob ver 1B,2013-09-19 15:31:00,
2013-09-19 08:32:00,83.0,56.6,29.26,ESE,121,3.8,5.2,40,-99.99,,,0.00,389.7,rob ver 1B,2013-09-19 15:32:00,
2013-09-19 08:33:00,83.0,56.6,29.26,ESE,122,4.6,6.0,40,-99.99,,,0.00,393.3,rob ver 1B,2013-09-19 15:33:00,
2013-09-19 08:34:00,82.2,38.2,29.23,East,98,5.4,7.4,20,-99.99,,,0.00,407.2,rob ver 1A,2013-09-19 15:34:00,
2013-09-19 08:35:00,83.0,56.8,29.26,ESE,112,3.6,4.9,40,-99.99,,,0.00,399.7,rob ver 1B,2013-09-19 15:35:00,
2013-09-19 08:36:00,83.1,56.8,29.26,SE,124,3.8,4.6,40,-99.99,,,0.00,403.2,rob ver 1B,2013-09-19 15:36:00,
2013-09-19 08:37:00,83.2,56.8,29.26,ESE,117,3.1,4.2,41,-99.99,,,0.00,406.5,rob ver 1B,2013-09-19 15:37:00,
2013-09-19 08:38:00,83.2,56.6,29.26,East,88,3.6,4.9,40,-99.99,,,0.00,409.8,rob ver 1B,2013-09-19 15:38:00,
2013-09-19 08:39:00,83.4,56.6,29.26,East,82,3.1,4.7,39,-99.99,,,0.00,413.4,rob ver 1B,2013-09-19 15:39:00,
2013-09-19 08:40:00,83.4,56.4,29.26,East,95,3.4,4.0,39,-99.99,,,0.00,417.1,rob ver 1B,2013-09-19 15:40:00,
2013-09-19 08:41:00,82.8,38.2,29.23,East,90,7.7,9.3,20,-99.99,,,0.00,433.7,rob ver 1A,2013-09-19 15:41:00,
2013-09-19 08:42:00,83.7,56.8,29.26,ESE,117,2.8,3.7,39,-99.99,,,0.00,423.6,rob ver 1B,2013-09-19 15:42:00,
2013-09-19 08:43:00,83.8,56.6,29.26,SE,126,3.4,4.5,39,-99.99,,,0.00,427.4,rob ver 1B,2013-09-19 15:43:00,
2013-09-19 08:44:00,83.9,56.7,29.26,ESE,116,3.1,4.7,39,-99.99,,,0.00,430.9,rob ver 1B,2013-09-19 15:44:00,
2013-09-19 08:45:00,83.9,56.5,29.26,ESE,109,2.2,3.4,39,-99.99,,,0.00,434.2,rob ver 1B,2013-09-19 15:45:00,
2013-09-19 08:46:00,82.9,38.2,29.23,East,92,7.5,8.3,20,-99.99,,,0.00,450.2,rob ver 1A,2013-09-19 15:46:00,
2013-09-19 08:47:00,84.3,56.2,29.26,East,84,3.0,4.3,38,-99.99,,,0.00,440.8,rob ver 1B,2013-09-19 15:47:00,
2013-09-19 08:48:00,84.4,56.2,29.26,ESE,103,3.4,5.2,38,-99.99,,,0.00,443.4,rob ver 1B,2013-09-19 15:48:00,
2013-09-19 08:49:00,84.4,56.2,29.26,East,98,2.7,4.1,38,-99.99,,,0.00,447.4,rob ver 1B,2013-09-19 15:49:00,
2013-09-19 08:50:00,84.5,56.4,29.26,East,86,3.0,4.0,38,-99.99,,,0.00,450,rob ver 1B,2013-09-19 15:50:00,
2013-09-19 08:51:00,84.8,56.5,29.26,East,98,2.4,3.4,37,-99.99,,,0.00,453.9,rob ver 1B,2013-09-19 15:51:00,
2013-09-19 08:52:00,83.5,40.3,29.23,East,95,7.4,9.2,21,-99.99,,,0.00,470.1,rob ver 1A,2013-09-19 15:52:00,
2013-09-19 08:53:00,85.1,56.0,29.26,ENE,72,2.6,3.6,37,-99.99,,,0.00,460.2,rob ver 1B,2013-09-19 15:53:00,
2013-09-19 08:54:00,85.3,56.0,29.26,East,82,2.7,4.3,36,-99.99,,,0.00,463.2,rob ver 1B,2013-09-19 15:54:00,
2013-09-19 08:55:00,85.3,55.9,29.26,ESE,107,2.5,3.8,36,-99.99,,,0.00,466.5,rob ver 1B,2013-09-19 15:55:00,
2013-09-19 08:56:00,85.5,56.2,29.26,East,100,1.9,3.1,36,-99.99,,,0.00,470.1,rob ver 1B,2013-09-19 15:56:00,
2013-09-19 08:57:00,83.8,41.3,29.23,East,83,6.8,8.4,22,-99.99,,,0.00,486.3,rob ver 1A,2013-09-19 15:57:00,
2013-09-19 08:58:00,85.4,56.3,29.26,East,98,3.2,5.1,37,-99.99,,,0.00,476.4,rob ver 1B,2013-09-19 15:58:00,
2013-09-19 08:59:00,85.3,56.3,29.26,ESE,104,4.6,5.5,37,-99.99,,,0.00,479.5,rob ver 1B,2013-09-19 15:59:00,
2013-09-19 09:00:00,85.3,56.4,29.26,ESE,115,4.4,5.8,37,-99.99,,,0.00,482.8,rob ver 1B,2013-09-19 16:00:00,
2013-09-19 09:01:00,85.2,56.4,29.26,ESE,113,3.9,5.8,37,-99.99,,,0.00,486.1,rob ver 1B,2013-09-19 16:01:00,
2013-09-19 09:02:00,84.2,42.3,29.23,East,100,7.1,9.1,22,-99.99,,,0.00,501.8,rob ver 1A,2013-09-19 16:02:00,
2013-09-19 09:03:00,85.3,56.6,29.26,SE,138,4.5,5.3,37,-99.99,,,0.00,492,rob ver 1B,2013-09-19 16:03:00,
2013-09-19 09:04:00,85.4,56.6,29.26,SSE,153,3.5,5.3,38,-99.99,,,0.00,495.6,rob ver 1B,2013-09-19 16:04:00,
2013-09-19 09:05:00,85.6,56.5,29.26,SE,127,4.3,5.7,37,-99.99,,,0.00,498.4,rob ver 1B,2013-09-19 16:05:00,
2013-09-19 09:06:00,85.6,56.4,29.26,SE,144,3.1,4.3,37,-99.99,,,0.00,501.7,rob ver 1B,2013-09-19 16:06:00,
2013-09-19 09:07:00,84.4,42.6,29.23,ESE,110,3.3,6.8,22,-99.99,,,0.00,516.6,rob ver 1A,2013-09-19 16:07:00,
2013-09-19 09:08:00,86.2,56.6,29.26,SE,145,4.4,6.0,36,-99.99,,,0.00,507.8,rob ver 1B,2013-09-19 16:08:00,
2013-09-19 09:09:00,86.0,56.6,29.26,SE,131,3.9,5.6,36,-99.99,,,0.00,511,rob ver 1B,2013-09-19 16:09:00,
2013-09-19 09:10:00,85.9,56.5,29.26,SE,128,3.5,5.1,36,-99.99,,,0.00,513.9,rob ver 1B,2013-09-19 16:10:00,
2013-09-19 09:11:00,85.9,56.4,29.26,SSE,148,2.7,4.1,36,-99.99,,,0.00,516.9,rob ver 1B,2013-09-19 16:11:00,
2013-09-19 09:12:00,84.2,42.2,29.23,SSE,157,5.3,6.9,22,-99.99,,,0.00,531.7,rob ver 1A,2013-09-19 16:12:00,
2013-09-19 09:13:00,86.3,56.7,29.26,SE,136,2.1,3.0,36,-99.99,,,0.00,522.5,rob ver 1B,2013-09-19 16:13:00,
2013-09-19 09:14:00,86.5,56.4,29.26,SSE,151,1.8,3.9,36,-99.99,,,0.00,525.6,rob ver 1B,2013-09-19 16:14:00,
2013-09-19 09:15:00,86.7,56.3,29.26,SSE,154,3.1,4.3,35,-99.99,,,0.00,528.4,rob ver 1B,2013-09-19 16:15:00,
2013-09-19 09:16:00,86.7,56.1,29.26,SE,139,2.7,3.7,35,-99.99,,,0.00,531.7,rob ver 1B,2013-09-19 16:16:00,
2013-09-19 09:17:00,86.7,56.5,29.26,SSE,150,3.1,5.1,35,-99.99,,,0.00,535.3,rob ver 1B,2013-09-19 16:17:00,
2013-09-19 09:18:00,84.2,41.8,29.23,SSE,165,5.7,8.0,22,-99.99,,,0.00,546.9,rob ver 1A,2013-09-19 16:18:00,
2013-09-19 09:19:00,86.5,56.4,29.26,SE,138,4.5,5.5,35,-99.99,,,0.00,540.6,rob ver 1B,2013-09-19 16:19:00,
2013-09-19 09:20:00,86.3,56.6,29.26,ESE,117,3.3,4.6,36,-99.99,,,0.00,543.9,rob ver 1B,2013-09-19 16:20:00,
2013-09-19 09:21:00,86.4,56.6,29.26,SE,134,3.4,4.8,36,-99.99,,,0.00,546.6,rob ver 1B,2013-09-19 16:21:00,
2013-09-19 09:22:00,86.4,56.6,29.26,SE,130,2.9,4.3,36,-99.99,,,0.00,549.9,rob ver 1B,2013-09-19 16:22:00,
2013-09-19 09:23:00,83.8,41.3,29.23,SSE,148,6.2,7.8,22,-99.99,,,0.00,565.7,rob ver 1A,2013-09-19 16:23:00,
2013-09-19 09:24:00,86.4,56.8,29.26,SSE,159,3.0,5.0,36,-99.99,,,0.00,556.1,rob ver 1B,2013-09-19 16:24:00,
2013-09-19 09:25:00,86.6,56.8,29.26,South,178,1.9,2.8,36,-99.99,,,0.00,558.1,rob ver 1B,2013-09-19 16:25:00,
2013-09-19 09:26:00,87.0,56.5,29.26,SSE,158,2.6,5.3,35,-99.99,,,0.00,560.8,rob ver 1B,2013-09-19 16:26:00,
2013-09-19 09:27:00,87.1,56.4,29.26,SSE,150,3.1,5.3,35,-99.99,,,0.00,564.4,rob ver 1B,2013-09-19 16:27:00,
2013-09-19 09:28:00,84.1,41.1,29.23,SE,135,5.8,7.3,22,-99.99,,,0.00,576.7,rob ver 1A,2013-09-19 16:28:00,
2013-09-19 09:29:00,87.5,56.5,29.26,SSW,200,2.1,2.9,34,-99.99,,,0.00,569.7,rob ver 1B,2013-09-19 16:29:00,
2013-09-19 09:30:00,87.8,56.5,29.26,SSE,156,3.1,6.1,34,-99.99,,,0.00,573.1,rob ver 1B,2013-09-19 16:30:00,
2013-09-19 09:31:00,87.9,56.4,29.26,South,190,3.3,4.7,34,-99.99,,,0.00,575.1,rob ver 1B,2013-09-19 16:31:00,
2013-09-19 09:32:00,88.1,56.4,29.26,South,185,2.3,3.4,33,-99.99,,,0.00,577.4,rob ver 1B,2013-09-19 16:32:00,
2013-09-19 09:33:00,84.5,40.9,29.23,SSE,153,5.8,8.2,21,-99.99,,,0.00,593.9,rob ver 1A,2013-09-19 16:33:00,
2013-09-19 09:34:00,88.1,56.3,29.26,SE,134,2.0,3.5,34,-99.99,,,0.00,584.1,rob ver 1B,2013-09-19 16:34:00,
2013-09-19 09:35:00,88.1,56.5,29.26,SSE,168,2.5,4.5,34,-99.99,,,0.00,587.4,rob ver 1B,2013-09-19 16:35:00,
2013-09-19 09:36:00,88.2,56.4,29.26,South,183,4.7,6.8,34,-99.99,,,0.00,589.6,rob ver 1B,2013-09-19 16:36:00,
2013-09-19 09:37:00,88.2,56.4,29.26,SSE,165,4.1,5.0,34,-99.99,,,0.00,593.5,rob ver 1B,2013-09-19 16:37:00,
2013-09-19 09:38:00,84.7,40.9,29.23,SSE,149,3.4,5.3,21,-99.99,,,0.00,607.9,rob ver 1A,2013-09-19 16:38:00,
2013-09-19 09:39:00,87.6,56.2,29.26,SSE,151,4.4,6.0,34,-99.99,,,0.00,598,rob ver 1B,2013-09-19 16:39:00,
2013-09-19 09:40:00,87.3,56.3,29.26,SSE,153,3.7,4.9,35,-99.99,,,0.00,600.3,rob ver 1B,2013-09-19 16:40:00,
2013-09-19 09:41:00,87.2,56.3,29.26,SSE,158,2.9,4.0,35,-99.99,,,0.00,602.9,rob ver 1B,2013-09-19 16:41:00,
2013-09-19 09:42:00,87.4,56.4,29.26,SSE,160,2.7,3.8,34,-99.99,,,0.00,605.9,rob ver 1B,2013-09-19 16:42:00,
2013-09-19 09:43:00,85.4,41.0,29.23,SE,142,4.2,6.3,21,-99.99,,,0.00,621.7,rob ver 1A,2013-09-19 16:43:00,
2013-09-19 09:44:00,87.7,56.2,29.26,South,177,1.1,1.6,34,-99.99,,,0.00,610.8,rob ver 1B,2013-09-19 16:44:00,
2013-09-19 09:45:00,88.2,56.3,29.26,SSE,156,1.7,3.2,33,-99.99,,,0.00,613.3,rob ver 1B,2013-09-19 16:45:00,
2013-09-19 09:46:00,88.5,56.3,29.26,South,174,3.7,5.0,33,-99.99,,,0.00,616.1,rob ver 1B,2013-09-19 16:46:00,
2013-09-19 09:47:00,88.5,56.3,29.26,SSW,202,2.7,3.6,34,-99.99,,,0.00,618.2,rob ver 1B,2013-09-19 16:47:00,
2013-09-19 09:48:00,85.8,41.0,29.23,South,171,3.1,4.6,20,-99.99,,,0.00,633.3,rob ver 1A,2013-09-19 16:48:00,
2013-09-19 09:49:00,88.3,56.3,29.26,WSW,250,2.3,4.3,33,-99.99,,,0.00,623.2,rob ver 1B,2013-09-19 16:49:00,
2013-09-19 09:50:00,88.3,55.9,29.26,SSE,163,4.7,6.1,33,-99.99,,,0.00,627.5,rob ver 1B,2013-09-19 16:50:00,
2013-09-19 09:51:00,88.2,55.9,29.26,SSW,192,3.8,5.1,33,-99.99,,,0.00,629.1,rob ver 1B,2013-09-19 16:51:00,
2013-09-19 09:52:00,88.4,56.0,29.26,SSW,195,2.3,3.3,33,-99.99,,,0.00,631.2,rob ver 1B,2013-09-19 16:52:00,
2013-09-19 09:53:00,86.1,41.0,29.23,SE,140,4.5,5.5,20,-99.99,,,0.00,647.2,rob ver 1A,2013-09-19 16:53:00,
2013-09-19 09:54:00,88.8,55.8,29.26,SSW,203,2.6,4.1,32,-99.99,,,0.00,636.5,rob ver 1B,2013-09-19 16:54:00,
2013-09-19 09:55:00,89.0,55.9,29.26,SW,215,1.7,2.3,33,-99.99,,,0.00,639.5,rob ver 1B,2013-09-19 16:55:00,
2013-09-19 09:56:00,89.1,56.0,29.26,SE,135,2.8,6.1,33,-99.99,,,0.00,641.8,rob ver 1B,2013-09-19 16:56:00,
2013-09-19 09:57:00,89.2,55.9,29.26,South,174,3.6,6.1,32,-99.99,,,0.00,644.2,rob ver 1B,2013-09-19 16:57:00,
2013-09-19 09:58:00,86.4,41.1,29.23,SSE,161,3.4,6.7,20,-99.99,,,0.00,659.9,rob ver 1A,2013-09-19 16:58:00,
2013-09-19 09:59:00,89.0,56.1,29.26,SE,139,2.3,4.0,32,-99.99,,,0.00,649.2,rob ver 1B,2013-09-19 16:59:00,
2013-09-19 10:00:00,89.0,56.0,29.26,SE,130,3.8,5.8,32,-99.99,,,0.00,651.5,rob ver 1B,2013-09-19 17:00:00,
2013-09-19 10:01:00,88.8,56.1,29.26,SE,128,2.9,4.3,32,-99.99,,,0.00,653.3,rob ver 1B,2013-09-19 17:01:00,
2013-09-19 10:02:00,88.8,55.8,29.26,ESE,121,2.3,3.8,32,-99.99,,,0.00,655.6,rob ver 1B,2013-09-19 17:02:00,
2013-09-19 10:03:00,89.0,55.8,29.26,South,171,2.9,5.2,32,-99.99,,,0.00,658.9,rob ver 1B,2013-09-19 17:03:00,
2013-09-19 10:04:00,86.6,40.6,29.23,SSE,154,4.3,5.9,19,-99.99,,,0.00,673.3,rob ver 1A,2013-09-19 17:04:00,
2013-09-19 10:05:00,89.6,55.7,29.26,SSW,200,4.3,5.7,31,-99.99,,,0.00,663,rob ver 1B,2013-09-19 17:05:00,
2013-09-19 10:06:00,89.6,55.9,29.26,South,191,3.0,4.1,32,-99.99,,,0.00,665,rob ver 1B,2013-09-19 17:06:00,
2013-09-19 10:07:00,89.7,55.8,29.26,SE,129,1.5,3.3,31,-99.99,,,0.00,667.8,rob ver 1B,2013-09-19 17:07:00,
2013-09-19 10:08:00,89.9,55.8,29.26,SSE,155,1.5,2.5,31,-99.99,,,0.00,669.8,rob ver 1B,2013-09-19 17:08:00,
2013-09-19 10:09:00,86.8,40.7,29.23,East,87,2.8,3.7,20,-99.99,,,0.00,688.8,rob ver 1A,2013-09-19 17:09:00,
2013-09-19 10:10:00,90.2,55.4,29.26,South,186,4.6,7.4,30,-99.99,,,0.00,675.5,rob ver 1B,2013-09-19 17:10:00,
2013-09-19 10:11:00,90.0,54.8,29.26,SSE,155,5.0,6.0,30,-99.99,,,0.00,677,rob ver 1B,2013-09-19 17:11:00,
2013-09-19 10:12:00,89.6,54.9,29.26,SSE,164,4.1,6.5,31,-99.99,,,0.00,680,rob ver 1B,2013-09-19 17:12:00,
2013-09-19 10:13:00,89.5,55.3,29.26,South,173,3.3,4.5,31,-99.99,,,0.00,681.4,rob ver 1B,2013-09-19 17:13:00,
2013-09-19 10:14:00,87.2,40.6,29.23,SW,216,1.3,2.3,19,-99.99,,,0.00,699.6,rob ver 1A,2013-09-19 17:14:00,
2013-09-19 10:15:00,89.9,55.2,29.26,SE,137,1.9,3.5,31,-99.99,,,0.00,687.4,rob ver 1B,2013-09-19 17:15:00,
2013-09-19 10:16:00,90.0,54.9,29.26,SSE,162,4.9,6.8,30,-99.99,,,0.00,688.8,rob ver 1B,2013-09-19 17:16:00,
2013-09-19 10:17:00,89.7,54.9,29.26,SSE,167,3.8,5.4,30,-99.99,,,0.00,691.8,rob ver 1B,2013-09-19 17:17:00,
2013-09-19 10:18:00,89.5,54.9,29.26,SSE,158,4.0,5.5,31,-99.99,,,0.00,693.4,rob ver 1B,2013-09-19 17:18:00,
2013-09-19 10:19:00,88.9,40.4,29.23,South,171,2.8,3.9,18,-99.99,,,0.00,712,rob ver 1A,2013-09-19 17:19:00,
2013-09-19 10:20:00,89.8,55.0,29.26,SSW,193,1.5,2.3,30,-99.99,,,0.00,697.7,rob ver 1B,2013-09-19 17:20:00,
2013-09-19 10:21:00,90.3,55.1,29.26,ENE,65,0.3,0.8,29,-99.99,,,0.00,699.9,rob ver 1B,2013-09-19 17:21:00,
2013-09-19 10:22:00,91.0,54.9,29.26,SW,223,0.8,3.6,29,-99.99,,,0.00,703,rob ver 1B,2013-09-19 17:22:00,
2013-09-19 10:23:00,91.5,54.6,29.26,South,180,4.9,6.9,28,-99.99,,,0.00,703,rob ver 1B,2013-09-19 17:23:00,
2013-09-19 10:24:00,91.1,54.4,29.26,South,171,4.0,5.4,29,-99.99,,,0.00,707,rob ver 1B,2013-09-19 17:24:00,
2013-09-19 10:25:00,88.6,40.5,29.23,ESE,102,2.7,5.0,18,-99.99,,,0.00,721,rob ver 1A,2013-09-19 17:25:00,
2013-09-19 10:26:00,90.7,54.2,29.26,SSE,162,2.6,5.3,28,-99.99,,,0.00,710,rob ver 1B,2013-09-19 17:26:00,
2013-09-19 10:27:00,90.8,53.6,29.26,SSW,204,3.1,4.2,28,-99.99,,,0.00,713,rob ver 1B,2013-09-19 17:27:00,
2013-09-19 10:28:00,90.9,54.2,29.26,South,183,3.3,4.8,29,-99.99,,,0.00,715,rob ver 1B,2013-09-19 17:28:00,
2013-09-19 10:29:00,90.7,55.1,29.26,SSE,164,3.0,4.9,29,-99.99,,,0.00,717,rob ver 1B,2013-09-19 17:29:00,
2013-09-19 10:30:00,88.8,39.4,29.23,SSW,194,3.0,4.3,17,-99.99,,,0.00,729,rob ver 1A,2013-09-19 17:30:00,
2013-09-19 10:31:00,90.8,54.0,29.26,SSW,200,2.2,4.2,28,-99.99,,,0.00,720,rob ver 1B,2013-09-19 17:31:00,
2013-09-19 10:32:00,90.9,54.0,29.26,SSE,159,3.2,4.9,28,-99.99,,,0.00,722,rob ver 1B,2013-09-19 17:32:00,
2013-09-19 10:33:00,90.8,54.5,29.26,SSE,151,2.6,4.0,29,-99.99,,,0.00,725,rob ver 1B,2013-09-19 17:33:00,
2013-09-19 10:34:00,90.7,54.4,29.26,ESE,113,2.4,3.3,29,-99.99,,,0.00,726,rob ver 1B,2013-09-19 17:34:00,
2013-09-19 10:35:00,88.9,35.1,29.23,SSE,154,1.8,3.6,14,-99.99,,,0.00,745,rob ver 1A,2013-09-19 17:35:00,
2013-09-19 10:36:00,90.9,54.4,29.26,SSE,164,4.2,5.7,28,-99.99,,,0.00,731,rob ver 1B,2013-09-19 17:36:00,
2013-09-19 10:37:00,90.9,54.4,29.26,SE,141,3.7,4.8,29,-99.99,,,0.00,732,rob ver 1B,2013-09-19 17:37:00,
2013-09-19 10:38:00,90.7,54.4,29.26,SSE,147,3.9,5.0,29,-99.99,,,0.00,733,rob ver 1B,2013-09-19 17:38:00,
2013-09-19 10:39:00,90.6,54.1,29.26,SE,144,2.2,3.5,29,-99.99,,,0.00,733,rob ver 1B,2013-09-19 17:39:00,
2013-09-19 10:40:00,89.8,36.6,29.23,SSE,159,5.8,8.3,15,-99.99,,,0.00,754,rob ver 1A,2013-09-19 17:40:00,
2013-09-19 10:41:00,91.1,54.4,29.26,WNW,300,1.7,2.6,28,-99.99,,,0.00,737,rob ver 1B,2013-09-19 17:41:00,
2013-09-19 10:42:00,91.3,54.7,29.26,SW,235,1.2,2.6,29,-99.99,,,0.00,739,rob ver 1B,2013-09-19 17:42:00,
2013-09-19 10:43:00,91.7,54.8,29.26,NNW,343,1.0,2.1,28,-99.99,,,0.00,741,rob ver 1B,2013-09-19 17:43:00,
2013-09-19 10:44:00,92.0,54.6,29.26,West,266,0.9,2.3,28,-99.99,,,0.00,743,rob ver 1B,2013-09-19 17:44:00,
2013-09-19 10:45:00,88.7,36.1,29.23,ESE,123,5.7,8.1,15,-99.99,,,0.00,760,rob ver 1A,2013-09-19 17:45:00,
2013-09-19 10:46:00,92.4,54.5,29.26,SSE,151,2.4,4.3,27,-99.99,,,0.00,747,rob ver 1B,2013-09-19 17:46:00,
2013-09-19 10:47:00,92.4,54.5,29.26,SE,135,2.0,4.9,27,-99.99,,,0.00,749,rob ver 1B,2013-09-19 17:47:00,
2013-09-19 10:48:00,92.4,54.4,29.26,SSE,152,3.6,4.8,28,-99.99,,,0.00,749,rob ver 1B,2013-09-19 17:48:00,
2013-09-19 10:49:00,92.2,54.5,29.26,SSE,152,4.4,6.0,27,-99.99,,,0.00,752,rob ver 1B,2013-09-19 17:49:00,
2013-09-19 10:50:00,88.8,36.1,29.23,SW,218,6.1,7.9,15,-99.99,,,0.00,768,rob ver 1A,2013-09-19 17:50:00,
2013-09-19 10:51:00,91.7,53.8,29.26,SE,138,4.1,4.9,28,-99.99,,,0.00,754,rob ver 1B,2013-09-19 17:51:00,
2013-09-19 10:52:00,91.5,54.3,29.26,South,178,4.3,6.0,28,-99.99,,,0.00,756,rob ver 1B,2013-09-19 17:52:00,
2013-09-19 10:53:00,91.7,54.3,29.26,SSW,199,4.6,5.8,28,-99.99,,,0.00,759,rob ver 1B,2013-09-19 17:53:00,
2013-09-19 10:54:00,91.9,54.3,29.26,SSW,207,2.7,4.3,28,-99.99,,,0.00,760,rob ver 1B,2013-09-19 17:54:00,
2013-09-19 10:55:00,89.9,35.7,29.23,SSE,147,4.2,6.0,14,-99.99,,,0.00,779,rob ver 1A,2013-09-19 17:55:00,
2013-09-19 10:56:00,92.1,53.8,29.26,SE,124,3.5,5.3,26,-99.99,,,0.00,763,rob ver 1B,2013-09-19 17:56:00,
2013-09-19 10:57:00,91.9,53.2,29.26,ESE,123,3.7,6.0,27,-99.99,,,0.00,762,rob ver 1B,2013-09-19 17:57:00,
2013-09-19 10:58:00,91.8,53.3,29.26,ESE,113,3.0,4.5,26,-99.99,,,0.00,764,rob ver 1B,2013-09-19 17:58:00,
2013-09-19 10:59:00,91.9,53.0,29.26,East,81,2.9,4.9,26,-99.99,,,0.00,768,rob ver 1B,2013-09-19 17:59:00,
2013-09-19 11:00:00,89.8,36.3,29.23,SSE,160,6.2,8.0,15,-99.99,,,0.00,790,rob ver 1A,2013-09-19 18:00:00,
2013-09-19 11:01:00,92.5,53.2,29.26,East,98,0.8,1.8,26,-99.99,,,0.00,770,rob ver 1B,2013-09-19 18:01:00,
2013-09-19 11:02:00,93.2,53.5,29.26,SSE,165,2.0,4.7,25,-99.99,,,0.00,772,rob ver 1B,2013-09-19 18:02:00,
2013-09-19 11:03:00,93.7,53.5,29.26,SW,214,3.4,4.1,25,-99.99,,,0.00,774,rob ver 1B,2013-09-19 18:03:00,
2013-09-19 11:04:00,93.7,53.9,29.26,South,184,3.7,4.9,26,-99.99,,,0.00,777,rob ver 1B,2013-09-19 18:04:00,
2013-09-19 11:05:00,93.5,53.0,29.26,SSE,149,5.6,7.8,24,-99.99,,,0.00,778,rob ver 1B,2013-09-19 18:05:00,
2013-09-19 11:06:00,90.2,36.4,29.23,SE,140,2.6,3.8,14,-99.99,,,0.00,798,rob ver 1A,2013-09-19 18:06:00,
2013-09-19 11:07:00,92.8,52.2,29.26,SE,144,5.3,7.4,25,-99.99,,,0.00,783,rob ver 1B,2013-09-19 18:07:00,
2013-09-19 11:08:00,92.4,52.7,29.26,SSE,165,2.6,3.5,26,-99.99,,,0.00,783,rob ver 1B,2013-09-19 18:08:00,
2013-09-19 11:09:00,92.8,52.2,29.26,SE,137,3.3,6.3,24,-99.99,,,0.00,784,rob ver 1B,2013-09-19 18:09:00,
2013-09-19 11:10:00,92.9,51.3,29.26,SE,137,2.6,3.9,25,-99.99,,,0.00,783,rob ver 1B,2013-09-19 18:10:00,
2013-09-19 11:11:00,90.8,36.8,29.23,ESE,108,2.6,4.1,14,-99.99,,,0.00,803,rob ver 1A,2013-09-19 18:11:00,
2013-09-19 11:12:00,93.7,51.8,29.26,SSW,200,4.1,7.3,23,-99.99,,,0.00,786,rob ver 1B,2013-09-19 18:12:00,
2013-09-19 11:13:00,93.9,52.2,29.26,South,173,4.9,6.3,24,-99.99,,,0.00,786,rob ver 1B,2013-09-19 18:13:00,
2013-09-19 11:14:00,93.9,52.8,29.26,South,169,6.7,8.1,25,-99.99,,,0.00,787,rob ver 1B,2013-09-19 18:14:00,
2013-09-19 11:15:00,93.5,53.0,29.26,South,170,5.4,7.0,25,-99.99,,,0.00,790,rob ver 1B,2013-09-19 18:15:00,
2013-09-19 11:16:00,90.8,36.4,29.23,SE,132,4.9,6.4,14,-99.99,,,0.00,811,rob ver 1A,2013-09-19 18:16:00,
2013-09-19 11:17:00,93.5,52.2,29.26,WSW,239,1.8,3.1,24,-99.99,,,0.00,794,rob ver 1B,2013-09-19 18:17:00,
2013-09-19 11:18:00,93.6,52.4,29.26,SW,228,2.1,3.3,25,-99.99,,,0.00,796,rob ver 1B,2013-09-19 18:18:00,
2013-09-19 11:19:00,93.8,52.8,29.26,SSW,197,1.3,6.4,24,-99.99,,,0.00,796,rob ver 1B,2013-09-19 18:19:00,
2013-09-19 11:20:00,94.1,50.7,29.26,SSE,152,5.7,7.6,22,-99.99,,,0.00,798,rob ver 1B,2013-09-19 18:20:00,
2013-09-19 11:21:00,91.1,36.7,29.23,East,86,3.2,4.6,14,-99.99,,,0.00,818,rob ver 1A,2013-09-19 18:21:00,
2013-09-19 11:22:00,93.8,49.4,29.26,SSE,159,5.9,8.9,20,-99.99,,,0.00,801,rob ver 1B,2013-09-19 18:22:00,
2013-09-19 11:23:00,93.7,48.1,29.26,SE,141,6.8,8.2,21,-99.99,,,0.00,801,rob ver 1B,2013-09-19 18:23:00,
2013-09-19 11:24:00,93.7,48.5,29.26,SSE,165,3.7,6.0,21,-99.99,,,0.00,803,rob ver 1B,2013-09-19 18:24:00,
2013-09-19 11:25:00,94.0,48.4,29.26,SSW,204,4.4,6.0,21,-99.99,,,0.00,803,rob ver 1B,2013-09-19 18:25:00,
2013-09-19 11:26:00,90.9,36.9,29.23,South,178,3.7,6.2,15,-99.99,,,0.00,823,rob ver 1A,2013-09-19 18:26:00,
2013-09-19 11:27:00,94.4,49.1,29.26,ESE,109,2.4,3.6,22,-99.99,,,0.00,807,rob ver 1B,2013-09-19 18:27:00,
2013-09-19 11:28:00,94.6,49.6,29.26,East,99,2.5,3.4,21,-99.99,,,0.00,809,rob ver 1B,2013-09-19 18:28:00,
2013-09-19 11:29:00,94.8,49.1,29.26,SE,129,3.5,6.2,21,-99.99,,,0.00,809,rob ver 1B,2013-09-19 18:29:00,
2013-09-19 11:30:00,94.7,49.3,29.26,SSE,157,3.1,4.3,21,-99.99,,,0.00,808,rob ver 1B,2013-09-19 18:30:00,
2013-09-19 11:31:00,92.0,36.8,29.23,East,97,1.5,2.7,14,-99.99,,,0.00,830,rob ver 1A,2013-09-19 18:31:00,
2013-09-19 11:32:00,94.8,49.7,29.26,NW,318,1.5,2.3,21,-99.99,,,0.00,810,rob ver 1B,2013-09-19 18:32:00,
2013-09-19 11:33:00,95.1,49.9,29.26,SW,226,2.3,6.6,22,-99.99,,,0.00,812,rob ver 1B,2013-09-19 18:33:00,
2013-09-19 11:34:00,95.3,50.4,29.26,SSW,198,5.5,7.9,22,-99.99,,,0.00,814,rob ver 1B,2013-09-19 18:34:00,
2013-09-19 11:35:00,95.3,50.6,29.26,South,171,2.9,4.4,21,-99.99,,,0.00,816,rob ver 1B,2013-09-19 18:35:00,
2013-09-19 11:36:00,92.1,35.9,29.23,SE,143,5.0,6.9,13,-99.99,,,0.00,835,rob ver 1A,2013-09-19 18:36:00,
2013-09-19 11:37:00,94.6,47.0,29.26,East,97,5.0,6.4,19,-99.99,,,0.00,817,rob ver 1B,2013-09-19 18:37:00,
2013-09-19 11:38:00,94.3,47.4,29.26,ESE,115,4.0,6.3,21,-99.99,,,0.00,819,rob ver 1B,2013-09-19 18:38:00,
2013-09-19 11:39:00,94.5,48.7,29.26,SSE,149,4.1,5.9,21,-99.99,,,0.00,820,rob ver 1B,2013-09-19 18:39:00,
2013-09-19 11:40:00,94.5,48.5,29.26,East,92,4.6,7.7,21,-99.99,,,0.00,820,rob ver 1B,2013-09-19 18:40:00,
2013-09-19 11:41:00,92.0,36.3,29.23,SSW,193,3.0,4.6,14,-99.99,,,0.00,839,rob ver 1A,2013-09-19 18:41:00,
2013-09-19 11:42:00,94.3,46.8,29.26,SE,140,6.1,8.8,19,-99.99,,,0.00,821,rob ver 1B,2013-09-19 18:42:00,
2013-09-19 11:43:00,94.4,46.6,29.26,SE,142,6.3,8.6,19,-99.99,,,0.00,823,rob ver 1B,2013-09-19 18:43:00,
2013-09-19 11:44:00,94.4,46.7,29.26,SE,138,7.8,9.8,19,-99.99,,,0.00,825,rob ver 1B,2013-09-19 18:44:00,
2013-09-19 11:45:00,94.1,46.2,29.26,SE,137,7.0,9.0,19,-99.99,,,0.00,826,rob ver 1B,2013-09-19 18:45:00,
2013-09-19 11:46:00,92.2,36.2,29.23,North,1,1.3,2.5,14,-99.99,,,0.00,844,rob ver 1A,2013-09-19 18:46:00,
2013-09-19 11:47:00,94.2,46.4,29.26,SE,144,4.8,6.2,20,-99.99,,,0.00,827,rob ver 1B,2013-09-19 18:47:00,
2013-09-19 11:48:00,94.3,47.2,29.26,SSE,163,4.3,5.9,19,-99.99,,,0.00,827,rob ver 1B,2013-09-19 18:48:00,
2013-09-19 11:49:00,94.5,47.2,29.26,SSW,195,3.3,6.4,20,-99.99,,,0.00,823,rob ver 1B,2013-09-19 18:49:00,
2013-09-19 11:50:00,94.9,47.2,29.26,SSW,213,1.2,1.9,19,-99.99,,,0.00,823,rob ver 1B,2013-09-19 18:50:00,
2013-09-19 11:51:00,92.1,35.7,29.23,ESE,120,1.1,1.7,13,-99.99,,,0.00,849,rob ver 1A,2013-09-19 18:51:00,
2013-09-19 11:52:00,95.6,44.9,29.26,SSW,201,4.6,5.5,18,-99.99,,,0.00,828,rob ver 1B,2013-09-19 18:52:00,
2013-09-19 11:53:00,95.7,45.7,29.26,South,171,2.9,4.1,17,-99.99,,,0.00,829,rob ver 1B,2013-09-19 18:53:00,
2013-09-19 11:54:00,95.8,45.3,29.26,SW,217,2.9,4.5,17,-99.99,,,0.00,831,rob ver 1B,2013-09-19 18:54:00,
2013-09-19 11:55:00,95.9,45.5,29.23,WSW,241,3.7,9.6,18,-99.99,,,0.00,831,rob ver 1B,2013-09-19 18:55:00,
2013-09-19 11:56:00,93.4,36.5,29.23,ESE,114,4.7,6.2,13,-99.99,,,0.00,850,rob ver 1A,2013-09-19 18:56:00,
2013-09-19 11:57:00,95.8,44.7,29.26,SSE,158,4.0,5.8,17,-99.99,,,0.00,831,rob ver 1B,2013-09-19 18:57:00,
2013-09-19 11:58:00,95.9,46.1,29.26,South,186,1.7,3.9,18,-99.99,,,0.00,831,rob ver 1B,2013-09-19 18:58:00,
2013-09-19 11:59:00,96.2,46.4,29.23,NE,35,0.7,1.6,18,-99.99,,,0.00,831,rob ver 1B,2013-09-19 18:59:00,
2013-09-19 12:00:00,96.8,46.3,29.23,SSW,211,1.8,3.1,17,-99.99,,,0.00,832,rob ver 1B,2013-09-19 19:00:00,
2013-09-19 12:01:00,92.4,36.8,29.23,East,94,3.8,6.7,14,-99.99,,,0.00,853,rob ver 1A,2013-09-19 19:01:00,
2013-09-19 12:02:00,97.3,46.8,29.23,SW,226,1.1,2.6,18,-99.99,,,0.00,832,rob ver 1B,2013-09-19 19:02:00,
2013-09-19 12:03:00,97.5,47.1,29.23,SW,236,1.8,3.5,18,-99.99,,,0.00,833,rob ver 1B,2013-09-19 19:03:00,
2013-09-19 12:04:00,97.6,48.1,29.23,SSW,193,4.1,5.4,18,-99.99,,,0.00,833,rob ver 1B,2013-09-19 19:04:00,
2013-09-19 12:05:00,97.5,47.8,29.23,SSW,201,3.2,5.2,18,-99.99,,,0.00,835,rob ver 1B,2013-09-19 19:05:00,
2013-09-19 12:06:00,97.4,48.2,29.23,South,171,3.6,8.4,19,-99.99,,,0.00,836,rob ver 1B,2013-09-19 19:06:00,
2013-09-19 12:07:00,93.0,36.7,29.23,ENE,59,2.1,3.3,14,-99.99,,,0.00,857,rob ver 1A,2013-09-19 19:07:00,
2013-09-19 12:08:00,96.4,47.5,29.26,ESE,116,3.9,7.9,19,-99.99,,,0.00,836,rob ver 1B,2013-09-19 19:08:00,
2013-09-19 12:09:00,96.2,47.2,29.23,ESE,117,3.9,6.8,18,-99.99,,,0.00,837,rob ver 1B,2013-09-19 19:09:00,
2013-09-19 12:10:00,96.2,46.5,29.23,ESE,120,7.1,11.7,18,-99.99,,,0.00,836,rob ver 1B,2013-09-19 19:10:00,
2013-09-19 12:11:00,96.0,46.9,29.23,SE,126,6.3,9.0,18,-99.99,,,0.00,836,rob ver 1B,2013-09-19 19:11:00,
2013-09-19 12:12:00,93.7,37.7,29.23,WNW,297,2.0,3.3,14,-99.99,,,0.00,858,rob ver 1A,2013-09-19 19:12:00,
2013-09-19 12:13:00,95.6,46.6,29.23,East,96,4.4,5.8,19,-99.99,,,0.00,841,rob ver 1B,2013-09-19 19:13:00,
2013-09-19 12:14:00,95.7,46.5,29.23,East,95,4.5,7.2,17,-99.99,,,0.00,840,rob ver 1B,2013-09-19 19:14:00,
2013-09-19 12:15:00,95.9,45.4,29.23,ESE,111,5.0,8.5,18,-99.99,,,0.00,841,rob ver 1B,2013-09-19 19:15:00,
2013-09-19 12:16:00,95.9,45.8,29.23,SE,136,3.8,6.8,18,-99.99,,,0.00,839,rob ver 1B,2013-09-19 19:16:00,
2013-09-19 12:17:00,93.8,37.4,29.23,NW,326,1.9,3.1,13,-99.99,,,0.00,860,rob ver 1A,2013-09-19 19:17:00,
2013-09-19 12:18:00,96.5,47.0,29.23,SE,145,7.0,8.9,18,-99.99,,,0.00,843,rob ver 1B,2013-09-19 19:18:00,
2013-09-19 12:19:00,96.6,46.7,29.23,SSE,152,6.4,8.0,17,-99.99,,,0.00,842,rob ver 1B,2013-09-19 19:19:00,
2013-09-19 12:20:00,96.6,46.2,29.23,SSE,147,4.9,6.6,17,-99.99,,,0.00,843,rob ver 1B,2013-09-19 19:20:00,
2013-09-19 12:21:00,96.5,46.1,29.23,SSE,153,5.2,7.0,17,-99.99,,,0.00,841,rob ver 1B,2013-09-19 19:21:00,
2013-09-19 12:22:00,95.3,38.2,29.23,SSE,166,3.9,5.8,14,-99.99,,,0.00,859,rob ver 1A,2013-09-19 19:22:00,
2013-09-19 12:23:00,96.6,45.9,29.23,SSE,156,2.5,4.3,17,-99.99,,,0.00,841,rob ver 1B,2013-09-19 19:23:00,
2013-09-19 12:24:00,96.8,45.9,29.23,SSE,168,3.6,6.8,17,-99.99,,,0.00,841,rob ver 1B,2013-09-19 19:24:00,
2013-09-19 12:25:00,97.0,45.6,29.23,South,183,6.9,8.7,17,-99.99,,,0.00,841,rob ver 1B,2013-09-19 19:25:00,
2013-09-19 12:26:00,97.0,45.6,29.23,SSW,196,4.5,6.1,17,-99.99,,,0.00,841,rob ver 1B,2013-09-19 19:26:00,
2013-09-19 12:27:00,94.9,38.2,29.23,SSW,205,4.0,6.4,13,-99.99,,,0.00,860,rob ver 1A,2013-09-19 19:27:00,
2013-09-19 12:28:00,97.1,45.7,29.23,SW,226,1.6,3.8,17,-99.99,,,0.00,841,rob ver 1B,2013-09-19 19:28:00,
2013-09-19 12:29:00,97.3,45.4,29.23,WNW,303,3.4,5.5,17,-99.99,,,0.00,837,rob ver 1B,2013-09-19 19:29:00,
2013-09-19 12:30:00,97.2,45.3,29.23,WNW,292,2.4,4.6,17,-99.99,,,0.00,837,rob ver 1B,2013-09-19 19:30:00,
2013-09-19 12:31:00,97.2,46.6,29.23,SSE,155,3.3,6.2,18,-99.99,,,0.00,834,rob ver 1B,2013-09-19 19:31:00,
2013-09-19 12:32:00,94.3,38.3,29.23,SSE,148,2.5,6.2,14,-99.99,,,0.00,859,rob ver 1A,2013-09-19 19:32:00,
2013-09-19 12:33:00,97.3,46.1,29.23,South,183,5.4,7.2,17,-99.99,,,0.00,836,rob ver 1B,2013-09-19 19:33:00,
2013-09-19 12:34:00,97.3,45.9,29.23,South,188,3.6,4.9,17,-99.99,,,0.00,837,rob ver 1B,2013-09-19 19:34:00,
2013-09-19 12:35:00,97.5,45.6,29.23,South,187,1.0,2.4,16,-99.99,,,0.00,838,rob ver 1B,2013-09-19 19:35:00,
2013-09-19 12:36:00,98.1,45.8,29.23,SW,218,2.0,3.4,16,-99.99,,,0.00,838,rob ver 1B,2013-09-19 19:36:00,
2013-09-19 12:37:00,94.9,38.7,29.23,SW,236,2.2,4.2,14,-99.99,,,0.00,859,rob ver 1A,2013-09-19 19:37:00,
2013-09-19 12:38:00,98.6,45.3,29.23,ENE,74,0.8,1.7,16,-99.99,,,0.00,839,rob ver 1B,2013-09-19 19:38:00,
2013-09-19 12:39:00,98.7,45.2,29.23,SE,142,1.5,2.5,16,-99.99,,,0.00,836,rob ver 1B,2013-09-19 19:39:00,
2013-09-19 12:40:00,98.7,46.0,29.23,SSE,165,1.9,2.7,17,-99.99,,,0.00,837,rob ver 1B,2013-09-19 19:40:00,
2013-09-19 12:41:00,99.0,46.3,29.23,SSW,192,1.6,3.9,16,-99.99,,,0.00,838,rob ver 1B,2013-09-19 19:41:00,
2013-09-19 12:42:00,95.5,38.5,29.21,ESE,123,3.9,6.2,13,-99.99,,,0.00,857,rob ver 1A,2013-09-19 19:42:00,
2013-09-19 12:43:00,99.5,44.5,29.23,SSW,193,5.6,7.8,15,-99.99,,,0.00,841,rob ver 1B,2013-09-19 19:43:00,
2013-09-19 12:44:00,99.3,44.1,29.23,SSE,163,6.1,8.9,15,-99.99,,,0.00,839,rob ver 1B,2013-09-19 19:44:00,
2013-09-19 12:45:00,98.9,43.9,29.23,SSE,167,7.6,9.8,15,-99.99,,,0.00,840,rob ver 1B,2013-09-19 19:45:00,
2013-09-19 12:46:00,98.5,44.4,29.23,South,171,7.4,10.3,16,-99.99,,,0.00,838,rob ver 1B,2013-09-19 19:46:00,
2013-09-19 12:47:00,95.7,38.6,29.21,SE,139,4.5,7.9,13,-99.99,,,0.00,855,rob ver 1A,2013-09-19 19:47:00,
2013-09-19 12:48:00,98.3,44.7,29.23,South,170,5.1,8.6,15,-99.99,,,0.00,840,rob ver 1B,2013-09-19 19:48:00,
2013-09-19 12:49:00,98.3,43.3,29.23,SE,146,9.4,10.9,15,-99.99,,,0.00,839,rob ver 1B,2013-09-19 19:49:00,
2013-09-19 12:50:00,97.7,43.4,29.23,SSE,163,6.7,9.1,15,-99.99,,,0.00,839,rob ver 1B,2013-09-19 19:50:00,
2013-09-19 12:51:00,97.6,43.2,29.23,SSW,200,2.9,5.3,15,-99.99,,,0.00,840,rob ver 1B,2013-09-19 19:51:00,
2013-09-19 12:52:00,97.9,42.8,29.23,WNW,302,1.8,3.0,15,-99.99,,,0.00,843,rob ver 1B,2013-09-19 19:52:00,
2013-09-19 12:53:00,95.0,37.3,29.21,East,97,2.7,4.3,13,-99.99,,,0.00,857,rob ver 1A,2013-09-19 19:53:00,
2013-09-19 12:54:00,98.2,42.4,29.23,North,5,2.1,3.4,14,-99.99,,,0.00,844,rob ver 1B,2013-09-19 19:54:00,
2013-09-19 12:55:00,98.6,42.7,29.23,South,188,0.8,2.1,14,-99.99,,,0.00,843,rob ver 1B,2013-09-19 19:55:00,
2013-09-19 12:56:00,99.2,42.1,29.23,SW,218,4.3,7.0,13,-99.99,,,0.00,842,rob ver 1B,2013-09-19 19:56:00,
2013-09-19 12:57:00,99.4,41.7,29.23,SSW,193,4.4,7.3,13,-99.99,,,0.00,842,rob ver 1B,2013-09-19 19:57:00,
2013-09-19 12:58:00,95.7,37.3,29.21,NE,35,2.7,4.0,13,-99.99,,,0.00,852,rob ver 1A,2013-09-19 19:58:00,
2013-09-19 12:59:00,98.5,38.5,29.23,SE,136,6.9,9.5,12,-99.99,,,0.00,840,rob ver 1B,2013-09-19 19:59:00,
2013-09-19 13:00:00,98.1,38.4,29.23,South,191,4.6,6.7,12,-99.99,,,0.00,838,rob ver 1B,2013-09-19 20:00:00,
2013-09-19 13:01:00,98.3,38.7,29.23,SE,143,4.7,6.0,12,-99.99,,,0.00,842,rob ver 1B,2013-09-19 20:01:00,
2013-09-19 13:02:00,98.4,39.2,29.23,SE,140,4.2,6.2,13,-99.99,,,0.00,841,rob ver 1B,2013-09-19 20:02:00,
2013-09-19 13:03:00,95.0,38.5,29.21,ESE,110,3.9,6.8,14,-99.99,,,0.00,850,rob ver 1A,2013-09-19 20:03:00,
2013-09-19 13:04:00,98.0,39.7,29.23,SE,133,8.2,9.9,13,-99.99,,,0.00,838,rob ver 1B,2013-09-19 20:04:00,
2013-09-19 13:05:00,97.7,39.8,29.23,SE,128,7.2,10.8,13,-99.99,,,0.00,836,rob ver 1B,2013-09-19 20:05:00,
2013-09-19 13:06:00,97.6,39.2,29.23,ESE,120,7.4,10.4,13,-99.99,,,0.00,834,rob ver 1B,2013-09-19 20:06:00,
2013-09-19 13:07:00,97.4,39.3,29.23,East,92,4.0,6.0,13,-99.99,,,0.00,833,rob ver 1B,2013-09-19 20:07:00,
2013-09-19 13:08:00,94.6,38.2,29.21,SE,145,5.1,6.7,14,-99.99,,,0.00,848,rob ver 1A,2013-09-19 20:08:00,
2013-09-19 13:09:00,97.8,39.0,29.23,East,86,3.9,6.5,13,-99.99,,,0.00,831,rob ver 1B,2013-09-19 20:09:00,
2013-09-19 13:10:00,97.9,40.1,29.23,ENE,76,2.9,5.8,13,-99.99,,,0.00,830,rob ver 1B,2013-09-19 20:10:00,
2013-09-19 13:11:00,98.0,40.3,29.23,East,98,4.4,7.2,13,-99.99,,,0.00,831,rob ver 1B,2013-09-19 20:11:00,
2013-09-19 13:12:00,97.9,40.1,29.23,ESE,113,4.3,5.9,13,-99.99,,,0.00,831,rob ver 1B,2013-09-19 20:12:00,
2013-09-19 13:13:00,97.8,40.4,29.23,East,94,1.9,3.8,14,-99.99,,,0.00,829,rob ver 1B,2013-09-19 20:13:00,
2013-09-19 13:14:00,94.7,37.4,29.21,NNE,33,1.0,2.5,13,-99.99,,,0.00,845,rob ver 1A,2013-09-19 20:14:00,
2013-09-19 13:15:00,97.9,40.4,29.23,East,87,3.0,4.9,13,-99.99,,,0.00,828,rob ver 1B,2013-09-19 20:15:00,
2013-09-19 13:16:00,98.2,40.1,29.23,WSW,258,1.0,1.7,13,-99.99,,,0.00,826,rob ver 1B,2013-09-19 20:16:00,
2013-09-19 13:17:00,98.7,40.7,29.23,SE,134,1.3,2.9,13,-99.99,,,0.00,825,rob ver 1B,2013-09-19 20:17:00,
2013-09-19 13:18:00,99.0,40.5,29.23,SSE,165,5.4,10.4,13,-99.99,,,0.00,826,rob ver 1B,2013-09-19 20:18:00,
2013-09-19 13:19:00,95.4,37.3,29.21,NNE,12,1.1,2.1,13,-99.99,,,0.00,840,rob ver 1A,2013-09-19 20:19:00,
2013-09-19 13:20:00,99.0,41.0,29.23,SSE,165,8.6,11.0,13,-99.99,,,0.00,822,rob ver 1B,2013-09-19 20:20:00,
2013-09-19 13:21:00,98.8,41.0,29.23,South,169,7.8,10.0,14,-99.99,,,0.00,821,rob ver 1B,2013-09-19 20:21:00,
2013-09-19 13:22:00,98.8,40.7,29.23,SSE,156,11.2,13.8,13,-99.99,,,0.00,821,rob ver 1B,2013-09-19 20:22:00,
2013-09-19 13:23:00,98.6,40.4,29.23,SSE,151,9.6,13.6,13,-99.99,,,0.00,821,rob ver 1B,2013-09-19 20:23:00,
2013-09-19 13:24:00,96.1,37.8,29.21,SE,138,3.7,6.1,13,-99.99,,,0.00,837,rob ver 1A,2013-09-19 20:24:00,
2013-09-19 13:25:00,98.2,40.6,29.23,SSE,147,7.1,10.4,13,-99.99,,,0.00,819,rob ver 1B,2013-09-19 20:25:00,
2013-09-19 13:26:00,98.3,40.5,29.23,SSE,162,7.1,12.7,13,-99.99,,,0.00,817,rob ver 1B,2013-09-19 20:26:00,
2013-09-19 13:27:00,98.3,40.4,29.23,SE,138,6.1,8.8,13,-99.99,,,0.00,817,rob ver 1B,2013-09-19 20:27:00,
2013-09-19 13:28:00,98.1,40.6,29.23,SSE,148,4.4,7.8,13,-99.99,,,0.00,813,rob ver 1B,2013-09-19 20:28:00,
2013-09-19 13:29:00,96.0,37.5,29.21,West,268,5.1,7.4,13,-99.99,,,0.00,831,rob ver 1A,2013-09-19 20:29:00,
2013-09-19 13:30:00,98.6,40.7,29.21,SW,219,3.0,4.2,13,-99.99,,,0.00,812,rob ver 1B,2013-09-19 20:30:00,
2013-09-19 13:31:00,98.9,40.9,29.21,South,175,3.4,6.2,13,-99.99,,,0.00,810,rob ver 1B,2013-09-19 20:31:00,
2013-09-19 13:32:00,98.7,40.7,29.21,ENE,69,4.3,6.0,13,-99.99,,,0.00,809,rob ver 1B,2013-09-19 20:32:00,
2013-09-19 13:33:00,98.7,41.0,29.21,South,178,5.9,9.8,13,-99.99,,,0.00,809,rob ver 1B,2013-09-19 20:33:00,
2013-09-19 13:34:00,95.6,36.6,29.21,West,264,4.8,9.5,12,-99.99,,,0.00,828,rob ver 1A,2013-09-19 20:34:00,
2013-09-19 13:35:00,99.2,41.2,29.21,South,191,10.1,13.8,13,-99.99,,,0.00,804,rob ver 1B,2013-09-19 20:35:00,
2013-09-19 13:36:00,99.0,41.2,29.21,South,182,8.3,10.9,13,-99.99,,,0.00,805,rob ver 1B,2013-09-19 20:36:00,
2013-09-19 13:37:00,98.9,41.3,29.21,South,171,5.8,8.6,13,-99.99,,,0.00,805,rob ver 1B,2013-09-19 20:37:00,
2013-09-19 13:38:00,98.9,41.4,29.21,SSE,163,6.1,8.2,14,-99.99,,,0.00,803,rob ver 1B,2013-09-19 20:38:00,
2013-09-19 13:39:00,95.9,37.0,29.21,WSW,253,4.6,7.0,12,-99.99,,,0.00,821,rob ver 1A,2013-09-19 20:39:00,
2013-09-19 13:40:00,99.2,41.4,29.21,SSW,193,5.5,7.9,13,-99.99,,,0.00,800,rob ver 1B,2013-09-19 20:40:00,
2013-09-19 13:41:00,99.5,41.3,29.21,SSW,210,7.3,11.3,13,-99.99,,,0.00,801,rob ver 1B,2013-09-19 20:41:00,
2013-09-19 13:42:00,99.4,41.3,29.21,SW,223,7.9,9.9,13,-99.99,,,0.00,799,rob ver 1B,2013-09-19 20:42:00,
2013-09-19 13:43:00,99.2,41.3,29.21,SW,218,7.2,8.9,13,-99.99,,,0.00,798,rob ver 1B,2013-09-19 20:43:00,
2013-09-19 13:44:00,99.4,41.4,29.21,SW,219,7.7,12.8,13,-99.99,,,0.00,796,rob ver 1B,2013-09-19 20:44:00,
2013-09-19 13:45:00,96.3,35.9,29.21,South,172,2.3,3.7,12,-99.99,,,0.00,813,rob ver 1A,2013-09-19 20:45:00,
2013-09-19 13:46:00,99.2,41.5,29.21,SE,141,10.6,14.2,13,-99.99,,,0.00,794,rob ver 1B,2013-09-19 20:46:00,
2013-09-19 13:47:00,98.7,41.4,29.21,SSE,148,5.4,9.0,14,-99.99,,,0.00,792,rob ver 1B,2013-09-19 20:47:00,
2013-09-19 13:48:00,98.7,41.6,29.21,South,174,5.6,8.8,14,-99.99,,,0.00,791,rob ver 1B,2013-09-19 20:48:00,
2013-09-19 13:49:00,98.7,41.5,29.21,South,181,7.5,11.7,14,-99.99,,,0.00,791,rob ver 1B,2013-09-19 20:49:00,
2013-09-19 13:50:00,96.3,34.4,29.21,NW,308,4.4,5.3,11,-99.99,,,0.00,807,rob ver 1A,2013-09-19 20:50:00,
2013-09-19 13:51:00,98.6,41.6,29.21,ESE,121,6.0,7.1,14,-99.99,,,0.00,787,rob ver 1B,2013-09-19 20:51:00,
2013-09-19 13:52:00,98.7,42.2,29.21,SSE,168,6.7,10.4,14,-99.99,,,0.00,785,rob ver 1B,2013-09-19 20:52:00,
2013-09-19 13:53:00,99.0,42.0,29.21,SSW,202,7.8,9.9,14,-99.99,,,0.00,784,rob ver 1B,2013-09-19 20:53:00,
2013-09-19 13:54:00,99.1,42.0,29.21,SSW,206,8.0,9.8,14,-99.99,,,0.00,782,rob ver 1B,2013-09-19 20:54:00,
2013-09-19 13:55:00,97.2,34.8,29.21,West,278,2.4,4.3,11,-99.99,,,0.00,797,rob ver 1A,2013-09-19 20:55:00,
2013-09-19 13:56:00,98.9,42.2,29.21,SSW,198,5.9,7.7,14,-99.99,,,0.00,780,rob ver 1B,2013-09-19 20:56:00,
2013-09-19 13:57:00,99.2,42.4,29.21,SSW,196,4.9,8.7,14,-99.99,,,0.00,778,rob ver 1B,2013-09-19 20:57:00,
2013-09-19 13:58:00,99.3,42.3,29.21,SSW,206,8.4,11.2,14,-99.99,,,0.00,777,rob ver 1B,2013-09-19 20:58:00,
2013-09-19 13:59:00,99.2,42.5,29.21,South,188,8.1,14.2,14,-99.99,,,0.00,777,rob ver 1B,2013-09-19 20:59:00,
2013-09-19 14:00:00,97.6,35.3,29.21,North,1,3.3,5.1,11,-99.99,,,0.00,795,rob ver 1A,2013-09-19 21:00:00,
2013-09-19 14:01:00,99.7,42.5,29.21,South,181,6.1,8.8,14,-99.99,,,0.00,772,rob ver 1B,2013-09-19 21:01:00,
2013-09-19 14:02:00,99.8,42.1,29.21,SSE,150,8.2,10.9,13,-99.99,,,0.00,770,rob ver 1B,2013-09-19 21:02:00,
2013-09-19 14:03:00,99.8,42.2,29.21,SSE,161,7.9,10.9,13,-99.99,,,0.00,769,rob ver 1B,2013-09-19 21:03:00,
2013-09-19 14:04:00,99.8,42.3,29.21,SSE,162,7.4,11.0,14,-99.99,,,0.00,767,rob ver 1B,2013-09-19 21:04:00,
2013-09-19 14:05:00,98.0,36.5,29.21,SSW,193,3.7,4.6,11,-99.99,,,0.00,781,rob ver 1A,2013-09-19 21:05:00,
2013-09-19 14:06:00,99.9,42.4,29.21,SSE,167,6.4,10.5,14,-99.99,,,0.00,764,rob ver 1B,2013-09-19 21:06:00,
2013-09-19 14:07:00,99.6,42.4,29.21,SSE,150,8.2,11.8,14,-99.99,,,0.00,761,rob ver 1B,2013-09-19 21:07:00,
2013-09-19 14:08:00,99.4,42.2,29.21,SSW,206,8.6,10.7,14,-99.99,,,0.00,758,rob ver 1B,2013-09-19 21:08:00,
2013-09-19 14:09:00,99.4,42.2,29.21,SSW,212,5.9,8.6,14,-99.99,,,0.00,756,rob ver 1B,2013-09-19 21:09:00,
2013-09-19 14:10:00,97.7,34.3,29.18,NW,315,4.4,6.1,11,-99.99,,,0.00,774,rob ver 1A,2013-09-19 21:10:00,
2013-09-19 14:11:00,99.2,42.3,29.21,SW,223,5.5,7.7,14,-99.99,,,0.00,752,rob ver 1B,2013-09-19 21:11:00,
2013-09-19 14:12:00,99.1,42.4,29.21,SW,221,7.7,11.4,14,-99.99,,,0.00,751,rob ver 1B,2013-09-19 21:12:00,
2013-09-19 14:13:00,99.0,42.5,29.21,SW,234,3.7,7.9,14,-99.99,,,0.00,749,rob ver 1B,2013-09-19 21:13:00,
2013-09-19 14:14:00,99.2,42.6,29.21,SSW,201,6.5,9.0,14,-99.99,,,0.00,748,rob ver 1B,2013-09-19 21:14:00,
2013-09-19 14:15:00,97.8,35.2,29.18,NW,313,4.5,7.0,11,-99.99,,,0.00,766,rob ver 1A,2013-09-19 21:15:00,
2013-09-19 14:16:00,99.3,42.4,29.21,SSE,158,9.9,12.5,14,-99.99,,,0.00,743,rob ver 1B,2013-09-19 21:16:00,
2013-09-19 14:17:00,99.0,42.3,29.21,South,180,6.9,9.2,14,-99.99,,,0.00,742,rob ver 1B,2013-09-19 21:17:00,
2013-09-19 14:18:00,99.1,42.2,29.21,SSW,198,5.9,8.6,14,-99.99,,,0.00,741,rob ver 1B,2013-09-19 21:18:00,
2013-09-19 14:19:00,99.1,42.3,29.21,South,191,5.5,7.9,14,-99.99,,,0.00,739,rob ver 1B,2013-09-19 21:19:00,
2013-09-19 14:20:00,98.6,36.2,29.18,WSW,253,1.9,2.8,11,-99.99,,,0.00,758,rob ver 1A,2013-09-19 21:20:00,
2013-09-19 14:21:00,99.3,42.7,29.21,South,190,4.0,9.8,14,-99.99,,,0.00,732,rob ver 1B,2013-09-19 21:21:00,
2013-09-19 14:22:00,99.4,42.6,29.21,South,184,8.5,11.3,14,-99.99,,,0.00,732,rob ver 1B,2013-09-19 21:22:00,
2013-09-19 14:23:00,99.5,42.8,29.21,South,188,8.4,10.8,14,-99.99,,,0.00,730,rob ver 1B,2013-09-19 21:23:00,
2013-09-19 14:24:00,99.7,42.9,29.21,SSW,203,5.2,7.2,14,-99.99,,,0.00,728,rob ver 1B,2013-09-19 21:24:00,
2013-09-19 14:25:00,98.7,35.7,29.18,SW,228,3.5,5.4,11,-99.99,,,0.00,748,rob ver 1A,2013-09-19 21:25:00,
2013-09-19 14:26:00,99.7,42.7,29.21,WSW,241,3.5,4.5,14,-99.99,,,0.00,725,rob ver 1B,2013-09-19 21:26:00,
2013-09-19 14:27:00,99.5,42.9,29.21,SSW,195,1.5,3.1,14,-99.99,,,0.00,723,rob ver 1B,2013-09-19 21:27:00,
2013-09-19 14:28:00,99.8,43.1,29.21,SSE,161,2.7,4.3,14,-99.99,,,0.00,719,rob ver 1B,2013-09-19 21:28:00,
2013-09-19 14:29:00,99.9,43.1,29.21,SE,143,6.7,9.4,14,-99.99,,,0.00,721,rob ver 1B,2013-09-19 21:29:00,
2013-09-19 14:30:00,99.9,42.9,29.21,SSE,155,9.2,11.1,14,-99.99,,,0.00,718,rob ver 1B,2013-09-19 21:30:00,
2013-09-19 14:31:00,98.7,35.6,29.18,ESE,111,1.1,2.8,11,-99.99,,,0.00,742,rob ver 1A,2013-09-19 21:31:00,
2013-09-19 14:32:00,99.6,42.9,29.21,SE,141,6.2,9.2,14,-99.99,,,0.00,716,rob ver 1B,2013-09-19 21:32:00,
2013-09-19 14:33:00,99.3,42.8,29.21,South,174,3.4,5.3,14,-99.99,,,0.00,713,rob ver 1B,2013-09-19 21:33:00,
2013-09-19 14:34:00,99.4,42.9,29.21,SSE,167,1.6,2.7,14,-99.99,,,0.00,711,rob ver 1B,2013-09-19 21:34:00,
2013-09-19 14:35:00,99.4,42.9,29.21,NNW,346,1.4,2.3,14,-99.99,,,0.00,710,rob ver 1B,2013-09-19 21:35:00,
2013-09-19 14:36:00,98.0,34.8,29.18,SSW,195,4.6,6.6,10,-99.99,,,0.00,730,rob ver 1A,2013-09-19 21:36:00,
2013-09-19 14:37:00,99.9,42.8,29.21,WNW,284,3.8,5.5,14,-99.99,,,0.00,705,rob ver 1B,2013-09-19 21:37:00,
2013-09-19 14:38:00,99.8,43.0,29.21,SSW,210,2.8,5.4,14,-99.99,,,0.00,699.2,rob ver 1B,2013-09-19 21:38:00,
2013-09-19 14:39:00,99.9,43.0,29.21,SSW,203,4.6,8.2,14,-99.99,,,0.00,697.5,rob ver 1B,2013-09-19 21:39:00,
2013-09-19 14:40:00,99.9,43.0,29.21,South,181,5.0,7.9,14,-99.99,,,0.00,696.2,rob ver 1B,2013-09-19 21:40:00,
2013-09-19 14:41:00,98.4,35.9,29.18,SW,233,8.0,11.5,11,-99.99,,,0.00,718,rob ver 1A,2013-09-19 21:41:00,
2013-09-19 14:42:00,100.0,43.1,29.21,South,172,1.1,2.0,14,-99.99,,,0.00,692.8,rob ver 1B,2013-09-19 21:42:00,
2013-09-19 14:43:00,100.2,43.0,29.21,ENE,71,1.1,2.2,14,-99.99,,,0.00,691.6,rob ver 1B,2013-09-19 21:43:00,
2013-09-19 14:44:00,100.4,43.2,29.21,SSW,194,1.1,2.6,14,-99.99,,,0.00,688.7,rob ver 1B,2013-09-19 21:44:00,
2013-09-19 14:45:00,100.8,43.6,29.21,South,171,5.4,7.8,14,-99.99,,,0.00,687.7,rob ver 1B,2013-09-19 21:45:00,
2013-09-19 14:46:00,98.2,35.9,29.18,West,280,4.0,5.8,11,-99.99,,,0.00,709,rob ver 1A,2013-09-19 21:46:00,
2013-09-19 14:47:00,100.5,44.3,29.21,SSE,162,8.1,11.7,14,-99.99,,,0.00,681.1,rob ver 1B,2013-09-19 21:47:00,
2013-09-19 14:48:00,100.4,44.1,29.21,South,185,9.5,12.9,14,-99.99,,,0.00,680.6,rob ver 1B,2013-09-19 21:48:00,
2013-09-19 14:49:00,100.1,44.0,29.21,South,180,8.3,11.9,14,-99.99,,,0.00,675.6,rob ver 1B,2013-09-19 21:49:00,
2013-09-19 14:50:00,99.9,43.9,29.18,South,183,9.1,12.1,14,-99.99,,,0.00,671.9,rob ver 1B,2013-09-19 21:50:00,
2013-09-19 14:51:00,98.5,35.0,29.18,SSW,204,3.8,4.9,11,-99.99,,,0.00,694.3,rob ver 1A,2013-09-19 21:51:00,
2013-09-19 14:52:00,99.8,43.7,29.18,SSW,194,7.5,11.3,15,-99.99,,,0.00,669.1,rob ver 1B,2013-09-19 21:52:00,
2013-09-19 14:53:00,99.8,44.0,29.21,SSW,194,7.9,10.1,14,-99.99,,,0.00,665.1,rob ver 1B,2013-09-19 21:53:00,
2013-09-19 14:54:00,99.9,43.8,29.21,SSW,192,7.4,10.0,14,-99.99,,,0.00,663.5,rob ver 1B,2013-09-19 21:54:00,
2013-09-19 14:55:00,100.1,43.8,29.21,SSW,208,6.7,8.6,14,-99.99,,,0.00,662.5,rob ver 1B,2013-09-19 21:55:00,
2013-09-19 14:56:00,98.6,36.1,29.18,SSW,213,2.4,5.0,11,-99.99,,,0.00,680.9,rob ver 1A,2013-09-19 21:56:00,
2013-09-19 14:57:00,100.3,43.8,29.18,SSW,209,6.7,8.3,14,-99.99,,,0.00,656.9,rob ver 1B,2013-09-19 21:57:00,
2013-09-19 14:58:00,100.2,44.1,29.21,South,177,8.9,13.4,15,-99.99,,,0.00,655.9,rob ver 1B,2013-09-19 21:58:00,
2013-09-19 14:59:00,99.6,44.2,29.21,SE,129,8.1,13.5,15,-99.99,,,0.00,653.9,rob ver 1B,2013-09-19 21:59:00,
2013-09-19 15:00:00,99.1,44.1,29.18,ESE,102,4.1,5.7,15,-99.99,,,0.00,652.7,rob ver 1B,2013-09-19 22:00:00,
2013-09-19 15:01:00,98.1,36.7,29.18,SSW,213,4.3,6.1,11,-99.99,,,0.00,670.4,rob ver 1A,2013-09-19 22:01:00,
2013-09-19 15:02:00,99.2,44.2,29.18,SSE,160,2.9,5.0,15,-99.99,,,0.00,649.1,rob ver 1B,2013-09-19 22:02:00,
2013-09-19 15:03:00,99.5,44.6,29.18,SW,233,6.7,9.9,15,-99.99,,,0.00,644.8,rob ver 1B,2013-09-19 22:03:00,
2013-09-19 15:04:00,99.3,44.9,29.18,WSW,255,2.8,6.4,16,-99.99,,,0.00,642.2,rob ver 1B,2013-09-19 22:04:00,
2013-09-19 15:05:00,99.4,45.1,29.18,WNW,282,4.1,5.9,15,-99.99,,,0.00,637.4,rob ver 1B,2013-09-19 22:05:00,
2013-09-19 15:06:00,99.5,44.7,29.18,WSW,254,2.4,3.7,15,-99.99,,,0.00,634,rob ver 1B,2013-09-19 22:06:00,
2013-09-19 15:07:00,98.2,35.9,29.18,South,184,6.6,7.6,11,-99.99,,,0.00,657.5,rob ver 1A,2013-09-19 22:07:00,
2013-09-19 15:08:00,100.1,45.0,29.18,SSW,194,3.5,6.3,15,-99.99,,,0.00,631.5,rob ver 1B,2013-09-19 22:08:00,
2013-09-19 15:09:00,100.4,45.0,29.18,South,189,7.3,11.9,15,-99.99,,,0.00,629.3,rob ver 1B,2013-09-19 22:09:00,
2013-09-19 15:10:00,100.4,44.9,29.18,SSW,211,10.0,12.7,15,-99.99,,,0.00,628.3,rob ver 1B,2013-09-19 22:10:00,
2013-09-19 15:11:00,100.2,44.5,29.18,SSW,201,9.6,12.4,15,-99.99,,,0.00,625.9,rob ver 1B,2013-09-19 22:11:00,
2013-09-19 15:12:00,98.8,36.0,29.18,SW,217,2.3,3.1,11,-99.99,,,0.00,644.2,rob ver 1A,2013-09-19 22:12:00,
2013-09-19 15:13:00,100.5,43.9,29.18,South,181,7.0,9.6,15,-99.99,,,0.00,622.2,rob ver 1B,2013-09-19 22:13:00,
2013-09-19 15:14:00,100.7,44.9,29.18,SE,146,8.5,11.0,15,-99.99,,,0.00,622.4,rob ver 1B,2013-09-19 22:14:00,
2013-09-19 15:15:00,100.1,44.9,29.18,SE,128,7.1,9.4,15,-99.99,,,0.00,619.3,rob ver 1B,2013-09-19 22:15:00,
2013-09-19 15:16:00,99.6,45.2,29.18,SE,142,2.9,5.5,16,-99.99,,,0.00,615.7,rob ver 1B,2013-09-19 22:16:00,
2013-09-19 15:17:00,98.5,36.0,29.18,ENE,58,2.6,4.0,11,-99.99,,,0.00,627,rob ver 1A,2013-09-19 22:17:00,
2013-09-19 15:18:00,100.0,44.9,29.18,SSE,154,3.0,4.5,15,-99.99,,,0.00,610.5,rob ver 1B,2013-09-19 22:18:00,
2013-09-19 15:19:00,100.3,44.5,29.18,SE,146,6.1,8.6,14,-99.99,,,0.00,607.2,rob ver 1B,2013-09-19 22:19:00,
2013-09-19 15:20:00,100.1,43.6,29.18,SSE,149,4.0,6.3,14,-99.99,,,0.00,605.6,rob ver 1B,2013-09-19 22:20:00,
2013-09-19 15:21:00,100.0,43.5,29.18,SE,134,4.7,7.4,14,-99.99,,,0.00,603.3,rob ver 1B,2013-09-19 22:21:00,
2013-09-19 15:22:00,98.6,35.9,29.18,South,188,5.0,8.7,11,-99.99,,,0.00,615.4,rob ver 1A,2013-09-19 22:22:00,
2013-09-19 15:23:00,100.2,43.2,29.18,ESE,109,8.1,9.9,14,-99.99,,,0.00,593.4,rob ver 1B,2013-09-19 22:23:00,
2013-09-19 15:24:00,100.2,42.8,29.18,ESE,122,7.5,11.2,14,-99.99,,,0.00,589.5,rob ver 1B,2013-09-19 22:24:00,
2013-09-19 15:25:00,100.2,43.1,29.18,ESE,119,4.4,6.3,14,-99.99,,,0.00,588.3,rob ver 1B,2013-09-19 22:25:00,
2013-09-19 15:26:00,100.4,42.9,29.18,East,87,8.5,15.0,13,-99.99,,,0.00,585.2,rob ver 1B,2013-09-19 22:26:00,
2013-09-19 15:27:00,98.3,35.6,29.18,SSW,213,9.2,11.4,11,-99.99,,,0.00,602.7,rob ver 1A,2013-09-19 22:27:00,
2013-09-19 15:28:00,99.9,42.4,29.18,SE,124,6.3,9.6,14,-99.99,,,0.00,580.9,rob ver 1B,2013-09-19 22:28:00,
2013-09-19 15:29:00,99.7,42.7,29.18,SE,137,7.2,9.9,14,-99.99,,,0.00,577.9,rob ver 1B,2013-09-19 22:29:00,
2013-09-19 15:30:00,99.6,42.7,29.18,SSE,158,5.7,8.3,14,-99.99,,,0.00,577.6,rob ver 1B,2013-09-19 22:30:00,
2013-09-19 15:31:00,99.8,42.7,29.18,SE,132,6.5,8.5,14,-99.99,,,0.00,575.3,rob ver 1B,2013-09-19 22:31:00,
2013-09-19 15:32:00,98.3,35.3,29.18,SSE,158,4.0,5.2,11,-99.99,,,0.00,593.4,rob ver 1A,2013-09-19 22:32:00,
2013-09-19 15:33:00,99.9,41.9,29.18,SSE,150,6.8,9.2,13,-99.99,,,0.00,572.5,rob ver 1B,2013-09-19 22:33:00,
2013-09-19 15:34:00,100.1,42.0,29.18,South,172,4.5,6.2,13,-99.99,,,0.00,569.1,rob ver 1B,2013-09-19 22:34:00,
2013-09-19 15:35:00,100.3,42.2,29.18,South,175,5.0,6.0,13,-99.99,,,0.00,567.1,rob ver 1B,2013-09-19 22:35:00,
2013-09-19 15:36:00,100.4,42.4,29.18,South,173,5.4,7.5,14,-99.99,,,0.00,564.1,rob ver 1B,2013-09-19 22:36:00,
2013-09-19 15:37:00,99.0,35.2,29.15,SW,216,3.1,4.8,10,-99.99,,,0.00,573.2,rob ver 1A,2013-09-19 22:37:00,
2013-09-19 15:38:00,100.3,42.1,29.18,ESE,110,9.6,12.1,13,-99.99,,,0.00,557.7,rob ver 1B,2013-09-19 22:38:00,
2013-09-19 15:39:00,100.3,42.3,29.18,ESE,119,10.5,14.4,13,-99.99,,,0.00,554.2,rob ver 1B,2013-09-19 22:39:00,
2013-09-19 15:40:00,100.3,42.4,29.18,SE,127,9.9,13.2,13,-99.99,,,0.00,551,rob ver 1B,2013-09-19 22:40:00,
2013-09-19 15:41:00,99.9,42.4,29.18,SE,130,4.6,7.9,14,-99.99,,,0.00,548.5,rob ver 1B,2013-09-19 22:41:00,
2013-09-19 15:42:00,99.3,34.6,29.15,NW,322,2.5,3.1,10,-99.99,,,0.00,559.5,rob ver 1A,2013-09-19 22:42:00,
2013-09-19 15:43:00,100.0,42.1,29.18,ESE,104,5.1,7.4,13,-99.99,,,0.00,538.9,rob ver 1B,2013-09-19 22:43:00,
2013-09-19 15:44:00,99.9,42.2,29.18,ESE,109,5.6,7.5,13,-99.99,,,0.00,536.1,rob ver 1B,2013-09-19 22:44:00,
2013-09-19 15:45:00,99.9,41.7,29.18,SE,131,7.2,9.2,13,-99.99,,,0.00,533,rob ver 1B,2013-09-19 22:45:00,
2013-09-19 15:46:00,99.8,42.1,29.18,SE,132,5.4,9.0,13,-99.99,,,0.00,527.5,rob ver 1B,2013-09-19 22:46:00,
2013-09-19 15:47:00,99.7,35.1,29.15,SW,231,4.0,10.6,10,-99.99,,,0.00,543.2,rob ver 1A,2013-09-19 22:47:00,
2013-09-19 15:48:00,99.7,42.0,29.18,SSE,155,6.5,9.3,14,-99.99,,,0.00,523.4,rob ver 1B,2013-09-19 22:48:00,
2013-09-19 15:49:00,99.7,42.3,29.18,SSE,161,5.9,9.0,14,-99.99,,,0.00,521.6,rob ver 1B,2013-09-19 22:49:00,
2013-09-19 15:50:00,99.8,42.4,29.18,South,174,5.0,7.2,14,-99.99,,,0.00,519.5,rob ver 1B,2013-09-19 22:50:00,
2013-09-19 15:51:00,99.9,42.5,29.18,SW,214,5.2,6.9,14,-99.99,,,0.00,517.3,rob ver 1B,2013-09-19 22:51:00,
2013-09-19 15:52:00,98.8,34.8,29.15,SE,144,3.7,5.8,10,-99.99,,,0.00,528.7,rob ver 1A,2013-09-19 22:52:00,
2013-09-19 15:53:00,100.0,42.6,29.18,SE,132,2.7,5.9,14,-99.99,,,0.00,512.6,rob ver 1B,2013-09-19 22:53:00,
2013-09-19 15:54:00,100.1,42.8,29.18,ESE,112,6.3,9.2,14,-99.99,,,0.00,509.3,rob ver 1B,2013-09-19 22:54:00,
2013-09-19 15:55:00,99.9,42.8,29.18,ESE,116,6.4,8.5,14,-99.99,,,0.00,504.2,rob ver 1B,2013-09-19 22:55:00,
2013-09-19 15:56:00,99.9,42.8,29.18,SSE,153,5.1,7.0,14,-99.99,,,0.00,500.6,rob ver 1B,2013-09-19 22:56:00,
2013-09-19 15:57:00,100.0,43.0,29.18,SSE,154,4.2,6.3,14,-99.99,,,0.00,497.8,rob ver 1B,2013-09-19 22:57:00,
2013-09-19 15:58:00,99.6,33.9,29.15,WSW,248,4.9,6.6,10,-99.99,,,0.00,515.2,rob ver 1A,2013-09-19 22:58:00,
2013-09-19 15:59:00,100.3,43.1,29.18,SE,137,3.4,5.0,14,-99.99,,,0.00,491.8,rob ver 1B,2013-09-19 22:59:00,
2013-09-19 16:00:00,100.4,43.1,29.18,SE,129,6.8,9.5,14,-99.99,,,0.00,487.9,rob ver 1B,2013-09-19 23:00:00,
2013-09-19 16:01:00,100.5,42.7,29.18,SE,130,9.4,11.7,13,-99.99,,,0.00,484.9,rob ver 1B,2013-09-19 23:01:00,
2013-09-19 16:02:00,100.6,42.6,29.18,SE,126,8.6,10.6,13,-99.99,,,0.00,482.6,rob ver 1B,2013-09-19 23:02:00,
2013-09-19 16:03:00,99.1,33.5,29.15,WNW,292,5.8,8.3,10,-99.99,,,0.00,495.9,rob ver 1A,2013-09-19 23:03:00,
2013-09-19 16:04:00,100.6,42.2,29.18,SSE,150,7.9,10.7,13,-99.99,,,0.00,478.3,rob ver 1B,2013-09-19 23:04:00,
2013-09-19 16:05:00,100.5,42.1,29.18,SSE,167,7.5,12.9,13,-99.99,,,0.00,475.3,rob ver 1B,2013-09-19 23:05:00,
2013-09-19 16:06:00,100.6,41.8,29.18,SSE,147,11.2,13.2,13,-99.99,,,0.00,472.9,rob ver 1B,2013-09-19 23:06:00,
2013-09-19 16:07:00,100.4,41.8,29.18,SE,146,9.2,11.2,13,-99.99,,,0.00,470.9,rob ver 1B,2013-09-19 23:07:00,
2013-09-19 16:08:00,99.0,33.5,29.15,South,188,5.8,8.3,10,-99.99,,,0.00,479.8,rob ver 1A,2013-09-19 23:08:00,
2013-09-19 16:09:00,100.0,41.8,29.18,SE,132,8.8,11.2,13,-99.99,,,0.00,464.3,rob ver 1B,2013-09-19 23:09:00,
2013-09-19 16:10:00,99.9,41.8,29.18,SE,133,5.2,6.9,13,-99.99,,,0.00,461.8,rob ver 1B,2013-09-19 23:10:00,
2013-09-19 16:11:00,99.9,42.0,29.18,SE,131,5.7,8.3,13,-99.99,,,0.00,457.7,rob ver 1B,2013-09-19 23:11:00,
2013-09-19 16:12:00,99.8,42.0,29.18,SE,129,4.6,8.7,13,-99.99,,,0.00,454.7,rob ver 1B,2013-09-19 23:12:00,
2013-09-19 16:13:00,99.0,33.5,29.15,SSW,202,3.4,5.4,10,-99.99,,,0.00,466.7,rob ver 1A,2013-09-19 23:13:00,
2013-09-19 16:14:00,100.2,41.6,29.18,SE,125,8.9,13.9,12,-99.99,,,0.00,447.6,rob ver 1B,2013-09-19 23:14:00,
2013-09-19 16:15:00,100.3,40.7,29.18,SSE,163,11.3,14.7,13,-99.99,,,0.00,446.5,rob ver 1B,2013-09-19 23:15:00,
2013-09-19 16:16:00,100.5,41.0,29.18,SSE,150,12.8,14.7,13,-99.99,,,0.00,444,rob ver 1B,2013-09-19 23:16:00,
2013-09-19 16:17:00,100.5,40.8,29.18,SE,145,11.2,13.0,13,-99.99,,,0.00,441,rob ver 1B,2013-09-19 23:17:00,
2013-09-19 16:18:00,99.4,33.6,29.15,SSE,168,4.2,5.7,10,-99.99,,,0.00,455,rob ver 1A,2013-09-19 23:18:00,
2013-09-19 16:19:00,100.5,40.7,29.18,SSE,148,11.6,16.5,13,-99.99,,,0.00,434.3,rob ver 1B,2013-09-19 23:19:00,
2013-09-19 16:20:00,100.3,40.8,29.18,SSE,147,8.5,11.6,13,-99.99,,,0.00,431.3,rob ver 1B,2013-09-19 23:20:00,
2013-09-19 16:21:00,100.6,40.8,29.18,South,176,9.4,11.6,12,-99.99,,,0.00,427.5,rob ver 1B,2013-09-19 23:21:00,
2013-09-19 16:22:00,100.6,40.8,29.18,SSW,195,9.3,13.6,12,-99.99,,,0.00,424.9,rob ver 1B,2013-09-19 23:22:00,
2013-09-19 16:23:00,98.9,33.6,29.15,SSE,147,0.9,2.5,10,-99.99,,,0.00,435.6,rob ver 1A,2013-09-19 23:23:00,
2013-09-19 16:24:00,100.7,40.6,29.15,SSW,203,11.7,14.8,12,-99.99,,,0.00,417.7,rob ver 1B,2013-09-19 23:24:00,
2013-09-19 16:25:00,101.1,40.6,29.18,South,180,12.0,15.3,12,-99.99,,,0.00,413.2,rob ver 1B,2013-09-19 23:25:00,
2013-09-19 16:26:00,101.3,41.5,29.18,SSE,156,9.3,12.5,13,-99.99,,,0.00,409.6,rob ver 1B,2013-09-19 23:26:00,
2013-09-19 16:27:00,101.6,41.9,29.18,SSE,153,7.7,9.4,13,-99.99,,,0.00,407.6,rob ver 1B,2013-09-19 23:27:00,
2013-09-19 16:28:00,100.4,33.4,29.15,SW,229,4.6,6.0,9,-99.99,,,0.00,412.5,rob ver 1A,2013-09-19 23:28:00,
2013-09-19 16:29:00,101.6,40.6,29.18,South,176,10.2,13.8,12,-99.99,,,0.00,400,rob ver 1B,2013-09-19 23:29:00,
2013-09-19 16:30:00,101.3,40.4,29.18,South,180,6.7,10.4,12,-99.99,,,0.00,395.4,rob ver 1B,2013-09-19 23:30:00,
2013-09-19 16:31:00,101.0,40.5,29.18,SSE,161,7.3,9.2,12,-99.99,,,0.00,392.5,rob ver 1B,2013-09-19 23:31:00,
2013-09-19 16:32:00,101.0,40.5,29.18,South,189,8.4,10.8,12,-99.99,,,0.00,389,rob ver 1B,2013-09-19 23:32:00,
2013-09-19 16:33:00,101.0,40.9,29.15,South,189,8.5,14.0,13,-99.99,,,0.00,384.6,rob ver 1B,2013-09-19 23:33:00,
2013-09-19 16:34:00,99.9,33.6,29.15,South,174,4.1,6.4,10,-99.99,,,0.00,402.3,rob ver 1A,2013-09-19 23:34:00,
2013-09-19 16:35:00,101.2,41.9,29.15,SSE,164,13.4,17.2,13,-99.99,,,0.00,378.6,rob ver 1B,2013-09-19 23:35:00,
2013-09-19 16:36:00,101.2,42.0,29.18,SSE,164,13.4,15.5,13,-99.99,,,0.00,376.2,rob ver 1B,2013-09-19 23:36:00,
2013-09-19 16:37:00,101.1,42.1,29.18,SSE,166,10.5,13.7,13,-99.99,,,0.00,373.4,rob ver 1B,2013-09-19 23:37:00,
2013-09-19 16:38:00,101.1,42.1,29.15,South,169,12.7,16.7,13,-99.99,,,0.00,368.9,rob ver 1B,2013-09-19 23:38:00,
2013-09-19 16:39:00,99.3,33.1,29.15,SW,227,4.5,6.0,9,-99.99,,,0.00,379.9,rob ver 1A,2013-09-19 23:39:00,
2013-09-19 16:40:00,101.1,42.0,29.15,SSE,163,11.7,14.4,13,-99.99,,,0.00,363,rob ver 1B,2013-09-19 23:40:00,
2013-09-19 16:41:00,100.9,42.1,29.15,South,170,9.8,12.4,13,-99.99,,,0.00,358.9,rob ver 1B,2013-09-19 23:41:00,
2013-09-19 16:42:00,100.9,42.1,29.15,South,172,11.3,15.1,13,-99.99,,,0.00,355.2,rob ver 1B,2013-09-19 23:42:00,
2013-09-19 16:43:00,100.8,42.0,29.15,South,170,13.1,14.9,13,-99.99,,,0.00,351,rob ver 1B,2013-09-19 23:43:00,
2013-09-19 16:44:00,99.8,33.4,29.15,South,183,2.1,3.5,9,-99.99,,,0.00,357,rob ver 1A,2013-09-19 23:44:00,
2013-09-19 16:45:00,100.4,41.8,29.15,SSE,162,11.0,16.2,13,-99.99,,,0.00,343.7,rob ver 1B,2013-09-19 23:45:00,
2013-09-19 16:46:00,100.3,41.9,29.15,South,170,10.6,13.6,13,-99.99,,,0.00,341.1,rob ver 1B,2013-09-19 23:46:00,
2013-09-19 16:47:00,100.4,41.7,29.15,South,188,13.2,16.2,13,-99.99,,,0.00,338.8,rob ver 1B,2013-09-19 23:47:00,
2013-09-19 16:48:00,100.4,41.7,29.15,South,188,12.6,15.8,13,-99.99,,,0.00,335.1,rob ver 1B,2013-09-19 23:48:00,
2013-09-19 16:49:00,100.2,34.0,29.15,WSW,252,2.1,3.0,9,-99.99,,,0.00,339.1,rob ver 1A,2013-09-19 23:49:00,
2013-09-19 16:50:00,100.3,41.8,29.15,South,181,10.8,13.5,13,-99.99,,,0.00,328.5,rob ver 1B,2013-09-19 23:50:00,
2013-09-19 16:51:00,100.4,41.8,29.15,South,169,13.4,18.1,13,-99.99,,,0.00,325.3,rob ver 1B,2013-09-19 23:51:00,
2013-09-19 16:52:00,100.3,41.7,29.15,SSE,166,14.8,18.3,13,-99.99,,,0.00,321.5,rob ver 1B,2013-09-19 23:52:00,
2013-09-19 16:53:00,100.1,41.8,29.15,South,171,11.1,14.4,13,-99.99,,,0.00,318.3,rob ver 1B,2013-09-19 23:53:00,
2013-09-19 16:54:00,99.6,33.5,29.15,SSW,213,8.0,10.2,10,-99.99,,,0.00,321.6,rob ver 1A,2013-09-19 23:54:00,
2013-09-19 16:55:00,100.2,41.7,29.15,South,170,8.3,10.7,13,-99.99,,,0.00,311.2,rob ver 1B,2013-09-19 23:55:00,
2013-09-19 16:56:00,100.3,41.8,29.15,South,180,10.7,13.0,13,-99.99,,,0.00,308.1,rob ver 1B,2013-09-19 23:56:00,
2013-09-19 16:57:00,100.3,41.7,29.15,South,181,7.2,11.2,13,-99.99,,,0.00,303.8,rob ver 1B,2013-09-19 23:57:00,
2013-09-19 16:58:00,100.5,41.6,29.15,South,176,10.4,13.1,13,-99.99,,,0.00,301.5,rob ver 1B,2013-09-19 23:58:00,
2013-09-19 16:59:00,99.3,33.6,29.15,SW,236,2.6,4.0,10,-99.99,,,0.00,302.3,rob ver 1A,2013-09-19 23:59:00,
2013-09-19 17:00:00,100.5,40.4,29.15,South,189,14.1,16.8,12,-99.99,,,0.00,295.8,rob ver 1B,2013-09-20 00:00:00,
2013-09-19 17:01:00,100.3,40.6,29.15,South,177,12.6,17.0,13,-99.99,,,0.00,291.5,rob ver 1B,2013-09-20 00:01:00,
2013-09-19 17:02:00,100.4,40.6,29.15,South,180,13.7,17.2,12,-99.99,,,0.00,288,rob ver 1B,2013-09-20 00:02:00,
2013-09-19 17:03:00,100.4,40.5,29.15,South,177,12.1,15.5,12,-99.99,,,0.00,284.9,rob ver 1B,2013-09-20 00:03:00,
2013-09-19 17:04:00,99.5,33.6,29.15,WSW,255,3.2,4.3,10,-99.99,,,0.00,284.9,rob ver 1A,2013-09-20 00:04:00,
2013-09-19 17:05:00,100.6,40.0,29.15,South,177,11.6,13.8,12,-99.99,,,0.00,277.5,rob ver 1B,2013-09-20 00:05:00,
2013-09-19 17:06:00,100.6,40.0,29.15,South,186,14.2,22.5,12,-99.99,,,0.00,273.8,rob ver 1B,2013-09-20 00:06:00,
2013-09-19 17:07:00,100.5,40.1,29.15,SSE,151,15.0,17.9,12,-99.99,,,0.00,270.9,rob ver 1B,2013-09-20 00:07:00,
2013-09-19 17:08:00,100.2,40.2,29.15,SSE,148,11.6,14.2,12,-99.99,,,0.00,267.9,rob ver 1B,2013-09-20 00:08:00,
2013-09-19 17:09:00,99.8,33.4,29.15,SSW,213,2.4,3.7,9,-99.99,,,0.00,267.2,rob ver 1A,2013-09-20 00:09:00,
2013-09-19 17:10:00,99.9,39.8,29.15,SSE,160,13.7,17.5,12,-99.99,,,0.00,261.2,rob ver 1B,2013-09-20 00:10:00,
2013-09-19 17:11:00,99.9,39.5,29.15,South,170,13.1,17.5,12,-99.99,,,0.00,257.7,rob ver 1B,2013-09-20 00:11:00,
2013-09-19 17:12:00,100.0,38.8,29.15,South,169,14.6,17.2,12,-99.99,,,0.00,254.7,rob ver 1B,2013-09-20 00:12:00,
2013-09-19 17:13:00,99.9,38.7,29.15,SSE,155,15.4,18.7,12,-99.99,,,0.00,251.9,rob ver 1B,2013-09-20 00:13:00,
2013-09-19 17:14:00,99.9,38.6,29.15,SSE,154,13.1,16.4,12,-99.99,,,0.00,248.5,rob ver 1B,2013-09-20 00:14:00,
2013-09-19 17:15:00,99.7,33.6,29.15,South,191,6.0,7.2,10,-99.99,,,0.00,249.1,rob ver 1A,2013-09-20 00:15:00,
2013-09-19 17:16:00,100.0,38.1,29.15,South,171,14.9,17.4,11,-99.99,,,0.00,242,rob ver 1B,2013-09-20 00:16:00,
2013-09-19 17:17:00,99.9,38.1,29.15,South,169,14.4,17.9,11,-99.99,,,0.00,238.4,rob ver 1B,2013-09-20 00:17:00,
2013-09-19 17:18:00,99.8,37.8,29.15,South,172,14.4,17.2,11,-99.99,,,0.00,235.5,rob ver 1B,2013-09-20 00:18:00,
2013-09-19 17:19:00,99.8,38.1,29.15,South,171,10.9,15.6,12,-99.99,,,0.00,232,rob ver 1B,2013-09-20 00:19:00,
2013-09-19 17:20:00,99.7,33.8,29.15,SSW,196,5.8,8.4,10,-99.99,,,0.00,232,rob ver 1A,2013-09-20 00:20:00,
2013-09-19 17:21:00,100.3,37.7,29.15,South,177,14.0,16.3,11,-99.99,,,0.00,224.9,rob ver 1B,2013-09-20 00:21:00,
2013-09-19 17:22:00,100.2,37.8,29.15,SSE,163,12.9,16.0,11,-99.99,,,0.00,221.8,rob ver 1B,2013-09-20 00:22:00,
2013-09-19 17:23:00,100.0,37.7,29.15,SSE,166,11.9,14.1,11,-99.99,,,0.00,218.2,rob ver 1B,2013-09-20 00:23:00,
2013-09-19 17:24:00,99.9,37.8,29.15,South,173,12.5,14.4,11,-99.99,,,0.00,215.5,rob ver 1B,2013-09-20 00:24:00,
2013-09-19 17:25:00,99.3,34.3,29.15,SSE,151,3.2,4.5,10,-99.99,,,0.00,210.2,rob ver 1A,2013-09-20 00:25:00,
2013-09-19 17:26:00,99.9,38.1,29.15,South,178,13.3,15.6,11,-99.99,,,0.00,208.4,rob ver 1B,2013-09-20 00:26:00,
2013-09-19 17:27:00,99.8,38.2,29.15,SSE,160,11.4,13.0,12,-99.99,,,0.00,204.5,rob ver 1B,2013-09-20 00:27:00,
2013-09-19 17:28:00,99.7,38.4,29.15,SSE,155,10.9,13.1,12,-99.99,,,0.00,201.2,rob ver 1B,2013-09-20 00:28:00,
2013-09-19 17:29:00,99.5,38.6,29.15,SSE,166,13.4,15.6,12,-99.99,,,0.00,198.1,rob ver 1B,2013-09-20 00:29:00,
2013-09-19 17:30:00,99.6,35.0,29.15,SSW,209,4.3,5.7,10,-99.99,,,0.00,193.1,rob ver 1A,2013-09-20 00:30:00,
2013-09-19 17:31:00,99.5,38.1,29.15,South,184,13.4,17.1,11,-99.99,,,0.00,191.5,rob ver 1B,2013-09-20 00:31:00,
2013-09-19 17:32:00,99.5,37.8,29.15,South,178,13.5,16.1,11,-99.99,,,0.00,188.2,rob ver 1B,2013-09-20 00:32:00,
2013-09-19 17:33:00,99.5,37.8,29.15,South,181,14.1,15.9,11,-99.99,,,0.00,184.9,rob ver 1B,2013-09-20 00:33:00,
2013-09-19 17:34:00,99.5,37.7,29.15,South,181,13.4,16.1,11,-99.99,,,0.00,181.9,rob ver 1B,2013-09-20 00:34:00,
2013-09-19 17:35:00,99.0,35.9,29.15,WSW,244,4.2,5.7,11,-99.99,,,0.00,175.8,rob ver 1A,2013-09-20 00:35:00,
2013-09-19 17:36:00,99.6,37.7,29.15,South,180,12.0,15.7,11,-99.99,,,0.00,175.3,rob ver 1B,2013-09-20 00:36:00,
2013-09-19 17:37:00,99.5,37.8,29.15,South,172,11.8,15.8,11,-99.99,,,0.00,171.7,rob ver 1B,2013-09-20 00:37:00,
2013-09-19 17:38:00,99.5,37.7,29.15,South,183,11.3,15.3,11,-99.99,,,0.00,168.7,rob ver 1B,2013-09-20 00:38:00,
2013-09-19 17:39:00,99.6,37.5,29.15,South,179,12.6,15.5,11,-99.99,,,0.00,165.4,rob ver 1B,2013-09-20 00:39:00,
2013-09-19 17:40:00,99.1,35.5,29.15,West,268,3.5,4.7,10,-99.99,,,0.00,159.3,rob ver 1A,2013-09-20 00:40:00,
2013-09-19 17:41:00,99.3,37.1,29.15,South,178,9.6,12.8,11,-99.99,,,0.00,158.8,rob ver 1B,2013-09-20 00:41:00,
2013-09-19 17:42:00,99.3,37.1,29.15,SSW,192,10.2,13.3,11,-99.99,,,0.00,155.9,rob ver 1B,2013-09-20 00:42:00,
2013-09-19 17:43:00,99.4,37.2,29.15,South,184,10.7,13.3,11,-99.99,,,0.00,152.2,rob ver 1B,2013-09-20 00:43:00,
2013-09-19 17:44:00,99.4,37.2,29.15,South,179,11.5,13.6,11,-99.99,,,0.00,149.1,rob ver 1B,2013-09-20 00:44:00,
2013-09-19 17:45:00,99.0,35.4,29.15,SW,231,5.4,7.0,11,-99.99,,,0.00,146.8,rob ver 1A,2013-09-20 00:45:00,
2013-09-19 17:46:00,99.4,36.9,29.15,South,170,10.5,13.1,11,-99.99,,,0.00,142.7,rob ver 1B,2013-09-20 00:46:00,
2013-09-19 17:47:00,99.4,36.9,29.15,SSE,166,12.2,15.4,11,-99.99,,,0.00,139.7,rob ver 1B,2013-09-20 00:47:00,
2013-09-19 17:48:00,99.2,37.0,29.15,SSE,167,12.1,14.9,11,-99.99,,,0.00,137.1,rob ver 1B,2013-09-20 00:48:00,
2013-09-19 17:49:00,99.1,36.9,29.15,South,171,12.6,14.8,11,-99.99,,,0.00,133.8,rob ver 1B,2013-09-20 00:49:00,
2013-09-19 17:50:00,98.8,35.6,29.15,SW,233,6.6,8.9,11,-99.99,,,0.00,131.1,rob ver 1A,2013-09-20 00:50:00,
2013-09-19 17:51:00,99.0,36.9,29.15,South,171,12.2,14.6,11,-99.99,,,0.00,127.5,rob ver 1B,2013-09-20 00:51:00,
2013-09-19 17:52:00,98.9,36.4,29.15,South,179,13.9,15.4,11,-99.99,,,0.00,124.2,rob ver 1B,2013-09-20 00:52:00,
2013-09-19 17:53:00,98.9,36.3,29.15,South,176,11.9,13.6,11,-99.99,,,0.00,121.3,rob ver 1B,2013-09-20 00:53:00,
2013-09-19 17:54:00,98.9,36.3,29.15,South,180,11.2,13.1,11,-99.99,,,0.00,118.6,rob ver 1B,2013-09-20 00:54:00,
2013-09-19 17:55:00,98.7,36.0,29.15,West,262,6.5,8.0,11,-99.99,,,0.00,112.7,rob ver 1A,2013-09-20 00:55:00,
2013-09-19 17:56:00,98.9,36.1,29.15,South,174,13.6,16.5,11,-99.99,,,0.00,112.7,rob ver 1B,2013-09-20 00:56:00,
2013-09-19 17:57:00,98.8,36.2,29.15,South,171,12.2,14.9,11,-99.99,,,0.00,109.4,rob ver 1B,2013-09-20 00:57:00,
2013-09-19 17:58:00,98.7,36.2,29.15,South,178,12.6,14.7,11,-99.99,,,0.00,106.4,rob ver 1B,2013-09-20 00:58:00,
2013-09-19 17:59:00,98.7,36.2,29.15,South,180,11.9,15.3,11,-99.99,,,0.00,103.5,rob ver 1B,2013-09-20 00:59:00,
2013-09-19 18:00:00,98.7,36.2,29.15,South,178,12.8,14.8,11,-99.99,,,0.00,100.3,rob ver 1B,2013-09-20 01:00:00,
2013-09-19 18:01:00,98.5,36.0,29.15,West,264,5.9,7.0,11,-99.99,,,0.00,99.5,rob ver 1A,2013-09-20 01:01:00,
2013-09-19 18:02:00,98.5,36.4,29.15,South,173,11.6,14.1,11,-99.99,,,0.00,94.9,rob ver 1B,2013-09-20 01:02:00,
2013-09-19 18:03:00,98.4,36.4,29.15,South,173,11.3,13.3,11,-99.99,,,0.00,91.8,rob ver 1B,2013-09-20 01:03:00,
2013-09-19 18:04:00,98.4,36.4,29.15,South,175,10.4,12.0,11,-99.99,,,0.00,89,rob ver 1B,2013-09-20 01:04:00,
2013-09-19 18:05:00,98.4,36.6,29.15,South,171,10.3,12.8,11,-99.99,,,0.00,86.3,rob ver 1B,2013-09-20 01:05:00,
2013-09-19 18:06:00,98.2,35.4,29.15,WSW,256,5.5,6.2,11,-99.99,,,0.00,78.1,rob ver 1A,2013-09-20 01:06:00,
2013-09-19 18:07:00,98.2,36.6,29.15,SSE,167,12.2,14.6,11,-99.99,,,0.00,80.4,rob ver 1B,2013-09-20 01:07:00,
2013-09-19 18:08:00,98.2,36.6,29.15,South,174,11.8,14.2,11,-99.99,,,0.00,77.8,rob ver 1B,2013-09-20 01:08:00,
2013-09-19 18:09:00,98.1,36.6,29.15,South,171,11.7,14.7,11,-99.99,,,0.00,75.1,rob ver 1B,2013-09-20 01:09:00,
2013-09-19 18:10:00,98.0,36.8,29.15,South,173,11.3,13.6,12,-99.99,,,0.00,72.5,rob ver 1B,2013-09-20 01:10:00,
2013-09-19 18:11:00,98.3,35.3,29.15,West,265,6.8,8.7,11,-99.99,,,0.00,72.5,rob ver 1A,2013-09-20 01:11:00,
2013-09-19 18:12:00,97.9,36.9,29.15,South,170,10.5,12.4,12,-99.99,,,0.00,66.4,rob ver 1B,2013-09-20 01:12:00,
2013-09-19 18:13:00,97.8,36.9,29.15,SSE,164,11.1,13.2,12,-99.99,,,0.00,63.27,rob ver 1B,2013-09-20 01:13:00,
2013-09-19 18:14:00,97.7,37.0,29.15,South,178,9.6,11.8,12,-99.99,,,0.00,60.63,rob ver 1B,2013-09-20 01:14:00,
2013-09-19 18:15:00,97.7,37.1,29.15,South,178,11.1,14.4,12,-99.99,,,0.00,57.5,rob ver 1B,2013-09-20 01:15:00,
2013-09-19 18:16:00,98.0,34.9,29.15,West,261,5.5,6.7,11,-99.99,,,0.00,55.36,rob ver 1A,2013-09-20 01:16:00,
2013-09-19 18:17:00,97.5,38.0,29.15,South,173,13.0,15.1,12,-99.99,,,0.00,51.73,rob ver 1B,2013-09-20 01:17:00,
2013-09-19 18:18:00,97.4,38.6,29.15,SSE,167,13.4,16.2,13,-99.99,,,0.00,48.77,rob ver 1B,2013-09-20 01:18:00,
2013-09-19 18:19:00,97.2,38.7,29.15,SSE,168,12.3,15.0,13,-99.99,,,0.00,45.8,rob ver 1B,2013-09-20 01:19:00,
2013-09-19 18:20:00,97.2,38.8,29.15,South,172,11.4,15.6,13,-99.99,,,0.00,42.84,rob ver 1B,2013-09-20 01:20:00,
2013-09-19 18:21:00,97.6,35.0,29.15,WSW,258,5.2,6.2,11,-99.99,,,0.00,35.75,rob ver 1A,2013-09-20 01:21:00,
2013-09-19 18:22:00,97.0,39.0,29.15,South,173,11.5,14.8,13,-99.99,,,0.00,37.56,rob ver 1B,2013-09-20 01:22:00,
2013-09-19 18:23:00,96.9,39.3,29.15,South,170,12.0,14.9,13,-99.99,,,0.00,34.93,rob ver 1B,2013-09-20 01:23:00,
2013-09-19 18:24:00,96.8,39.4,29.15,South,173,11.1,13.7,13,-99.99,,,0.00,31.63,rob ver 1B,2013-09-20 01:24:00,
2013-09-19 18:25:00,96.7,39.6,29.15,SSE,167,9.7,12.0,13,-99.99,,,0.00,28.67,rob ver 1B,2013-09-20 01:25:00,
2013-09-19 18:26:00,97.3,34.9,29.15,WSW,242,4.6,5.5,11,-99.99,,,0.00,23.07,rob ver 1A,2013-09-20 01:26:00,
2013-09-19 18:27:00,96.6,39.6,29.15,South,172,10.1,11.5,14,-99.99,,,0.00,23.07,rob ver 1B,2013-09-20 01:27:00,
2013-09-19 18:28:00,96.5,39.6,29.15,South,176,10.6,13.1,14,-99.99,,,0.00,20.43,rob ver 1B,2013-09-20 01:28:00,
2013-09-19 18:29:00,96.5,39.6,29.15,South,174,10.6,12.6,14,-99.99,,,0.00,17.63,rob ver 1B,2013-09-20 01:29:00,
2013-09-19 18:30:00,96.4,39.7,29.15,South,171,9.8,12.0,14,-99.99,,,0.00,14.99,rob ver 1B,2013-09-20 01:30:00,
2013-09-19 18:31:00,96.9,35.0,29.15,WSW,241,4.3,5.4,11,-99.99,,,0.00,12.85,rob ver 1A,2013-09-20 01:31:00,
2013-09-19 18:32:00,96.2,39.9,29.15,South,172,8.8,11.3,14,-99.99,,,0.00,10.54,rob ver 1B,2013-09-20 01:32:00,
2013-09-19 18:33:00,96.2,39.9,29.15,South,178,8.8,9.9,14,-99.99,,,0.00,8.57,rob ver 1B,2013-09-20 01:33:00,
2013-09-19 18:34:00,96.1,40.0,29.15,South,176,8.8,11.0,14,-99.99,,,0.00,6.92,rob ver 1B,2013-09-20 01:34:00,
2013-09-19 18:36:00,95.9,40.1,29.15,South,176,8.6,10.9,14,-99.99,,,0.00,5.602,rob ver 1B,2013-09-20 01:36:00,
2013-09-19 18:37:00,95.8,40.4,29.15,South,176,10.1,13.1,14,-99.99,,,0.00,5.108,rob ver 1B,2013-09-20 01:37:00,
2013-09-19 18:38:00,96.3,35.1,29.15,WSW,239,3.6,4.5,11,-99.99,,,0.00,5.272,rob ver 1A,2013-09-20 01:38:00,
2013-09-19 18:39:00,95.6,40.8,29.15,South,178,10.0,12.2,15,-99.99,,,0.00,4.284,rob ver 1B,2013-09-20 01:39:00,
2013-09-19 18:40:00,95.6,41.0,29.15,South,174,9.7,11.9,15,-99.99,,,0.00,3.625,rob ver 1B,2013-09-20 01:40:00,
2013-09-19 18:41:00,95.5,41.0,29.15,South,171,8.8,11.6,15,-99.99,,,0.00,3.625,rob ver 1B,2013-09-20 01:41:00,
2013-09-19 18:42:00,95.4,41.2,29.15,South,173,9.3,12.3,15,-99.99,,,0.00,3.295,rob ver 1B,2013-09-20 01:42:00,
2013-09-19 18:43:00,95.9,35.0,29.15,WSW,258,3.3,3.7,12,-99.99,,,0.00,3.295,rob ver 1A,2013-09-20 01:43:00,
2013-09-19 18:44:00,95.3,41.3,29.15,South,171,8.9,11.4,15,-99.99,,,0.00,2.471,rob ver 1B,2013-09-20 01:44:00,
2013-09-19 18:45:00,95.3,41.4,29.15,South,172,8.8,11.2,15,-99.99,,,0.00,2.307,rob ver 1B,2013-09-20 01:45:00,
2013-09-19 18:46:00,95.2,41.7,29.15,South,171,8.2,10.2,15,-99.99,,,0.00,1.977,rob ver 1B,2013-09-20 01:46:00,
2013-09-19 18:47:00,95.1,42.0,29.15,South,172,8.8,10.4,16,-99.99,,,0.00,1.483,rob ver 1B,2013-09-20 01:47:00,
2013-09-19 18:48:00,95.2,36.1,29.15,WSW,241,3.1,3.6,12,-99.99,,,0.00,1.318,rob ver 1A,2013-09-20 01:48:00,
2013-09-19 18:49:00,94.9,42.6,29.15,South,172,7.3,8.9,16,-99.99,,,0.00,1.318,rob ver 1B,2013-09-20 01:49:00,
2013-09-19 18:50:00,94.9,42.7,29.15,South,171,6.9,9.2,16,-99.99,,,0.00,.824,rob ver 1B,2013-09-20 01:50:00,
2013-09-19 18:51:00,94.8,42.6,29.15,South,172,8.3,11.9,16,-99.99,,,0.00,.659,rob ver 1B,2013-09-20 01:51:00,
2013-09-19 18:52:00,94.8,42.6,29.15,South,171,8.1,9.9,16,-99.99,,,0.00,.659,rob ver 1B,2013-09-20 01:52:00,
2013-09-19 18:53:00,94.7,36.0,29.15,WSW,254,3.0,4.0,12,-99.99,,,0.00,.659,rob ver 1A,2013-09-20 01:53:00,
2013-09-19 18:54:00,94.7,42.4,29.15,South,172,8.2,9.5,16,-99.99,,,0.00,.494,rob ver 1B,2013-09-20 01:54:00,
2013-09-19 18:55:00,94.7,42.6,29.15,South,173,7.1,8.7,16,-99.99,,,0.00,.33,rob ver 1B,2013-09-20 01:55:00,
2013-09-19 18:56:00,94.6,42.5,29.15,South,173,7.4,9.5,16,-99.99,,,0.00,0,rob ver 1B,2013-09-20 01:56:00,
2013-09-19 18:57:00,94.5,42.3,29.15,South,172,7.8,9.4,16,-99.99,,,0.00,0,rob ver 1B,2013-09-20 01:57:00,
2013-09-19 18:58:00,94.3,36.5,29.15,West,275,1.8,2.4,13,-99.99,,,0.00,0,rob ver 1A,2013-09-20 01:58:00,
2013-09-19 18:59:00,94.4,42.3,29.15,South,171,7.2,8.7,16,-99.99,,,0.00,0,rob ver 1B,2013-09-20 01:59:00,
2013-09-19 19:00:00,94.3,42.3,29.15,South,171,7.7,11.3,16,-99.99,,,0.00,0,rob ver 1B,2013-09-20 02:00:00,
2013-09-19 19:01:00,94.3,42.1,29.15,South,171,8.0,11.0,16,-99.99,,,0.00,0,rob ver 1B,2013-09-20 02:01:00,
2013-09-19 19:02:00,94.3,42.2,29.15,South,170,8.0,10.3,16,-99.99,,,0.00,0,rob ver 1B,2013-09-20 02:02:00,
2013-09-19 19:03:00,93.8,36.1,29.15,WSW,248,2.3,3.0,13,-99.99,,,0.00,0,rob ver 1A,2013-09-20 02:03:00,
2013-09-19 19:04:00,94.3,42.3,29.18,SSE,165,7.4,9.2,16,-99.99,,,0.00,0,rob ver 1B,2013-09-20 02:04:00,
2013-09-19 19:05:00,94.2,42.5,29.18,SSE,165,6.8,9.1,16,-99.99,,,0.00,0,rob ver 1B,2013-09-20 02:05:00,
2013-09-19 19:06:00,94.1,42.5,29.15,SSE,165,7.4,9.1,16,-99.99,,,0.00,0,rob ver 1B,2013-09-20 02:06:00,
2013-09-19 19:07:00,94.1,42.5,29.18,SSE,164,7.7,8.8,16,-99.99,,,0.00,0,rob ver 1B,2013-09-20 02:07:00,
2013-09-19 19:08:00,94.0,42.5,29.18,SSE,166,7.7,9.3,16,-99.99,,,0.00,0,rob ver 1B,2013-09-20 02:08:00,
2013-09-19 19:09:00,93.5,36.1,29.15,SW,215,2.3,2.8,13,-99.99,,,0.00,0,rob ver 1A,2013-09-20 02:09:00,
2013-09-19 19:10:00,93.9,42.6,29.18,SSE,165,7.3,8.8,17,-99.99,,,0.00,0,rob ver 1B,2013-09-20 02:10:00,
2013-09-19 19:11:00,93.8,42.7,29.18,SSE,165,7.6,9.3,17,-99.99,,,0.00,0,rob ver 1B,2013-09-20 02:11:00,
2013-09-19 19:12:00,93.8,42.7,29.18,SSE,162,7.2,9.1,17,-99.99,,,0.00,0,rob ver 1B,2013-09-20 02:12:00,
2013-09-19 19:13:00,93.7,42.7,29.18,SSE,164,8.5,10.2,17,-99.99,,,0.00,0,rob ver 1B,2013-09-20 02:13:00,
2013-09-19 19:14:00,93.3,36.1,29.15,SW,220,2.1,2.4,13,-99.99,,,0.00,0,rob ver 1A,2013-09-20 02:14:00,
2013-09-19 19:15:00,93.7,42.9,29.18,SSE,165,8.7,12.6,17,-99.99,,,0.00,0,rob ver 1B,2013-09-20 02:15:00,
2013-09-19 19:16:00,93.7,43.0,29.18,SSE,167,11.3,13.2,17,-99.99,,,0.00,0,rob ver 1B,2013-09-20 02:16:00,
2013-09-19 19:17:00,93.7,43.2,29.18,SSE,168,10.5,12.6,17,-99.99,,,0.00,0,rob ver 1B,2013-09-20 02:17:00,
2013-09-19 19:18:00,93.7,43.3,29.18,SSE,168,9.2,11.0,17,-99.99,,,0.00,0,rob ver 1B,2013-09-20 02:18:00,
2013-09-19 19:19:00,92.8,35.9,29.15,SSW,204,2.2,2.6,13,-99.99,,,0.00,0,rob ver 1A,2013-09-20 02:19:00,
2013-09-19 19:20:00,93.5,43.8,29.18,SSE,168,8.9,10.9,18,-99.99,,,0.00,0,rob ver 1B,2013-09-20 02:20:00,
2013-09-19 19:21:00,93.5,44.0,29.18,SSE,168,8.5,11.3,18,-99.99,,,0.00,0,rob ver 1B,2013-09-20 02:21:00,
2013-09-19 19:22:00,93.4,44.2,29.18,South,169,8.8,10.6,18,-99.99,,,0.00,0,rob ver 1B,2013-09-20 02:22:00,
2013-09-19 19:23:00,93.3,44.4,29.18,South,169,8.0,8.9,18,-99.99,,,0.00,0,rob ver 1B,2013-09-20 02:23:00,
2013-09-19 19:24:00,92.5,35.8,29.15,SSW,212,2.7,4.1,13,-99.99,,,0.00,0,rob ver 1A,2013-09-20 02:24:00,
2013-09-19 19:25:00,93.2,44.9,29.18,SSE,168,9.4,11.0,19,-99.99,,,0.00,0,rob ver 1B,2013-09-20 02:25:00,
2013-09-19 19:26:00,93.1,45.1,29.18,SSE,168,8.7,10.6,19,-99.99,,,0.00,0,rob ver 1B,2013-09-20 02:26:00,
2013-09-19 19:27:00,93.1,45.4,29.18,SSE,167,8.8,10.2,19,-99.99,,,0.00,0,rob ver 1B,2013-09-20 02:27:00,
2013-09-19 19:28:00,93.0,45.6,29.18,SSE,168,8.6,9.9,19,-99.99,,,0.00,0,rob ver 1B,2013-09-20 02:28:00,
2013-09-19 19:29:00,92.5,35.3,29.15,SW,217,5.6,6.5,13,-99.99,,,0.00,0,rob ver 1A,2013-09-20 02:29:00,
2013-09-19 19:30:00,92.9,46.1,29.18,SSE,166,9.3,11.1,20,-99.99,,,0.00,0,rob ver 1B,2013-09-20 02:30:00,
2013-09-19 19:31:00,92.9,46.3,29.18,South,169,9.7,11.4,20,-99.99,,,0.00,0,rob ver 1B,2013-09-20 02:31:00,
2013-09-19 19:32:00,92.9,46.5,29.18,SSE,165,9.2,11.3,20,-99.99,,,0.00,0,rob ver 1B,2013-09-20 02:32:00,
2013-09-19 19:33:00,92.9,46.6,29.18,SSE,168,8.9,11.2,20,-99.99,,,0.00,0,rob ver 1B,2013-09-20 02:33:00,
2013-09-19 19:34:00,92.3,35.9,29.15,SSW,202,5.3,6.1,13,-99.99,,,0.00,0,rob ver 1A,2013-09-20 02:34:00,
2013-09-19 19:35:00,92.8,47.0,29.18,SSE,166,9.6,11.7,20,-99.99,,,0.00,0,rob ver 1B,2013-09-20 02:35:00,
2013-09-19 19:36:00,92.8,47.2,29.18,South,169,9.0,10.7,21,-99.99,,,0.00,0,rob ver 1B,2013-09-20 02:36:00,
2013-09-19 19:37:00,92.7,47.2,29.18,SSE,167,7.8,9.6,21,-99.99,,,0.00,0,rob ver 1B,2013-09-20 02:37:00,
2013-09-19 19:38:00,92.6,47.3,29.18,South,169,7.2,9.3,21,-99.99,,,0.00,0,rob ver 1B,2013-09-20 02:38:00,
2013-09-19 19:39:00,91.8,36.6,29.15,SSW,198,4.9,5.9,14,-99.99,,,0.00,0,rob ver 1A,2013-09-20 02:39:00,
2013-09-19 19:40:00,92.4,47.3,29.18,SSE,163,7.0,8.4,21,-99.99,,,0.00,0,rob ver 1B,2013-09-20 02:40:00,
2013-09-19 19:41:00,92.3,47.4,29.18,SSE,163,7.2,8.8,21,-99.99,,,0.00,0,rob ver 1B,2013-09-20 02:41:00,
2013-09-19 19:42:00,92.2,47.5,29.18,SSE,161,7.3,10.2,21,-99.99,,,0.00,0,rob ver 1B,2013-09-20 02:42:00,
2013-09-19 19:43:00,92.2,47.6,29.18,SSE,159,6.7,7.6,21,-99.99,,,0.00,0,rob ver 1B,2013-09-20 02:43:00,
2013-09-19 19:44:00,91.3,37.4,29.15,SSW,193,4.0,5.3,15,-99.99,,,0.00,0,rob ver 1A,2013-09-20 02:44:00,
2013-09-19 19:45:00,92.0,47.8,29.18,SSE,157,6.7,7.8,22,-99.99,,,0.00,0,rob ver 1B,2013-09-20 02:45:00,
2013-09-19 19:46:00,92.0,47.9,29.18,SSE,156,6.3,7.6,22,-99.99,,,0.00,0,rob ver 1B,2013-09-20 02:46:00,
2013-09-19 19:47:00,91.8,47.9,29.18,SSE,156,6.0,7.6,22,-99.99,,,0.00,0,rob ver 1B,2013-09-20 02:47:00,
2013-09-19 19:48:00,91.8,48.1,29.18,SSE,153,6.5,8.0,22,-99.99,,,0.00,0,rob ver 1B,2013-09-20 02:48:00,
2013-09-19 19:49:00,91.7,48.2,29.18,SSE,151,6.9,8.0,22,-99.99,,,0.00,0,rob ver 1B,2013-09-20 02:49:00,
2013-09-19 19:50:00,91.0,37.5,29.15,SSW,199,5.5,6.5,15,-99.99,,,0.00,0,rob ver 1A,2013-09-20 02:50:00,
2013-09-19 19:51:00,91.6,48.2,29.18,SSE,161,6.5,7.5,22,-99.99,,,0.00,0,rob ver 1B,2013-09-20 02:51:00,
2013-09-19 19:52:00,91.5,48.2,29.18,SSE,162,5.7,6.7,22,-99.99,,,0.00,0,rob ver 1B,2013-09-20 02:52:00,
2013-09-19 19:53:00,91.4,48.2,29.18,SSE,165,5.6,6.5,22,-99.99,,,0.00,0,rob ver 1B,2013-09-20 02:53:00,
2013-09-19 19:54:00,91.3,48.2,29.18,SSE,163,5.8,8.7,22,-99.99,,,0.00,0,rob ver 1B,2013-09-20 02:54:00,
2013-09-19 19:55:00,90.9,37.7,29.15,SSW,206,3.8,4.8,15,-99.99,,,0.00,0,rob ver 1A,2013-09-20 02:55:00,
2013-09-19 19:56:00,91.3,48.3,29.18,South,172,5.0,6.0,23,-99.99,,,0.00,0,rob ver 1B,2013-09-20 02:56:00,
2013-09-19 19:57:00,91.2,48.4,29.18,South,172,4.7,5.6,23,-99.99,,,0.00,0,rob ver 1B,2013-09-20 02:57:00,
2013-09-19 19:58:00,91.1,48.5,29.18,South,170,4.9,5.9,23,-99.99,,,0.00,0,rob ver 1B,2013-09-20 02:58:00,
2013-09-19 19:59:00,91.0,48.6,29.18,South,169,4.8,6.4,23,-99.99,,,0.00,0,rob ver 1B,2013-09-20 02:59:00,
2013-09-19 20:00:00,90.6,39.3,29.15,WSW,243,1.8,2.9,16,-99.99,,,0.00,0,rob ver 1A,2013-09-20 03:00:00,
2013-09-19 20:01:00,90.8,48.7,29.18,SSE,160,4.9,6.1,23,-99.99,,,0.00,0,rob ver 1B,2013-09-20 03:01:00,
2013-09-19 20:02:00,90.7,48.5,29.18,SSE,155,5.6,6.6,23,-99.99,,,0.00,0,rob ver 1B,2013-09-20 03:02:00,
2013-09-19 20:03:00,90.6,48.6,29.18,SSE,155,5.9,8.0,23,-99.99,,,0.00,0,rob ver 1B,2013-09-20 03:03:00,
2013-09-19 20:04:00,90.6,48.5,29.18,SSE,161,5.7,7.0,23,-99.99,,,0.00,0,rob ver 1B,2013-09-20 03:04:00,
2013-09-19 20:05:00,90.2,39.8,29.15,WSW,247,3.1,4.0,17,-99.99,,,0.00,0,rob ver 1A,2013-09-20 03:05:00,
2013-09-19 20:06:00,90.6,48.6,29.18,SSE,168,5.0,6.2,23,-99.99,,,0.00,0,rob ver 1B,2013-09-20 03:06:00,
2013-09-19 20:07:00,90.5,48.6,29.18,South,169,5.8,8.3,23,-99.99,,,0.00,0,rob ver 1B,2013-09-20 03:07:00,
2013-09-19 20:08:00,90.5,48.6,29.18,South,173,6.0,7.0,23,-99.99,,,0.00,0,rob ver 1B,2013-09-20 03:08:00,
2013-09-19 20:09:00,90.4,48.6,29.18,South,172,6.4,8.3,23,-99.99,,,0.00,0,rob ver 1B,2013-09-20 03:09:00,
2013-09-19 20:10:00,89.9,39.6,29.15,SW,229,4.1,5.1,17,-99.99,,,0.00,0,rob ver 1A,2013-09-20 03:10:00,
2013-09-19 20:11:00,90.5,48.6,29.18,South,176,7.1,8.5,23,-99.99,,,0.00,0,rob ver 1B,2013-09-20 03:11:00,
2013-09-19 20:12:00,90.4,48.6,29.18,South,175,7.3,8.9,23,-99.99,,,0.00,0,rob ver 1B,2013-09-20 03:12:00,
2013-09-19 20:13:00,90.4,48.7,29.18,South,177,5.9,7.2,23,-99.99,,,0.00,0,rob ver 1B,2013-09-20 03:13:00,
2013-09-19 20:14:00,90.4,48.7,29.21,South,176,6.0,7.9,24,-99.99,,,0.00,0,rob ver 1B,2013-09-20 03:14:00,
2013-09-19 20:15:00,89.8,39.0,29.15,SSW,200,5.4,7.0,16,-99.99,,,0.00,0,rob ver 1A,2013-09-20 03:15:00,
2013-09-19 20:16:00,90.2,48.7,29.18,South,179,6.2,7.5,24,-99.99,,,0.00,0,rob ver 1B,2013-09-20 03:16:00,
2013-09-19 20:17:00,90.1,48.8,29.18,South,178,6.8,10.4,24,-99.99,,,0.00,0,rob ver 1B,2013-09-20 03:17:00,
2013-09-19 20:18:00,90.1,48.8,29.21,South,177,6.5,9.0,24,-99.99,,,0.00,0,rob ver 1B,2013-09-20 03:18:00,
2013-09-19 20:19:00,90.0,48.8,29.21,South,179,6.3,7.1,24,-99.99,,,0.00,0,rob ver 1B,2013-09-20 03:19:00,
2013-09-19 20:20:00,90.1,39.7,29.18,WSW,252,4.3,5.5,17,-99.99,,,0.00,0,rob ver 1A,2013-09-20 03:20:00,
2013-09-19 20:21:00,89.9,48.9,29.21,South,180,6.4,8.6,24,-99.99,,,0.00,0,rob ver 1B,2013-09-20 03:21:00,
2013-09-19 20:22:00,89.9,49.0,29.21,South,178,7.7,9.5,24,-99.99,,,0.00,0,rob ver 1B,2013-09-20 03:22:00,
2013-09-19 20:23:00,89.9,49.0,29.21,South,180,6.5,8.1,24,-99.99,,,0.00,0,rob ver 1B,2013-09-20 03:23:00,
2013-09-19 20:24:00,89.8,49.1,29.21,South,176,6.8,8.3,24,-99.99,,,0.00,0,rob ver 1B,2013-09-20 03:24:00,
2013-09-19 20:25:00,89.3,40.1,29.18,SSW,205,3.8,5.4,17,-99.99,,,0.00,0,rob ver 1A,2013-09-20 03:25:00,
2013-09-19 20:26:00,89.7,49.3,29.21,South,178,7.8,9.8,25,-99.99,,,0.00,0,rob ver 1B,2013-09-20 03:26:00,
2013-09-19 20:27:00,89.7,49.3,29.21,South,176,8.7,11.1,25,-99.99,,,0.00,0,rob ver 1B,2013-09-20 03:27:00,
2013-09-19 20:28:00,89.7,49.4,29.21,South,175,7.8,10.5,25,-99.99,,,0.00,0,rob ver 1B,2013-09-20 03:28:00,
2013-09-19 20:29:00,89.7,49.4,29.21,South,179,7.1,9.3,25,-99.99,,,0.00,0,rob ver 1B,2013-09-20 03:29:00,
2013-09-19 20:30:00,89.6,40.0,29.18,SSW,194,4.7,6.0,17,-99.99,,,0.00,0,rob ver 1A,2013-09-20 03:30:00,
2013-09-19 20:31:00,89.5,49.4,29.21,South,185,6.6,8.7,25,-99.99,,,0.00,0,rob ver 1B,2013-09-20 03:31:00,
2013-09-19 20:32:00,89.5,49.5,29.21,South,186,7.2,9.3,25,-99.99,,,0.00,0,rob ver 1B,2013-09-20 03:32:00,
2013-09-19 20:33:00,89.5,49.6,29.21,South,190,6.6,8.9,25,-99.99,,,0.00,0,rob ver 1B,2013-09-20 03:33:00,
2013-09-19 20:34:00,89.4,49.7,29.21,SSW,193,6.3,9.0,25,-99.99,,,0.00,0,rob ver 1B,2013-09-20 03:34:00,
2013-09-19 20:35:00,89.6,40.3,29.18,SSW,194,4.4,6.6,17,-99.99,,,0.00,0,rob ver 1A,2013-09-20 03:35:00,
2013-09-19 20:36:00,89.3,49.9,29.21,SSW,195,7.7,8.9,26,-99.99,,,0.00,0,rob ver 1B,2013-09-20 03:36:00,
2013-09-19 20:37:00,89.2,50.1,29.21,SSW,195,7.4,8.8,26,-99.99,,,0.00,0,rob ver 1B,2013-09-20 03:37:00,
2013-09-19 20:38:00,89.1,50.2,29.21,SSW,193,8.2,11.2,26,-99.99,,,0.00,0,rob ver 1B,2013-09-20 03:38:00,
2013-09-19 20:39:00,89.1,50.2,29.21,SSW,197,6.9,8.6,26,-99.99,,,0.00,0,rob ver 1B,2013-09-20 03:39:00,
2013-09-19 20:40:00,89.0,50.4,29.21,SSW,198,7.0,8.6,26,-99.99,,,0.00,0,rob ver 1B,2013-09-20 03:40:00,
2013-09-19 20:41:00,89.4,40.8,29.18,SSW,196,3.8,4.7,18,-99.99,,,0.00,0,rob ver 1A,2013-09-20 03:41:00,
2013-09-19 20:42:00,88.8,50.6,29.21,SSW,194,7.2,9.8,27,-99.99,,,0.00,0,rob ver 1B,2013-09-20 03:42:00,
2013-09-19 20:43:00,88.8,50.7,29.21,SSW,196,7.6,9.1,27,-99.99,,,0.00,0,rob ver 1B,2013-09-20 03:43:00,
2013-09-19 20:44:00,88.7,50.7,29.21,SSW,200,7.1,8.8,27,-99.99,,,0.00,0,rob ver 1B,2013-09-20 03:44:00,
2013-09-19 20:45:00,88.6,50.7,29.21,SSW,197,6.6,7.9,27,-99.99,,,0.00,0,rob ver 1B,2013-09-20 03:45:00,
2013-09-19 20:46:00,89.1,41.6,29.18,South,182,4.3,5.2,19,-99.99,,,0.00,0,rob ver 1A,2013-09-20 03:46:00,
2013-09-19 20:47:00,88.5,50.8,29.21,South,191,8.5,10.8,27,-99.99,,,0.00,0,rob ver 1B,2013-09-20 03:47:00,
2013-09-19 20:48:00,88.5,50.8,29.21,SSW,192,7.8,9.8,27,-99.99,,,0.00,0,rob ver 1B,2013-09-20 03:48:00,
2013-09-19 20:49:00,88.5,50.9,29.21,South,191,8.5,10.6,27,-99.99,,,0.00,0,rob ver 1B,2013-09-20 03:49:00,
2013-09-19 20:50:00,88.5,51.0,29.21,South,189,8.8,11.5,27,-99.99,,,0.00,0,rob ver 1B,2013-09-20 03:50:00,
2013-09-19 20:51:00,88.6,41.8,29.18,South,181,3.7,4.7,19,-99.99,,,0.00,0,rob ver 1A,2013-09-20 03:51:00,
2013-09-19 20:52:00,88.4,51.2,29.21,South,191,8.8,11.1,28,-99.99,,,0.00,0,rob ver 1B,2013-09-20 03:52:00,
2013-09-19 20:53:00,88.4,51.3,29.21,South,185,8.7,10.4,28,-99.99,,,0.00,0,rob ver 1B,2013-09-20 03:53:00,
2013-09-19 20:54:00,88.3,51.3,29.21,South,182,9.3,12.7,28,-99.99,,,0.00,0,rob ver 1B,2013-09-20 03:54:00,
2013-09-19 20:55:00,88.4,51.4,29.21,South,183,8.8,12.5,28,-99.99,,,0.00,0,rob ver 1B,2013-09-20 03:55:00,
2013-09-19 20:56:00,88.2,42.5,29.18,South,182,3.9,4.9,20,-99.99,,,0.00,0,rob ver 1A,2013-09-20 03:56:00,
2013-09-19 20:57:00,88.3,51.5,29.21,South,181,7.9,9.6,28,-99.99,,,0.00,0,rob ver 1B,2013-09-20 03:57:00,
2013-09-19 20:58:00,88.3,51.6,29.21,South,183,8.0,10.0,28,-99.99,,,0.00,0,rob ver 1B,2013-09-20 03:58:00,
2013-09-19 20:59:00,88.2,51.7,29.21,South,180,10.3,12.7,28,-99.99,,,0.00,0,rob ver 1B,2013-09-20 03:59:00,
2013-09-19 21:00:00,88.2,51.8,29.21,South,176,9.5,11.0,28,-99.99,,,0.00,0,rob ver 1B,2013-09-20 04:00:00,
2013-09-19 21:01:00,88.0,42.9,29.18,South,183,3.6,4.3,20,-99.99,,,0.00,0,rob ver 1A,2013-09-20 04:01:00,
2013-09-19 21:02:00,88.2,51.9,29.21,South,178,9.0,10.6,28,-99.99,,,0.00,0,rob ver 1B,2013-09-20 04:02:00,
2013-09-19 21:03:00,87.9,43.1,29.18,South,189,3.1,3.8,20,-99.99,,,0.00,0,rob ver 1A,2013-09-20 04:03:00,
2013-09-19 21:04:00,88.1,52.2,29.21,South,180,8.7,10.8,29,-99.99,,,0.00,0,rob ver 1B,2013-09-20 04:04:00,
2013-09-19 21:05:00,88.0,52.3,29.21,South,178,8.9,10.9,29,-99.99,,,0.00,0,rob ver 1B,2013-09-20 04:05:00,
2013-09-19 21:06:00,88.0,52.4,29.21,South,181,9.5,11.1,29,-99.99,,,0.00,0,rob ver 1B,2013-09-20 04:06:00,
2013-09-19 21:07:00,88.0,52.5,29.21,South,181,9.1,11.0,29,-99.99,,,0.00,0,rob ver 1B,2013-09-20 04:07:00,
2013-09-19 21:08:00,87.7,43.3,29.18,South,175,3.0,3.4,21,-99.99,,,0.00,0,rob ver 1A,2013-09-20 04:08:00,
2013-09-19 21:09:00,87.9,52.8,29.21,South,179,9.0,10.9,30,-99.99,,,0.00,0,rob ver 1B,2013-09-20 04:09:00,
2013-09-19 21:10:00,87.8,52.9,29.21,South,181,9.6,12.0,30,-99.99,,,0.00,0,rob ver 1B,2013-09-20 04:10:00,
2013-09-19 21:11:00,87.8,53.1,29.21,South,185,9.0,10.7,30,-99.99,,,0.00,0,rob ver 1B,2013-09-20 04:11:00,
2013-09-19 21:12:00,87.7,53.4,29.21,South,187,8.9,11.8,31,-99.99,,,0.00,0,rob ver 1B,2013-09-20 04:12:00,
2013-09-19 21:13:00,87.5,43.6,29.18,South,173,2.7,3.1,21,-99.99,,,0.00,0,rob ver 1A,2013-09-20 04:13:00,
2013-09-19 21:14:00,87.6,53.6,29.21,South,189,10.2,12.9,31,-99.99,,,0.00,0,rob ver 1B,2013-09-20 04:14:00,
2013-09-19 21:15:00,87.6,53.7,29.21,South,183,10.4,12.6,31,-99.99,,,0.00,0,rob ver 1B,2013-09-20 04:15:00,
2013-09-19 21:16:00,87.5,53.8,29.21,South,182,9.4,11.7,31,-99.99,,,0.00,0,rob ver 1B,2013-09-20 04:16:00,
2013-09-19 21:17:00,87.5,53.9,29.21,South,182,10.1,12.4,31,-99.99,,,0.00,0,rob ver 1B,2013-09-20 04:17:00,
2013-09-19 21:18:00,87.4,43.6,29.18,South,177,1.8,2.5,21,-99.99,,,0.00,0,rob ver 1A,2013-09-20 04:18:00,
2013-09-19 21:19:00,87.4,53.9,29.21,South,180,10.1,13.1,32,-99.99,,,0.00,0,rob ver 1B,2013-09-20 04:19:00,
2013-09-19 21:20:00,87.3,54.0,29.21,South,178,10.7,14.1,32,-99.99,,,0.00,0,rob ver 1B,2013-09-20 04:20:00,
2013-09-19 21:21:00,87.3,54.1,29.21,South,178,10.6,12.7,32,-99.99,,,0.00,0,rob ver 1B,2013-09-20 04:21:00,
2013-09-19 21:22:00,87.3,54.2,29.21,South,177,12.3,15.3,32,-99.99,,,0.00,0,rob ver 1B,2013-09-20 04:22:00,
2013-09-19 21:23:00,87.2,43.8,29.18,SSW,201,0.6,1.2,22,-99.99,,,0.00,0,rob ver 1A,2013-09-20 04:23:00,
2013-09-19 21:24:00,87.2,54.2,29.21,South,175,11.2,13.1,32,-99.99,,,0.00,0,rob ver 1B,2013-09-20 04:24:00,
2013-09-19 21:25:00,87.1,54.3,29.21,South,175,11.5,14.8,32,-99.99,,,0.00,0,rob ver 1B,2013-09-20 04:25:00,
2013-09-19 21:26:00,87.1,54.2,29.21,South,174,12.0,14.0,32,-99.99,,,0.00,0,rob ver 1B,2013-09-20 04:26:00,
2013-09-19 21:27:00,87.1,54.3,29.21,South,173,10.4,12.7,32,-99.99,,,0.00,0,rob ver 1B,2013-09-20 04:27:00,
2013-09-19 21:28:00,86.9,44.3,29.18,South,178,0.5,0.9,22,-99.99,,,0.00,0,rob ver 1A,2013-09-20 04:28:00,
2013-09-19 21:29:00,86.9,54.1,29.21,South,173,10.3,13.3,32,-99.99,,,0.00,0,rob ver 1B,2013-09-20 04:29:00,
2013-09-19 21:30:00,86.9,54.1,29.21,South,174,10.4,12.5,32,-99.99,,,0.00,0,rob ver 1B,2013-09-20 04:30:00,
2013-09-19 21:31:00,86.9,54.0,29.21,South,174,10.2,11.9,32,-99.99,,,0.00,0,rob ver 1B,2013-09-20 04:31:00,
2013-09-19 21:32:00,86.9,54.1,29.21,South,172,11.8,14.7,32,-99.99,,,0.00,0,rob ver 1B,2013-09-20 04:32:00,
2013-09-19 21:33:00,86.5,44.4,29.18,SE,142,0.6,0.9,23,-99.99,,,0.00,0,rob ver 1A,2013-09-20 04:33:00,
2013-09-19 21:34:00,86.9,54.2,29.21,South,173,10.8,13.3,32,-99.99,,,0.00,0,rob ver 1B,2013-09-20 04:34:00,
2013-09-19 21:35:00,86.9,54.3,29.21,South,174,10.0,12.1,33,-99.99,,,0.00,0,rob ver 1B,2013-09-20 04:35:00,
2013-09-19 21:36:00,86.8,54.4,29.21,South,171,10.3,12.1,33,-99.99,,,0.00,0,rob ver 1B,2013-09-20 04:36:00,
2013-09-19 21:37:00,86.8,54.4,29.21,South,175,10.2,12.5,33,-99.99,,,0.00,0,rob ver 1B,2013-09-20 04:37:00,
2013-09-19 21:38:00,86.3,44.9,29.18,SE,125,0.7,1.2,23,-99.99,,,0.00,0,rob ver 1A,2013-09-20 04:38:00,
2013-09-19 21:39:00,86.6,54.4,29.21,South,172,10.2,13.0,33,-99.99,,,0.00,0,rob ver 1B,2013-09-20 04:39:00,
2013-09-19 21:40:00,86.6,54.4,29.21,South,171,9.2,11.7,33,-99.99,,,0.00,0,rob ver 1B,2013-09-20 04:40:00,
2013-09-19 21:41:00,86.6,54.4,29.21,South,172,9.9,12.4,33,-99.99,,,0.00,0,rob ver 1B,2013-09-20 04:41:00,
2013-09-19 21:42:00,86.6,54.4,29.21,South,171,9.5,12.6,33,-99.99,,,0.00,0,rob ver 1B,2013-09-20 04:42:00,
2013-09-19 21:43:00,86.5,54.5,29.21,South,174,9.6,12.2,33,-99.99,,,0.00,0,rob ver 1B,2013-09-20 04:43:00,
2013-09-19 21:44:00,86.2,45.1,29.18,ESE,111,0.7,1.0,23,-99.99,,,0.00,0,rob ver 1A,2013-09-20 04:44:00,
2013-09-19 21:45:00,86.4,54.6,29.21,South,174,10.7,13.2,33,-99.99,,,0.00,0,rob ver 1B,2013-09-20 04:45:00,
2013-09-19 21:46:00,86.4,54.7,29.21,South,175,10.7,12.7,33,-99.99,,,0.00,0,rob ver 1B,2013-09-20 04:46:00,
2013-09-19 21:47:00,86.4,54.7,29.21,South,170,9.3,11.2,34,-99.99,,,0.00,0,rob ver 1B,2013-09-20 04:47:00,
2013-09-19 21:48:00,86.3,54.7,29.21,South,172,8.9,11.0,34,-99.99,,,0.00,0,rob ver 1B,2013-09-20 04:48:00,
2013-09-19 21:49:00,86.2,45.1,29.18,ENE,73,1.0,1.3,23,-99.99,,,0.00,0,rob ver 1A,2013-09-20 04:49:00,
2013-09-19 21:50:00,86.1,54.6,29.21,SSE,166,8.2,10.9,34,-99.99,,,0.00,0,rob ver 1B,2013-09-20 04:50:00,
2013-09-19 21:51:00,86.1,54.6,29.21,SSE,164,7.5,9.0,34,-99.99,,,0.00,0,rob ver 1B,2013-09-20 04:51:00,
2013-09-19 21:52:00,86.0,54.6,29.21,SSE,168,8.2,9.9,34,-99.99,,,0.00,0,rob ver 1B,2013-09-20 04:52:00,
2013-09-19 21:53:00,86.0,54.6,29.21,SSE,168,8.1,10.6,34,-99.99,,,0.00,0,rob ver 1B,2013-09-20 04:53:00,
2013-09-19 21:54:00,86.2,45.2,29.18,ENE,78,1.5,2.3,23,-99.99,,,0.00,0,rob ver 1A,2013-09-20 04:54:00,
2013-09-19 21:55:00,85.9,54.6,29.21,SSE,166,8.0,11.3,34,-99.99,,,0.00,0,rob ver 1B,2013-09-20 04:55:00,
2013-09-19 21:56:00,85.9,54.4,29.21,South,169,8.0,11.1,34,-99.99,,,0.00,0,rob ver 1B,2013-09-20 04:56:00,
2013-09-19 21:57:00,85.9,54.4,29.21,SSE,165,9.3,11.6,34,-99.99,,,0.00,0,rob ver 1B,2013-09-20 04:57:00,
2013-09-19 21:58:00,85.9,54.4,29.21,SSE,164,9.6,12.6,34,-99.99,,,0.00,0,rob ver 1B,2013-09-20 04:58:00,
2013-09-19 21:59:00,86.2,45.2,29.18,East,87,1.8,2.5,23,-99.99,,,0.00,0,rob ver 1A,2013-09-20 04:59:00,
2013-09-19 22:00:00,85.9,54.3,29.21,SSE,165,8.0,10.4,33,-99.99,,,0.00,0,rob ver 1B,2013-09-20 05:00:00,
2013-09-19 22:01:00,85.8,54.1,29.21,SSE,163,9.2,10.7,33,-99.99,,,0.00,0,rob ver 1B,2013-09-20 05:01:00,
2013-09-19 22:02:00,85.9,54.1,29.21,SSE,166,9.5,12.1,33,-99.99,,,0.00,0,rob ver 1B,2013-09-20 05:02:00,
2013-09-19 22:03:00,85.9,54.1,29.21,SSE,166,9.2,11.3,33,-99.99,,,0.00,0,rob ver 1B,2013-09-20 05:03:00,
2013-09-19 22:04:00,86.3,45.4,29.18,East,101,1.7,2.4,24,-99.99,,,0.00,0,rob ver 1A,2013-09-20 05:04:00,
2013-09-19 22:05:00,85.8,54.2,29.21,SSE,163,8.1,9.1,33,-99.99,,,0.00,0,rob ver 1B,2013-09-20 05:05:00,
2013-09-19 22:06:00,85.7,54.2,29.21,SSE,164,7.7,9.6,33,-99.99,,,0.00,0,rob ver 1B,2013-09-20 05:06:00,
2013-09-19 22:07:00,85.7,54.1,29.21,SSE,160,9.1,10.9,33,-99.99,,,0.00,0,rob ver 1B,2013-09-20 05:07:00,
2013-09-19 22:08:00,85.7,54.1,29.21,SSE,159,7.7,8.6,34,-99.99,,,0.00,0,rob ver 1B,2013-09-20 05:08:00,
2013-09-19 22:09:00,86.1,45.5,29.18,SE,138,1.8,2.3,24,-99.99,,,0.00,0,rob ver 1A,2013-09-20 05:09:00,
2013-09-19 22:10:00,85.6,54.0,29.21,SSE,161,7.3,8.9,34,-99.99,,,0.00,0,rob ver 1B,2013-09-20 05:10:00,
2013-09-19 22:11:00,85.6,54.0,29.21,SSE,162,7.8,8.9,34,-99.99,,,0.00,0,rob ver 1B,2013-09-20 05:11:00,
2013-09-19 22:12:00,85.5,54.1,29.21,SSE,165,7.1,8.4,34,-99.99,,,0.00,0,rob ver 1B,2013-09-20 05:12:00,
2013-09-19 22:13:00,85.5,54.1,29.21,SSE,166,7.5,8.6,34,-99.99,,,0.00,0,rob ver 1B,2013-09-20 05:13:00,
2013-09-19 22:14:00,85.6,45.8,29.18,ESE,110,1.1,1.5,25,-99.99,,,0.00,0,rob ver 1A,2013-09-20 05:14:00,
2013-09-19 22:15:00,85.4,54.0,29.21,SSE,164,7.6,9.3,34,-99.99,,,0.00,0,rob ver 1B,2013-09-20 05:15:00,
2013-09-19 22:16:00,85.3,54.0,29.21,SSE,162,7.3,8.3,34,-99.99,,,0.00,0,rob ver 1B,2013-09-20 05:16:00,
2013-09-19 22:17:00,85.3,54.0,29.21,SSE,159,7.3,8.7,34,-99.99,,,0.00,0,rob ver 1B,2013-09-20 05:17:00,
2013-09-19 22:18:00,85.3,54.0,29.21,SSE,160,6.3,7.2,34,-99.99,,,0.00,0,rob ver 1B,2013-09-20 05:18:00,
2013-09-19 22:19:00,85.4,45.8,29.18,East,96,1.7,2.4,25,-99.99,,,0.00,0,rob ver 1A,2013-09-20 05:19:00,
2013-09-19 22:20:00,85.2,53.9,29.21,SSE,161,7.1,8.4,34,-99.99,,,0.00,0,rob ver 1B,2013-09-20 05:20:00,
2013-09-19 22:21:00,85.2,53.9,29.21,SSE,159,7.0,8.1,34,-99.99,,,0.00,0,rob ver 1B,2013-09-20 05:21:00,
2013-09-19 22:22:00,85.2,53.9,29.21,SSE,162,6.4,8.6,34,-99.99,,,0.00,0,rob ver 1B,2013-09-20 05:22:00,
2013-09-19 22:23:00,85.1,53.9,29.21,SSE,163,6.8,8.2,34,-99.99,,,0.00,0,rob ver 1B,2013-09-20 05:23:00,
2013-09-19 22:24:00,84.9,46.2,29.18,ENE,77,2.7,3.1,26,-99.99,,,0.00,0,rob ver 1A,2013-09-20 05:24:00,
2013-09-19 22:25:00,85.0,53.9,29.21,SSE,166,6.6,8.9,34,-99.99,,,0.00,0,rob ver 1B,2013-09-20 05:25:00,
2013-09-19 22:26:00,84.9,53.8,29.21,SSE,165,7.2,8.7,34,-99.99,,,0.00,0,rob ver 1B,2013-09-20 05:26:00,
2013-09-19 22:27:00,84.9,53.7,29.21,SSE,164,7.6,10.1,34,-99.99,,,0.00,0,rob ver 1B,2013-09-20 05:27:00,
2013-09-19 22:28:00,84.9,53.7,29.21,SSE,163,6.9,8.0,34,-99.99,,,0.00,0,rob ver 1B,2013-09-20 05:28:00,
2013-09-19 22:29:00,84.8,53.7,29.21,SSE,162,6.5,7.5,34,-99.99,,,0.00,0,rob ver 1B,2013-09-20 05:29:00,
2013-09-19 22:30:00,84.7,46.0,29.18,ENE,72,2.7,3.6,25,-99.99,,,0.00,0,rob ver 1A,2013-09-20 05:30:00,
2013-09-19 22:31:00,84.7,53.6,29.21,SSE,163,6.4,8.0,34,-99.99,,,0.00,0,rob ver 1B,2013-09-20 05:31:00,
2013-09-19 22:32:00,84.7,53.5,29.21,SSE,161,5.7,6.9,34,-99.99,,,0.00,0,rob ver 1B,2013-09-20 05:32:00,
2013-09-19 22:33:00,84.7,53.5,29.21,SSE,163,5.3,6.6,34,-99.99,,,0.00,0,rob ver 1B,2013-09-20 05:33:00,
2013-09-19 22:34:00,84.7,53.4,29.21,SSE,164,4.6,5.4,34,-99.99,,,0.00,0,rob ver 1B,2013-09-20 05:34:00,
2013-09-19 22:35:00,85.6,45.4,29.18,ESE,108,3.2,4.1,24,-99.99,,,0.00,0,rob ver 1A,2013-09-20 05:35:00,
2013-09-19 22:36:00,84.5,53.2,29.21,South,173,4.3,5.0,34,-99.99,,,0.00,0,rob ver 1B,2013-09-20 05:36:00,
2013-09-19 22:37:00,84.5,53.1,29.21,South,174,4.3,5.3,33,-99.99,,,0.00,0,rob ver 1B,2013-09-20 05:37:00,
2013-09-19 22:38:00,84.5,53.1,29.21,South,176,3.5,4.7,34,-99.99,,,0.00,0,rob ver 1B,2013-09-20 05:38:00,
2013-09-19 22:39:00,84.4,53.2,29.21,South,177,3.7,5.3,34,-99.99,,,0.00,0,rob ver 1B,2013-09-20 05:39:00,
2013-09-19 22:40:00,86.4,45.0,29.21,SE,137,3.1,3.5,23,-99.99,,,0.00,0,rob ver 1A,2013-09-20 05:40:00,
2013-09-19 22:41:00,84.3,53.2,29.21,South,178,5.0,5.9,34,-99.99,,,0.00,0,rob ver 1B,2013-09-20 05:41:00,
2013-09-19 22:42:00,84.3,53.2,29.21,South,169,4.0,4.9,34,-99.99,,,0.00,0,rob ver 1B,2013-09-20 05:42:00,
2013-09-19 22:43:00,84.2,53.2,29.21,SSE,168,3.3,4.0,34,-99.99,,,0.00,0,rob ver 1B,2013-09-20 05:43:00,
2013-09-19 22:44:00,84.1,53.2,29.21,SSE,165,3.8,4.9,34,-99.99,,,0.00,0,rob ver 1B,2013-09-20 05:44:00,
2013-09-19 22:45:00,85.5,45.8,29.21,ENE,61,2.7,3.2,25,-99.99,,,0.00,0,rob ver 1A,2013-09-20 05:45:00,
2013-09-19 22:46:00,84.0,53.1,29.21,SSE,162,4.3,5.5,34,-99.99,,,0.00,0,rob ver 1B,2013-09-20 05:46:00,
2013-09-19 22:47:00,84.0,53.1,29.21,SSE,163,4.0,4.9,34,-99.99,,,0.00,0,rob ver 1B,2013-09-20 05:47:00,
2013-09-19 22:48:00,83.9,53.0,29.21,SSE,164,4.3,4.9,34,-99.99,,,0.00,0,rob ver 1B,2013-09-20 05:48:00,
2013-09-19 22:49:00,83.9,52.9,29.21,SSE,165,4.5,5.8,34,-99.99,,,0.00,0,rob ver 1B,2013-09-20 05:49:00,
2013-09-19 22:50:00,84.9,45.5,29.18,East,96,3.7,4.4,25,-99.99,,,0.00,0,rob ver 1A,2013-09-20 05:50:00,
2013-09-19 22:51:00,83.9,52.9,29.21,SSE,163,3.7,4.1,34,-99.99,,,0.00,0,rob ver 1B,2013-09-20 05:51:00,
2013-09-19 22:52:00,83.9,52.9,29.21,SSE,162,3.7,4.6,34,-99.99,,,0.00,0,rob ver 1B,2013-09-20 05:52:00,
2013-09-19 22:53:00,83.8,52.8,29.21,SSE,162,3.4,4.0,34,-99.99,,,0.00,0,rob ver 1B,2013-09-20 05:53:00,
2013-09-19 22:54:00,83.8,52.9,29.21,SSE,163,3.0,3.4,34,-99.99,,,0.00,0,rob ver 1B,2013-09-20 05:54:00,
2013-09-19 22:55:00,85.2,45.3,29.18,SE,127,4.1,5.3,24,-99.99,,,0.00,0,rob ver 1A,2013-09-20 05:55:00,
2013-09-19 22:56:00,83.7,52.7,29.21,South,171,3.3,4.0,34,-99.99,,,0.00,0,rob ver 1B,2013-09-20 05:56:00,
2013-09-19 22:57:00,83.7,52.6,29.21,South,175,3.4,3.8,34,-99.99,,,0.00,0,rob ver 1B,2013-09-20 05:57:00,
2013-09-19 22:58:00,83.7,52.6,29.21,South,178,3.5,4.1,34,-99.99,,,0.00,0,rob ver 1B,2013-09-20 05:58:00,
2013-09-19 22:59:00,83.7,52.6,29.21,South,184,3.8,4.3,34,-99.99,,,0.00,0,rob ver 1B,2013-09-20 05:59:00,
2013-09-19 23:00:00,85.0,45.0,29.21,SSE,152,4.9,7.0,24,-99.99,,,0.00,0,rob ver 1A,2013-09-20 06:00:00,
2013-09-19 23:01:00,83.6,52.5,29.21,South,186,3.8,4.5,34,-99.99,,,0.00,0,rob ver 1B,2013-09-20 06:01:00,
2013-09-19 23:02:00,83.5,52.5,29.21,South,187,3.9,4.7,34,-99.99,,,0.00,0,rob ver 1B,2013-09-20 06:02:00,
2013-09-19 23:03:00,83.5,52.6,29.21,South,187,4.1,5.4,34,-99.99,,,0.00,0,rob ver 1B,2013-09-20 06:03:00,
2013-09-19 23:04:00,83.5,52.6,29.21,South,185,3.6,4.3,34,-99.99,,,0.00,0,rob ver 1B,2013-09-20 06:04:00,
2013-09-19 23:05:00,85.4,45.1,29.21,SSE,147,4.1,5.2,24,-99.99,,,0.00,0,rob ver 1A,2013-09-20 06:05:00,
2013-09-19 23:06:00,83.4,52.8,29.21,South,182,4.3,5.5,34,-99.99,,,0.00,0,rob ver 1B,2013-09-20 06:06:00,
2013-09-19 23:07:00,83.3,52.8,29.21,South,181,4.1,4.7,35,-99.99,,,0.00,0,rob ver 1B,2013-09-20 06:07:00,
2013-09-19 23:08:00,83.3,53.0,29.21,South,178,3.4,4.1,35,-99.99,,,0.00,0,rob ver 1B,2013-09-20 06:08:00,
2013-09-19 23:09:00,83.2,53.1,29.21,South,180,3.5,4.4,35,-99.99,,,0.00,0,rob ver 1B,2013-09-20 06:09:00,
2013-09-19 23:10:00,84.8,45.8,29.21,ESE,120,4.2,6.8,26,-99.99,,,0.00,0,rob ver 1A,2013-09-20 06:10:00,
2013-09-19 23:11:00,83.2,53.0,29.21,South,180,3.6,4.9,35,-99.99,,,0.00,0,rob ver 1B,2013-09-20 06:11:00,
2013-09-19 23:12:00,83.2,53.1,29.21,South,171,3.1,3.7,35,-99.99,,,0.00,0,rob ver 1B,2013-09-20 06:12:00,
2013-09-19 23:13:00,83.2,53.2,29.21,SSE,154,2.0,2.9,35,-99.99,,,0.00,0,rob ver 1B,2013-09-20 06:13:00,
2013-09-19 23:14:00,83.1,53.5,29.21,ESE,111,2.0,2.9,36,-99.99,,,0.00,0,rob ver 1B,2013-09-20 06:14:00,
2013-09-19 23:15:00,84.5,48.4,29.21,SE,133,3.3,4.0,28,-99.99,,,0.00,0,rob ver 1A,2013-09-20 06:15:00,
2013-09-19 23:16:00,82.8,53.4,29.21,NE,41,4.8,5.6,36,-99.99,,,0.00,0,rob ver 1B,2013-09-20 06:16:00,
2013-09-19 23:17:00,82.8,53.5,29.21,NE,36,4.6,5.6,36,-99.99,,,0.00,0,rob ver 1B,2013-09-20 06:17:00,
2013-09-19 23:18:00,82.9,53.3,29.21,NE,36,4.3,5.1,35,-99.99,,,0.00,0,rob ver 1B,2013-09-20 06:18:00,
2013-09-19 23:19:00,83.0,53.0,29.21,NE,39,3.4,5.2,35,-99.99,,,0.00,0,rob ver 1B,2013-09-20 06:19:00,
2013-09-19 23:20:00,83.9,51.1,29.21,SE,141,4.2,6.0,31,-99.99,,,0.00,0,rob ver 1A,2013-09-20 06:20:00,
2013-09-19 23:21:00,83.3,52.7,29.21,East,93,1.5,2.2,34,-99.99,,,0.00,0,rob ver 1B,2013-09-20 06:21:00,
2013-09-19 23:22:00,83.4,52.6,29.21,ESE,123,2.5,3.4,34,-99.99,,,0.00,0,rob ver 1B,2013-09-20 06:22:00,
2013-09-19 23:23:00,83.5,52.6,29.21,SE,129,2.5,3.0,34,-99.99,,,0.00,0,rob ver 1B,2013-09-20 06:23:00,
2013-09-19 23:24:00,83.5,52.5,29.21,East,96,2.5,3.2,34,-99.99,,,0.00,0,rob ver 1B,2013-09-20 06:24:00,
2013-09-19 23:25:00,83.1,53.8,29.21,ESE,120,3.7,4.5,35,-99.99,,,0.00,0,rob ver 1A,2013-09-20 06:25:00,
2013-09-19 23:26:00,83.5,52.5,29.21,ENE,57,3.4,3.8,34,-99.99,,,0.00,0,rob ver 1B,2013-09-20 06:26:00,
2013-09-19 23:27:00,83.4,52.5,29.21,ENE,58,3.6,4.3,34,-99.99,,,0.00,0,rob ver 1B,2013-09-20 06:27:00,
2013-09-19 23:28:00,83.2,52.4,29.21,NE,50,3.8,4.7,34,-99.99,,,0.00,0,rob ver 1B,2013-09-20 06:28:00,
2013-09-19 23:29:00,83.1,52.4,29.21,NE,54,3.6,4.3,34,-99.99,,,0.00,0,rob ver 1B,2013-09-20 06:29:00,
2013-09-19 23:30:00,83.0,52.3,29.21,NE,53,3.7,4.3,34,-99.99,,,0.00,0,rob ver 1B,2013-09-20 06:30:00,
2013-09-19 23:31:00,82.7,56.2,29.21,ESE,103,3.1,3.8,40,-99.99,,,0.00,0,rob ver 1A,2013-09-20 06:31:00,
2013-09-19 23:32:00,83.0,52.2,29.23,NE,39,3.2,3.5,34,-99.99,,,0.00,0,rob ver 1B,2013-09-20 06:32:00,
2013-09-19 23:33:00,82.9,52.1,29.23,NE,36,3.6,4.0,34,-99.99,,,0.00,0,rob ver 1B,2013-09-20 06:33:00,
2013-09-19 23:34:00,83.1,52.1,29.21,NE,36,3.1,3.4,34,-99.99,,,0.00,0,rob ver 1B,2013-09-20 06:34:00,
2013-09-19 23:35:00,83.3,52.0,29.21,NE,40,2.9,3.3,33,-99.99,,,0.00,0,rob ver 1B,2013-09-20 06:35:00,
2013-09-19 23:36:00,82.5,57.7,29.21,East,87,3.2,3.7,42,-99.99,,,0.00,0,rob ver 1A,2013-09-20 06:36:00,
2013-09-19 23:37:00,83.1,52.0,29.23,NNE,19,2.9,3.3,33,-99.99,,,0.00,0,rob ver 1B,2013-09-20 06:37:00,
2013-09-19 23:38:00,83.3,51.9,29.21,NNE,12,2.3,2.8,33,-99.99,,,0.00,0,rob ver 1B,2013-09-20 06:38:00,
2013-09-19 23:39:00,83.4,51.9,29.23,North,10,1.7,2.1,33,-99.99,,,0.00,0,rob ver 1B,2013-09-20 06:39:00,
2013-09-19 23:40:00,83.5,52.1,29.23,NNW,342,1.5,3.0,34,-99.99,,,0.00,0,rob ver 1B,2013-09-20 06:40:00,
2013-09-19 23:41:00,82.5,58.2,29.21,East,79,3.8,4.5,43,-99.99,,,0.00,0,rob ver 1A,2013-09-20 06:41:00,
2013-09-19 23:42:00,82.8,53.3,29.23,West,269,3.8,4.0,36,-99.99,,,0.00,0,rob ver 1B,2013-09-20 06:42:00,
2013-09-19 23:43:00,82.3,53.7,29.23,West,275,3.9,4.0,37,-99.99,,,0.00,0,rob ver 1B,2013-09-20 06:43:00,
2013-09-19 23:44:00,81.8,53.7,29.23,WNW,283,3.7,3.9,37,-99.99,,,0.00,0,rob ver 1B,2013-09-20 06:44:00,
2013-09-19 23:45:00,81.7,53.6,29.23,WNW,288,3.7,3.8,38,-99.99,,,0.00,0,rob ver 1B,2013-09-20 06:45:00,
2013-09-19 23:46:00,83.0,58.7,29.21,ESE,103,3.9,5.5,43,-99.99,,,0.00,0,rob ver 1A,2013-09-20 06:46:00,
2013-09-19 23:47:00,81.5,53.7,29.23,WNW,286,2.9,3.4,38,-99.99,,,0.00,0,rob ver 1B,2013-09-20 06:47:00,
2013-09-19 23:48:00,81.5,53.8,29.23,West,278,2.6,2.8,38,-99.99,,,0.00,0,rob ver 1B,2013-09-20 06:48:00,
2013-09-19 23:49:00,81.4,53.8,29.23,WNW,286,2.5,2.6,38,-99.99,,,0.00,0,rob ver 1B,2013-09-20 06:49:00,
2013-09-19 23:50:00,81.4,53.7,29.23,WNW,302,2.3,2.5,38,-99.99,,,0.00,0,rob ver 1B,2013-09-20 06:50:00,
2013-09-19 23:51:00,83.0,59.5,29.21,East,95,4.1,6.2,45,-99.99,,,0.00,0,rob ver 1A,2013-09-20 06:51:00,
2013-09-19 23:52:00,81.6,53.8,29.23,WNW,302,1.5,2.0,38,-99.99,,,0.00,0,rob ver 1B,2013-09-20 06:52:00,
2013-09-19 23:53:00,81.6,53.9,29.23,WNW,288,1.3,1.4,38,-99.99,,,0.00,0,rob ver 1B,2013-09-20 06:53:00,
2013-09-19 23:54:00,81.5,53.9,29.23,West,273,1.2,1.3,38,-99.99,,,0.00,0,rob ver 1B,2013-09-20 06:54:00,
2013-09-19 23:55:00,81.5,53.9,29.23,West,271,1.0,1.2,38,-99.99,,,0.00,0,rob ver 1B,2013-09-20 06:55:00,
2013-09-19 23:56:00,82.9,59.8,29.21,ESE,106,4.3,6.0,45,-99.99,,,0.00,0,rob ver 1A,2013-09-20 06:56:00,
2013-09-19 23:57:00,81.4,53.9,29.23,WSW,251,1.2,1.3,38,-99.99,,,0.00,0,rob ver 1B,2013-09-20 06:57:00,
2013-09-19 23:58:00,81.4,53.8,29.23,West,267,1.4,1.6,38,-99.99,,,0.00,0,rob ver 1B,2013-09-20 06:58:00,
2013-09-19 23:59:00,81.3,53.8,29.23,WNW,282,1.7,1.8,38,-99.99,,,0.00,0,rob ver 1B,2013-09-20 06:59:00,